Provisional Data: Little Clearfield Creek near Dimeling, PA


Please select a monitoring station.
Please select start date.
Please select start date.

Toggle Unit: C/F Toggle Unit: C/F
Sample Time Temperature (C) Temperature (F) Specific Conductivity (mS/cm) pH   Turbidity (NTU+) DO (mg/L)
3/7/2021 12:00:00 AM 0.83 33.494 0.285 7.58 4.52 13.78
3/7/2021 12:15:00 AM 0.78 33.404 0.285 7.57 4.52 13.79
3/7/2021 12:30:00 AM 0.74 33.332 0.286 7.57 4.7 13.81
3/7/2021 12:45:00 AM 0.69 33.242 0.286 7.58 4.63 13.84
3/7/2021 1:00:00 AM 0.65 33.17 0.286 7.58 4.59 13.85
3/7/2021 1:15:00 AM 0.6 33.08 0.287 7.58 4.73 13.87
3/7/2021 1:30:00 AM 0.56 33.008 0.286 7.58 4.48 13.88
3/7/2021 1:45:00 AM 0.51 32.918 0.287 7.58 4.5 13.9
3/7/2021 2:00:00 AM 0.47 32.846 0.286 7.58 4.54 13.92
3/7/2021 2:15:00 AM 0.43 32.774 0.287 7.58 4.48 13.93
3/7/2021 2:30:00 AM 0.38 32.684 0.287 7.58 4.62 13.94
3/7/2021 2:45:00 AM 0.34 32.612 0.288 7.58 4.57 13.97
3/7/2021 3:00:00 AM 0.29 32.522 0.288 7.58 4.74 13.98
3/7/2021 3:15:00 AM 0.25 32.45 0.289 7.58 4.38 14
3/7/2021 3:30:00 AM 0.21 32.378 0.29 7.58 4.48 14.02
3/7/2021 3:45:00 AM 0.16 32.288 0.289 7.58 4.46 14.05
3/7/2021 4:00:00 AM 0.12 32.216 0.29 7.58 4.68 14.07
3/7/2021 4:15:00 AM 0.07 32.126 0.29 7.58 4.36 14.09
3/7/2021 4:30:00 AM 0.03 32.054 0.29 7.58 4.57 14.11
3/7/2021 4:45:00 AM -0.01 31.982 0.291 7.58 4.64 14.13
3/7/2021 5:00:00 AM -0.05 31.91 0.292 7.58 4.45 14.15
3/7/2021 5:15:00 AM -0.09 31.838 0.292 7.58 4.54 14.17
3/7/2021 5:30:00 AM -0.07 31.874 0.293 7.59 4.45 14.21
3/7/2021 5:45:00 AM -0.07 31.874 0.293 7.58 4.7 14.22
3/7/2021 6:00:00 AM -0.07 31.874 0.293 7.58 4.5 14.23
3/7/2021 6:15:00 AM -0.06 31.892 0.293 7.58 4.52 14.24
3/7/2021 6:30:00 AM -0.06 31.892 0.294 7.58 4.55 14.26
3/7/2021 6:45:00 AM -0.06 31.892 0.294 7.58 4.48 14.28
3/7/2021 7:00:00 AM -0.06 31.892 0.295 7.58 4.43 14.29
3/7/2021 7:15:00 AM -0.06 31.892 0.295 7.58 4.45 14.3
3/7/2021 7:30:00 AM -0.06 31.892 0.296 7.58 4.27 14.31
3/7/2021 7:45:00 AM -0.06 31.892 0.296 7.58 4.17 14.33
3/7/2021 8:00:00 AM -0.06 31.892 0.296 7.58 4.28 14.34
3/7/2021 8:15:00 AM -0.05 31.91 0.296 7.58 4.34 14.35
3/7/2021 8:30:00 AM -0.04 31.928 0.297 7.58 4.17 14.35
3/7/2021 8:45:00 AM -0.03 31.946 0.297 7.58 4.11 14.35
3/7/2021 9:00:00 AM -0.03 31.946 0.297 7.58 4.14 14.35
3/7/2021 9:15:00 AM -0.02 31.964 0.297 7.58 4.39 14.36
3/7/2021 9:30:00 AM -0.02 31.964 0.298 7.58 4.17 14.36
3/7/2021 9:45:00 AM -0.01 31.982 0.297 7.58 4.09 14.36
3/7/2021 10:00:00 AM -0.01 31.982 0.298 7.58 4.06 14.35
3/7/2021 10:15:00 AM -0.02 31.964 0.298 7.58 4.19 14.35
3/7/2021 10:30:00 AM -0.01 31.982 0.297 7.58 4.31 14.34
3/7/2021 10:45:00 AM 0 32 0.298 7.59 4.61 14.33
3/7/2021 11:00:00 AM 0.02 32.036 0.297 7.59 4.74 14.32
3/7/2021 11:15:00 AM 0.06 32.108 0.298 7.59 4.64 14.31
3/7/2021 11:30:00 AM 0.11 32.198 0.297 7.59 4.94 14.3
3/7/2021 11:45:00 AM 0.18 32.324 0.297 7.59 5.14 14.28
3/7/2021 12:00:00 PM 0.3 32.54 0.298 7.59 4.98 14.25
3/7/2021 12:15:00 PM 0.44 32.792 0.297 7.59 5.68 14.24
3/7/2021 12:30:00 PM 0.57 33.026 0.297 7.6 5.19 14.21
3/7/2021 12:45:00 PM 0.71 33.278 0.299 7.6 5.31 14.18
3/7/2021 1:00:00 PM 0.86 33.548 0.298 7.61 5.34 14.16
3/7/2021 1:15:00 PM 1.02 33.836 0.298 7.61 5.29 14.13
3/7/2021 1:30:00 PM 1.15 34.07 0.298 7.61 5.6 14.1
3/7/2021 1:45:00 PM 1.3 34.34 0.298 7.61 4.95 14.06
3/7/2021 2:00:00 PM 1.43 34.574 0.299 7.61 5.28 14.03
3/7/2021 2:15:00 PM 1.54 34.772 0.298 7.61 4.92 14
3/7/2021 2:30:00 PM 1.64 34.952 0.298 7.62 4.7 13.98
3/7/2021 2:45:00 PM 1.74 35.132 0.299 7.61 5.1 13.94
3/7/2021 3:00:00 PM 1.82 35.276 0.298 7.62 4.86 13.91
3/7/2021 3:15:00 PM 1.88 35.384 0.298 7.62 5.16 13.88
3/7/2021 3:30:00 PM 1.91 35.438 0.298 7.62 4.88 13.85
3/7/2021 3:45:00 PM 1.93 35.474 0.298 7.62 4.48 13.83
3/7/2021 4:00:00 PM 1.94 35.492 0.298 7.62 4.88 13.81
3/7/2021 4:15:00 PM 1.91 35.438 0.299 7.63 4.78 13.79
3/7/2021 4:30:00 PM 1.89 35.402 0.299 7.63 4.84 13.78
3/7/2021 4:45:00 PM 1.85 35.33 0.299 7.63 5.17 13.76
3/7/2021 5:00:00 PM 1.82 35.276 0.3 7.63 4.99 13.75
3/7/2021 5:15:00 PM 1.79 35.222 0.3 7.63 5.03 13.74
3/7/2021 5:30:00 PM 1.76 35.168 0.301 7.63 4.69 13.72
3/7/2021 5:45:00 PM 1.74 35.132 0.301 7.63 4.69 13.72
3/7/2021 6:00:00 PM 1.72 35.096 0.302 7.63 4.57 13.7
3/7/2021 6:15:00 PM 1.69 35.042 0.301 7.63 4.59 13.69
3/7/2021 6:30:00 PM 1.66 34.988 0.301 7.63 4.38 13.69
3/7/2021 6:45:00 PM 1.64 34.952 0.301 7.62 4.68 13.68
3/7/2021 7:00:00 PM 1.61 34.898 0.302 7.63 4.7 13.68
3/7/2021 7:15:00 PM 1.59 34.862 0.302 7.63 4.61 13.67
3/7/2021 7:30:00 PM 1.58 34.844 0.303 7.63 4.96 13.66
3/7/2021 7:45:00 PM 1.56 34.808 0.303 7.63 4.64 13.66
3/7/2021 8:00:00 PM 1.53 34.754 0.304 7.63 4.84 13.66
3/7/2021 8:15:00 PM 1.51 34.718 0.304 7.63 5.99 13.67
3/7/2021 8:30:00 PM 1.47 34.646 0.305 7.63 4.83 13.68
3/7/2021 8:45:00 PM 1.44 34.592 0.305 7.63 4.98 13.69
3/7/2021 9:00:00 PM 1.4 34.52 0.305 7.63 4.79 13.7
3/7/2021 9:15:00 PM 1.35 34.43 0.306 7.63 4.87 13.71
3/7/2021 9:30:00 PM 1.31 34.358 0.306 7.63 4.53 13.72
3/7/2021 9:45:00 PM 1.25 34.25 0.306 7.63 4.36 13.74
3/7/2021 10:00:00 PM 1.2 34.16 0.307 7.63 4.7 13.76
3/7/2021 10:15:00 PM 1.15 34.07 0.306 7.63 4.68 13.77
3/7/2021 10:30:00 PM 1.1 33.98 0.307 7.63 4.68 13.79
3/7/2021 10:45:00 PM 1.05 33.89 0.307 7.63 4.57 13.8
3/7/2021 11:00:00 PM 1 33.8 0.307 7.63 4.27 13.81
3/7/2021 11:15:00 PM 0.96 33.728 0.308 7.63 4.62 13.82
3/7/2021 11:30:00 PM 0.92 33.656 0.309 7.62 4.76 13.84
3/7/2021 11:45:00 PM 0.88 33.584 0.31 7.63 5.03 13.85
3/8/2021 12:00:00 AM 0.84 33.512 0.311 7.63 4.9 13.86
3/8/2021 12:15:00 AM 0.8 33.44 0.311 7.63 5.1 13.88
3/8/2021 12:30:00 AM 0.77 33.386 0.311 7.63 4.92 13.89
3/8/2021 12:45:00 AM 0.72 33.296 0.312 7.63 5.61 13.91
3/8/2021 1:00:00 AM 0.67 33.206 0.312 7.63 4.97 13.93
3/8/2021 1:15:00 AM 0.62 33.116 0.313 7.63 5.04 13.95
3/8/2021 1:30:00 AM 0.57 33.026 0.313 7.63 4.98 13.98
3/8/2021 1:45:00 AM 0.52 32.936 0.313 7.62 4.78 14
3/8/2021 2:00:00 AM 0.45 32.81 0.313 7.63 4.92 14.02
3/8/2021 2:15:00 AM 0.39 32.702 0.312 7.63 4.81 14.04
3/8/2021 2:30:00 AM 0.33 32.594 0.313 7.63 4.69 14.08
3/8/2021 2:45:00 AM 0.27 32.486 0.313 7.63 4.71 14.1
3/8/2021 3:00:00 AM 0.21 32.378 0.314 7.63 4.79 14.12
3/8/2021 3:15:00 AM 0.16 32.288 0.314 7.63 4.78 14.14
3/8/2021 3:30:00 AM 0.1 32.18 0.315 7.63 4.83 14.16
3/8/2021 3:45:00 AM 0.04 32.072 0.316 7.63 4.26 14.18
3/8/2021 4:00:00 AM -0.01 31.982 0.316 7.63 4.33 14.2
3/8/2021 4:15:00 AM -0.06 31.892 0.316 7.63 3.97 14.22
3/8/2021 4:30:00 AM -0.1 31.82 0.316 7.63 4.21 14.25
3/8/2021 4:45:00 AM -0.07 31.874 0.318 7.63 4.42 14.27
3/8/2021 5:00:00 AM -0.07 31.874 0.318 7.63 4.13 14.29
3/8/2021 5:15:00 AM -0.07 31.874 0.318 7.63 3.87 14.31
3/8/2021 5:30:00 AM -0.07 31.874 0.318 7.63 4.25 14.32
3/8/2021 5:45:00 AM -0.07 31.874 0.32 7.63 4.21 14.33
3/8/2021 6:00:00 AM -0.07 31.874 0.32 7.63 4.2 14.34
3/8/2021 6:15:00 AM -0.07 31.874 0.321 7.63 4.12 14.36
3/8/2021 6:30:00 AM -0.06 31.892 0.321 7.63 4.06 14.35
3/8/2021 6:45:00 AM -0.06 31.892 0.322 7.63 4.05 14.37
3/8/2021 7:00:00 AM -0.06 31.892 0.323 7.63 4.45 14.38
3/8/2021 7:15:00 AM -0.06 31.892 0.323 7.63 4.1 14.39
3/8/2021 7:30:00 AM -0.06 31.892 0.322 7.63 4.32 14.4
3/8/2021 7:45:00 AM -0.06 31.892 0.323 7.63 3.75 14.41
3/8/2021 8:00:00 AM -0.06 31.892 0.323 7.63 3.76 14.41
3/8/2021 8:15:00 AM -0.05 31.91 0.323 7.63 3.93 14.42
3/8/2021 8:30:00 AM -0.04 31.928 0.323 7.63 3.95 14.43
3/8/2021 8:45:00 AM -0.04 31.928 0.324 7.63 3.68 14.42
3/8/2021 9:00:00 AM -0.03 31.946 0.323 7.63 3.66 14.42
3/8/2021 9:15:00 AM -0.02 31.964 0.324 7.63 3.65 14.43
3/8/2021 9:30:00 AM -0.02 31.964 0.324 7.63 3.74 14.42
3/8/2021 9:45:00 AM 0 32 0.323 7.63 3.86 14.42
3/8/2021 10:00:00 AM -0.01 31.982 0.323 7.63 3.75 14.41
3/8/2021 10:15:00 AM -0.01 31.982 0.322 7.63 4.02 14.4
3/8/2021 10:30:00 AM -0.01 31.982 0.322 7.63 4.37 14.39
3/8/2021 10:45:00 AM 0.01 32.018 0.322 7.64 4.01 14.39
3/8/2021 11:00:00 AM 0.06 32.108 0.322 7.64 4.41 14.37
3/8/2021 11:15:00 AM 0.08 32.144 0.322 7.64 4.8 14.37
3/8/2021 11:30:00 AM 0.12 32.216 0.322 7.64 4.18 14.35
3/8/2021 11:45:00 AM 0.21 32.378 0.322 7.64 5.21 14.33
3/8/2021 12:00:00 PM 0.36 32.648 0.321 7.64 4.64 14.31
3/8/2021 12:15:00 PM 0.45 32.81 0.32 7.64 4.74 14.28
3/8/2021 12:30:00 PM 0.58 33.044 0.321 7.64 4.54 14.27
3/8/2021 12:45:00 PM 0.73 33.314 0.321 7.65 4.58 14.23
3/8/2021 1:00:00 PM 0.89 33.602 0.322 7.65 4.53 14.21
3/8/2021 1:15:00 PM 0.99 33.782 0.321 7.65 4.32 14.18
3/8/2021 1:30:00 PM 1.13 34.034 0.321 7.66 4.48 14.16
3/8/2021 1:45:00 PM 1.22 34.196 0.321 7.66 4.41 14.13
3/8/2021 2:00:00 PM 1.3 34.34 0.32 7.66 6.41 14.11
3/8/2021 2:15:00 PM 1.36 34.448 0.322 7.66 4.67 14.09
3/8/2021 2:30:00 PM 1.43 34.574 0.32 7.66 4.18 14.06
3/8/2021 2:45:00 PM 1.5 34.7 0.321 7.66 4.44 14.03
3/8/2021 3:00:00 PM 1.61 34.898 0.321 7.66 4.31 14
3/8/2021 3:15:00 PM 1.72 35.096 0.32 7.66 4.5 13.95
3/8/2021 3:30:00 PM 1.81 35.258 0.32 7.67 4.59 13.92
3/8/2021 3:45:00 PM 1.87 35.366 0.319 7.67 4.61 13.88
3/8/2021 4:00:00 PM 1.89 35.402 0.32 7.67 4.56 13.86
3/8/2021 4:15:00 PM 1.98 35.564 0.32 7.67 4.35 13.84
3/8/2021 4:30:00 PM 2.04 35.672 0.32 7.67 4.38 13.81
3/8/2021 4:45:00 PM 2.02 35.636 0.32 7.67 4.45 13.79
3/8/2021 5:00:00 PM 2.01 35.618 0.321 7.67 4.35 13.76
3/8/2021 5:15:00 PM 2.03 35.654 0.321 7.67 4.38 13.74
3/8/2021 5:30:00 PM 2.04 35.672 0.321 7.67 4.46 13.72
3/8/2021 5:45:00 PM 2.05 35.69 0.321 7.67 4.54 13.69
3/8/2021 6:00:00 PM 2.05 35.69 0.322 7.67 4.63 13.66
3/8/2021 6:15:00 PM 2.04 35.672 0.322 7.67 4.48 13.63
3/8/2021 6:30:00 PM 2.03 35.654 0.322 7.67 4.4 13.62
3/8/2021 6:45:00 PM 2.02 35.636 0.322 7.67 4.71 13.61
3/8/2021 7:00:00 PM 1.99 35.582 0.322 7.67 4.72 13.6
3/8/2021 7:15:00 PM 1.97 35.546 0.323 7.67 4.51 13.59
3/8/2021 7:30:00 PM 1.96 35.528 0.323 7.67 4.48 13.59
3/8/2021 7:45:00 PM 1.94 35.492 0.324 7.67 4.33 13.57
3/8/2021 8:00:00 PM 1.91 35.438 0.325 7.67 4.44 13.57
3/8/2021 8:15:00 PM 1.89 35.402 0.325 7.67 4.35 13.57
3/8/2021 8:30:00 PM 1.87 35.366 0.326 7.67 4.22 13.56
3/8/2021 8:45:00 PM 1.85 35.33 0.326 7.67 4.39 13.56
3/8/2021 9:00:00 PM 1.83 35.294 0.326 7.66 4.37 13.56
3/8/2021 9:15:00 PM 1.82 35.276 0.327 7.66 4.54 13.55
3/8/2021 9:30:00 PM 1.8 35.24 0.327 7.67 4.34 13.55
3/8/2021 9:45:00 PM 1.79 35.222 0.327 7.67 4.31 13.55
3/8/2021 10:00:00 PM 1.77 35.186 0.327 7.67 4.23 13.55
3/8/2021 10:15:00 PM 1.77 35.186 0.327 7.66 4.44 13.55
3/8/2021 10:30:00 PM 1.78 35.204 0.328 7.67 4.19 13.55
3/8/2021 10:45:00 PM 1.76 35.168 0.327 7.67 4.4 13.55
3/8/2021 11:00:00 PM 1.76 35.168 0.328 7.67 4.41 13.56
3/8/2021 11:15:00 PM 1.75 35.15 0.328 7.66 4.4 13.56
3/8/2021 11:30:00 PM 1.74 35.132 0.328 7.66 4.44 13.56
3/8/2021 11:45:00 PM 1.73 35.114 0.328 7.66 4.04 13.57
3/9/2021 12:00:00 AM 1.7 35.06 0.329 7.66 4.24 13.58
3/9/2021 12:15:00 AM 1.68 35.024 0.328 7.66 4.33 13.59
3/9/2021 12:30:00 AM 1.67 35.006 0.329 7.66 4.24 13.59
3/9/2021 12:45:00 AM 1.66 34.988 0.33 7.66 4.14 13.58
3/9/2021 1:00:00 AM 1.65 34.97 0.33 7.66 4.54 13.59
3/9/2021 1:15:00 AM 1.64 34.952 0.33 7.66 4.56 13.59
3/9/2021 1:30:00 AM 1.64 34.952 0.331 7.66 4.36 13.58
3/9/2021 1:45:00 AM 1.62 34.916 0.331 7.66 4.35 13.58
3/9/2021 2:00:00 AM 1.61 34.898 0.331 7.66 4.62 13.59
3/9/2021 2:15:00 AM 1.6 34.88 0.332 7.66 4.54 13.6
3/9/2021 2:30:00 AM 1.59 34.862 0.332 7.66 4.31 13.59
3/9/2021 2:45:00 AM 1.58 34.844 0.332 7.66 4.41 13.59
3/9/2021 3:00:00 AM 1.57 34.826 0.331 7.66 4.29 13.6
3/9/2021 3:15:00 AM 1.56 34.808 0.332 7.66 5.15 13.6
3/9/2021 3:30:00 AM 1.55 34.79 0.332 7.66 4.6 13.61
3/9/2021 3:45:00 AM 1.54 34.772 0.332 7.66 4.25 13.61
3/9/2021 4:00:00 AM 1.53 34.754 0.332 7.66 4.22 13.62
3/9/2021 4:15:00 AM 1.52 34.736 0.333 7.66 4.07 13.62
3/9/2021 4:30:00 AM 1.51 34.718 0.333 7.66 3.94 13.62
3/9/2021 4:45:00 AM 1.5 34.7 0.333 7.66 4.05 13.63
3/9/2021 5:00:00 AM 1.48 34.664 0.334 7.66 4.18 13.64
3/9/2021 5:15:00 AM 1.46 34.628 0.335 7.66 3.95 13.64
3/9/2021 5:30:00 AM 1.44 34.592 0.334 7.66 3.96 13.64
3/9/2021 5:45:00 AM 1.42 34.556 0.335 7.66 4.23 13.65
3/9/2021 6:00:00 AM 1.41 34.538 0.335 7.66 4.17 13.66
3/9/2021 6:15:00 AM 1.4 34.52 0.335 7.66 3.9 13.66
3/9/2021 6:30:00 AM 1.39 34.502 0.336 7.66 3.81 13.66
3/9/2021 6:45:00 AM 1.38 34.484 0.337 7.66 4.05 13.67
3/9/2021 7:00:00 AM 1.38 34.484 0.337 7.66 4.15 13.67
3/9/2021 7:15:00 AM 1.37 34.466 0.337 7.67 4.23 13.68
3/9/2021 7:30:00 AM 1.37 34.466 0.337 7.67 4.86 13.69
3/9/2021 7:45:00 AM 1.38 34.484 0.338 7.66 7.34 13.7
3/9/2021 8:00:00 AM 1.4 34.52 0.338 7.67 4.99 13.7
3/9/2021 8:15:00 AM 1.43 34.574 0.338 7.67 4.44 13.71
3/9/2021 8:30:00 AM 1.47 34.646 0.337 7.67 3.97 13.71
3/9/2021 8:45:00 AM 1.52 34.736 0.338 7.67 4.42 13.71
3/9/2021 9:00:00 AM 1.58 34.844 0.338 7.67 4.64 13.71
3/9/2021 9:15:00 AM 1.66 34.988 0.338 7.68 4.88 13.72
3/9/2021 9:30:00 AM 1.74 35.132 0.337 7.68 4.54 13.71
3/9/2021 9:45:00 AM 1.84 35.312 0.338 7.68 4.93 13.7
3/9/2021 10:00:00 AM 1.94 35.492 0.337 7.69 5.14 13.69
3/9/2021 10:15:00 AM 2.04 35.672 0.338 7.69 3.94 13.67
3/9/2021 10:30:00 AM 2.18 35.924 0.338 7.69 3.95 13.64
3/9/2021 10:45:00 AM 2.31 36.158 0.337 7.69 3.7 13.62
3/9/2021 11:00:00 AM 2.43 36.374 0.337 7.7 3.64 13.59
3/9/2021 11:15:00 AM 2.59 36.662 0.337 7.7 3.96 13.55
3/9/2021 11:30:00 AM 2.74 36.932 0.337 7.7 3.61 13.52
3/9/2021 11:45:00 AM 2.91 37.238 0.337 7.7 4.18 13.48
3/9/2021 12:00:00 PM 3.07 37.526 0.337 7.71 3.91 13.45
3/9/2021 12:15:00 PM 3.24 37.832 0.337 7.71 3.63 13.4
3/9/2021 12:30:00 PM 3.4 38.12 0.336 7.71 3.59 13.36
3/9/2021 12:45:00 PM 3.59 38.462 0.337 7.71 3.89 13.31
3/9/2021 1:00:00 PM 3.74 38.732 0.336 7.71 3.67 13.26
3/9/2021 1:15:00 PM 3.9 39.02 0.336 7.71 3.95 13.22
3/9/2021 1:30:00 PM 4.06 39.308 0.336 7.71 3.87 13.18
3/9/2021 1:45:00 PM 4.19 39.542 0.336 7.72 3.92 13.13
3/9/2021 2:00:00 PM 4.32 39.776 0.336 7.71 3.95 13.09
3/9/2021 2:15:00 PM 4.43 39.974 0.335 7.72 4.2 13.06
3/9/2021 2:30:00 PM 4.55 40.19 0.335 7.72 4.28 13.01
3/9/2021 2:45:00 PM 4.64 40.352 0.335 7.72 4.58 12.98
3/9/2021 3:00:00 PM 4.72 40.496 0.336 7.72 3.81 12.95
3/9/2021 3:15:00 PM 4.79 40.622 0.335 7.72 4 12.9
3/9/2021 3:30:00 PM 4.87 40.766 0.335 7.72 3.76 12.88
3/9/2021 3:45:00 PM 4.89 40.802 0.335 7.72 3.91 12.85
3/9/2021 4:00:00 PM 4.95 40.91 0.335 7.73 3.94 12.83
3/9/2021 4:15:00 PM 4.98 40.964 0.334 7.72 4.04 12.8
3/9/2021 4:30:00 PM 4.97 40.946 0.335 7.72 3.97 12.78
3/9/2021 4:45:00 PM 4.94 40.892 0.335 7.72 3.95 12.76
3/9/2021 5:00:00 PM 4.93 40.874 0.334 7.72 3.91 12.74
3/9/2021 5:15:00 PM 4.9 40.82 0.334 7.72 4.27 12.73
3/9/2021 5:30:00 PM 4.87 40.766 0.335 7.72 4.69 12.71
3/9/2021 5:45:00 PM 4.85 40.73 0.334 7.72 4.07 12.68
3/9/2021 6:00:00 PM 4.81 40.658 0.334 7.71 4.44 12.67
3/9/2021 6:15:00 PM 4.78 40.604 0.334 7.71 4.39 12.65
3/9/2021 6:30:00 PM 4.74 40.532 0.335 7.7 4.53 12.64
3/9/2021 6:45:00 PM 4.7 40.46 0.335 7.7 4.83 12.62
3/9/2021 7:00:00 PM 4.66 40.388 0.335 7.7 5.76 12.62
3/9/2021 7:15:00 PM 4.62 40.316 0.334 7.69 5.21 12.61
3/9/2021 7:30:00 PM 4.58 40.244 0.334 7.69 5.33 12.61
3/9/2021 7:45:00 PM 4.54 40.172 0.334 7.69 5.43 12.61
3/9/2021 8:00:00 PM 4.5 40.1 0.334 7.69 5.75 12.62
3/9/2021 8:15:00 PM 4.45 40.01 0.334 7.69 5.81 12.62
3/9/2021 8:30:00 PM 4.41 39.938 0.334 7.68 5.72 12.63
3/9/2021 8:45:00 PM 4.37 39.866 0.334 7.68 5.84 12.63
3/9/2021 9:00:00 PM 4.33 39.794 0.334 7.68 5.87 12.64
3/9/2021 9:15:00 PM 4.29 39.722 0.334 7.68 6.3 12.65
3/9/2021 9:30:00 PM 4.25 39.65 0.334 7.68 5.72 12.66
3/9/2021 9:45:00 PM 4.21 39.578 0.334 7.68 6.14 12.66
3/9/2021 10:00:00 PM 4.17 39.506 0.334 7.68 6.34 12.67
3/9/2021 10:15:00 PM 4.12 39.416 0.334 7.67 5.8 12.68
3/9/2021 10:30:00 PM 4.08 39.344 0.334 7.67 5.77 12.69
3/9/2021 10:45:00 PM 4.03 39.254 0.334 7.67 6.21 12.7
3/9/2021 11:00:00 PM 3.98 39.164 0.334 7.67 6.31 12.71
3/9/2021 11:15:00 PM 3.93 39.074 0.333 7.67 6.25 12.73
3/9/2021 11:30:00 PM 3.88 38.984 0.333 7.67 6.06 12.75
3/9/2021 11:45:00 PM 3.83 38.894 0.334 7.67 6.61 12.76
3/10/2021 12:00:00 AM 3.79 38.822 0.334 7.67 6.47 12.77
3/10/2021 12:15:00 AM 3.75 38.75 0.334 7.67 6.53 12.78
3/10/2021 12:30:00 AM 3.72 38.696 0.334 7.67 6.85 12.8
3/10/2021 12:45:00 AM 3.69 38.642 0.334 7.67 6.73 12.81
3/10/2021 1:00:00 AM 3.65 38.57 0.334 7.67 7.55 12.82
3/10/2021 1:15:00 AM 3.62 38.516 0.334 7.67 7.32 12.83
3/10/2021 1:30:00 AM 3.58 38.444 0.334 7.67 6.94 12.84
3/10/2021 1:45:00 AM 3.54 38.372 0.334 7.67 6.96 12.86
3/10/2021 2:00:00 AM 3.5 38.3 0.334 7.67 7.26 12.88
3/10/2021 2:15:00 AM 3.46 38.228 0.334 7.67 7.27 12.89
3/10/2021 2:30:00 AM 3.42 38.156 0.334 7.67 7.08 12.91
3/10/2021 2:45:00 AM 3.37 38.066 0.334 7.67 7.81 12.92
3/10/2021 3:00:00 AM 3.33 37.994 0.334 7.67 8.2 12.93
3/10/2021 3:15:00 AM 3.28 37.904 0.334 7.67 7.33 12.95
3/10/2021 3:30:00 AM 3.24 37.832 0.334 7.67 7.8 12.97
3/10/2021 3:45:00 AM 3.2 37.76 0.334 7.67 7.92 12.98
3/10/2021 4:00:00 AM 3.16 37.688 0.334 7.67 7.4 13
3/10/2021 4:15:00 AM 3.12 37.616 0.334 7.67 7.73 13.01
3/10/2021 4:30:00 AM 3.08 37.544 0.335 7.67 7.77 13.02
3/10/2021 4:45:00 AM 3.05 37.49 0.335 7.67 7.7 13.04
3/10/2021 5:00:00 AM 3.02 37.436 0.335 7.67 7.04 13.05
3/10/2021 5:15:00 AM 2.99 37.382 0.336 7.67 7.16 13.07
3/10/2021 5:30:00 AM 2.96 37.328 0.336 7.67 6.87 13.08
3/10/2021 5:45:00 AM 2.93 37.274 0.335 7.67 6.75 13.09
3/10/2021 6:00:00 AM 2.91 37.238 0.335 7.67 6.84 13.1
3/10/2021 6:15:00 AM 2.88 37.184 0.336 7.67 6.6 13.1
3/10/2021 6:30:00 AM 2.85 37.13 0.335 7.67 6.67 13.11
3/10/2021 6:45:00 AM 2.83 37.094 0.336 7.67 6.59 13.12
3/10/2021 7:00:00 AM 2.81 37.058 0.335 7.67 6.38 13.13
3/10/2021 7:15:00 AM 2.78 37.004 0.335 7.67 6.26 13.14
3/10/2021 7:30:00 AM 2.76 36.968 0.335 7.67 6.48 13.15
3/10/2021 7:45:00 AM 2.76 36.968 0.335 7.67 6.45 13.16
3/10/2021 8:00:00 AM 2.75 36.95 0.335 7.67 6.32 13.17
3/10/2021 8:15:00 AM 2.76 36.968 0.334 7.67 6.36 13.19
3/10/2021 8:30:00 AM 2.78 37.004 0.334 7.67 6 13.2
3/10/2021 8:45:00 AM 2.79 37.022 0.334 7.67 6 13.21
3/10/2021 9:00:00 AM 2.82 37.076 0.334 7.67 6.38 13.22
3/10/2021 9:15:00 AM 2.84 37.112 0.333 7.67 5.89 13.24
3/10/2021 9:30:00 AM 2.88 37.184 0.332 7.67 5.97 13.25
3/10/2021 9:45:00 AM 2.93 37.274 0.331 7.67 5.86 13.25
3/10/2021 10:00:00 AM 2.99 37.382 0.331 7.67 5.7 13.25
3/10/2021 10:15:00 AM 3.07 37.526 0.331 7.67 5.64 13.25
3/10/2021 10:30:00 AM 3.16 37.688 0.33 7.67 5.89 13.24
3/10/2021 10:45:00 AM 3.25 37.85 0.329 7.67 5.78 13.23
3/10/2021 11:00:00 AM 3.37 38.066 0.327 7.68 5.6 13.21
3/10/2021 11:15:00 AM 3.5 38.3 0.326 7.68 5.71 13.18
3/10/2021 11:30:00 AM 3.63 38.534 0.325 7.68 5.71 13.17
3/10/2021 11:45:00 AM 3.78 38.804 0.324 7.68 5.86 13.15
3/10/2021 12:00:00 PM 3.93 39.074 0.323 7.68 5.69 13.12
3/10/2021 12:15:00 PM 4.11 39.398 0.322 7.68 5.64 13.08
3/10/2021 12:30:00 PM 4.28 39.704 0.321 7.69 5.5 13.05
3/10/2021 12:45:00 PM 4.47 40.046 0.32 7.69 5.45 13.02
3/10/2021 1:00:00 PM 4.66 40.388 0.319 7.69 5.61 12.97
3/10/2021 1:15:00 PM 4.86 40.748 0.318 7.68 5.33 12.92
3/10/2021 1:30:00 PM 5.03 41.054 0.317 7.68 5.42 12.88
3/10/2021 1:45:00 PM 5.21 41.378 0.316 7.68 5.59 12.83
3/10/2021 2:00:00 PM 5.37 41.666 0.316 7.68 5.23 12.79
3/10/2021 2:15:00 PM 5.52 41.936 0.315 7.69 5.64 12.75
3/10/2021 2:30:00 PM 5.64 42.152 0.313 7.69 5.56 12.71
3/10/2021 2:45:00 PM 5.76 42.368 0.312 7.69 5.37 12.66
3/10/2021 3:00:00 PM 5.85 42.53 0.312 7.69 5.51 12.63
3/10/2021 3:15:00 PM 5.91 42.638 0.311 7.69 5.55 12.59
3/10/2021 3:30:00 PM 5.95 42.71 0.31 7.69 5.3 12.56
3/10/2021 3:45:00 PM 5.94 42.692 0.309 7.69 5.42 12.54
3/10/2021 4:00:00 PM 5.93 42.674 0.308 7.69 5.39 12.51
3/10/2021 4:15:00 PM 5.92 42.656 0.308 7.69 5.72 12.5
3/10/2021 4:30:00 PM 5.92 42.656 0.307 7.69 5.67 12.47
3/10/2021 4:45:00 PM 5.92 42.656 0.306 7.69 6.11 12.44
3/10/2021 5:00:00 PM 5.91 42.638 0.306 7.68 5.85 12.43
3/10/2021 5:15:00 PM 5.89 42.602 0.305 7.68 6.22 12.39
3/10/2021 5:30:00 PM 5.88 42.584 0.304 7.68 6.02 12.38
3/10/2021 5:45:00 PM 5.85 42.53 0.304 7.67 6.68 12.35
3/10/2021 6:00:00 PM 5.83 42.494 0.303 7.67 6.53 12.33
3/10/2021 6:15:00 PM 5.8 42.44 0.302 7.66 6.95 12.3
3/10/2021 6:30:00 PM 5.78 42.404 0.302 7.66 7.16 12.28
3/10/2021 6:45:00 PM 5.76 42.368 0.301 7.66 7.72 12.26
3/10/2021 7:00:00 PM 5.74 42.332 0.301 7.65 8.67 12.25
3/10/2021 7:15:00 PM 5.7 42.26 0.3 7.64 8.83 12.24
3/10/2021 7:30:00 PM 5.66 42.188 0.3 7.64 9.22 12.23
3/10/2021 7:45:00 PM 5.62 42.116 0.299 7.64 8.93 12.24
3/10/2021 8:00:00 PM 5.57 42.026 0.299 7.63 9.44 12.23
3/10/2021 8:15:00 PM 5.51 41.918 0.299 7.63 9.23 12.24
3/10/2021 8:30:00 PM 5.46 41.828 0.299 7.62 9.61 12.24
3/10/2021 8:45:00 PM 5.41 41.738 0.299 7.62 9.15 12.25
3/10/2021 9:00:00 PM 5.35 41.63 0.299 7.62 9.77 12.27
3/10/2021 9:15:00 PM 5.29 41.522 0.298 7.61 10.07 12.28
3/10/2021 9:30:00 PM 5.23 41.414 0.298 7.61 9.62 12.29
3/10/2021 9:45:00 PM 5.18 41.324 0.297 7.61 9.69 12.3
3/10/2021 10:00:00 PM 5.13 41.234 0.297 7.61 9.95 12.31
3/10/2021 10:15:00 PM 5.09 41.162 0.297 7.6 10.25 12.31
3/10/2021 10:30:00 PM 5.05 41.09 0.296 7.6 10.7 12.32
3/10/2021 10:45:00 PM 5.01 41.018 0.296 7.6 11 12.33
3/10/2021 11:00:00 PM 4.97 40.946 0.296 7.6 11 12.34
3/10/2021 11:15:00 PM 4.93 40.874 0.295 7.6 11.43 12.36
3/10/2021 11:30:00 PM 4.89 40.802 0.296 7.59 11.96 12.37
3/10/2021 11:45:00 PM 4.84 40.712 0.295 7.59 11.94 12.39
3/11/2021 12:00:00 AM 4.8 40.64 0.295 7.59 12.7 12.41
3/11/2021 12:15:00 AM 4.75 40.55 0.294 7.59 13.45 12.42
3/11/2021 12:30:00 AM 4.71 40.478 0.294 7.58 13.23 12.44
3/11/2021 12:45:00 AM 4.68 40.424 0.292 7.58 13.08 12.46
3/11/2021 1:00:00 AM 4.64 40.352 0.292 7.58 12.83 12.46
3/11/2021 1:15:00 AM 4.61 40.298 0.292 7.58 13.26 12.48
3/11/2021 1:30:00 AM 4.58 40.244 0.291 7.58 13.71 12.49
3/11/2021 1:45:00 AM 4.55 40.19 0.29 7.58 14.04 12.5
3/11/2021 2:00:00 AM 4.53 40.154 0.29 7.58 13.74 12.5
3/11/2021 2:15:00 AM 4.51 40.118 0.289 7.58 14.56 12.51
3/11/2021 2:30:00 AM 4.49 40.082 0.288 7.58 14.57 12.51
3/11/2021 2:45:00 AM 4.48 40.064 0.289 7.58 14.98 12.51
3/11/2021 3:00:00 AM 4.47 40.046 0.288 7.58 14.57 12.52
3/11/2021 3:15:00 AM 4.46 40.028 0.289 7.58 13.98 12.51
3/11/2021 3:30:00 AM 4.46 40.028 0.288 7.58 13.86 12.51
3/11/2021 3:45:00 AM 4.47 40.046 0.288 7.58 14.43 12.52
3/11/2021 4:00:00 AM 4.47 40.046 0.287 7.58 13.73 12.51
3/11/2021 4:15:00 AM 4.48 40.064 0.287 7.57 12.97 12.51
3/11/2021 4:30:00 AM 4.48 40.064 0.287 7.57 13.79 12.5
3/11/2021 4:45:00 AM 4.48 40.064 0.286 7.57 13.09 12.5
3/11/2021 5:00:00 AM 4.48 40.064 0.285 7.57 14.1 12.5
3/11/2021 5:15:00 AM 4.47 40.046 0.285 7.57 13.13 12.5
3/11/2021 5:30:00 AM 4.46 40.028 0.284 7.57 13.74 12.5
3/11/2021 5:45:00 AM 4.44 39.992 0.283 7.57 14.41 12.5
3/11/2021 6:00:00 AM 4.42 39.956 0.283 7.57 13.11 12.51
3/11/2021 6:15:00 AM 4.4 39.92 0.282 7.57 13.13 12.52
3/11/2021 6:30:00 AM 4.37 39.866 0.281 7.57 14.04 12.53
3/11/2021 6:45:00 AM 4.34 39.812 0.28 7.57 12.35 12.53
3/11/2021 7:00:00 AM 4.32 39.776 0.279 7.57 12.6 12.55
3/11/2021 7:15:00 AM 4.29 39.722 0.277 7.57 12.3 12.56
3/11/2021 7:30:00 AM 4.27 39.686 0.276 7.56 12.72 12.57
3/11/2021 7:45:00 AM 4.27 39.686 0.275 7.56 12.53 12.58
3/11/2021 8:00:00 AM 4.27 39.686 0.274 7.56 12.7 12.6
3/11/2021 8:15:00 AM 4.28 39.704 0.272 7.56 12.61 12.6
3/11/2021 8:30:00 AM 4.3 39.74 0.271 7.56 11.87 12.62
3/11/2021 8:45:00 AM 4.34 39.812 0.269 7.56 12.26 12.63
3/11/2021 9:00:00 AM 4.37 39.866 0.268 7.56 12 12.63
3/11/2021 9:15:00 AM 4.43 39.974 0.267 7.56 12.18 12.64
3/11/2021 9:30:00 AM 4.45 40.01 0.266 7.56 11.76 12.64
3/11/2021 9:45:00 AM 4.47 40.046 0.264 7.56 11.39 12.64
3/11/2021 10:00:00 AM 4.54 40.172 0.263 7.56 11.87 12.64
3/11/2021 10:15:00 AM 4.6 40.28 0.263 7.56 12.8 12.64
3/11/2021 10:30:00 AM 4.65 40.37 0.261 7.56 12.3 12.64
3/11/2021 10:45:00 AM 4.71 40.478 0.261 7.56 10.96 12.63
3/11/2021 11:00:00 AM 4.81 40.658 0.26 7.57 10.93 12.63
3/11/2021 11:15:00 AM 4.91 40.838 0.259 7.57 11.31 12.62
3/11/2021 11:30:00 AM 5 41 0.258 7.57 11.16 12.61
3/11/2021 11:45:00 AM 5.04 41.072 0.257 7.57 11.14 12.58
3/11/2021 12:00:00 PM 5.11 41.198 0.256 7.57 12.09 12.57
3/11/2021 12:15:00 PM 5.16 41.288 0.256 7.58 11.2 12.55
3/11/2021 12:30:00 PM 5.18 41.324 0.255 7.58 11.04 12.54
3/11/2021 12:45:00 PM 5.2 41.36 0.255 7.57 10.41 12.52
3/11/2021 1:00:00 PM 5.23 41.414 0.254 7.57 10.65 12.51
3/11/2021 1:15:00 PM 5.26 41.468 0.254 7.57 10.57 12.51
3/11/2021 1:30:00 PM 5.33 41.594 0.254 7.57 10.86 12.5
3/11/2021 1:45:00 PM 5.35 41.63 0.254 7.57 10.98 12.49
3/11/2021 2:00:00 PM 5.37 41.666 0.254 7.57 10.75 12.47
3/11/2021 2:15:00 PM 5.38 41.684 0.253 7.57 11.23 12.46
3/11/2021 2:30:00 PM 5.38 41.684 0.253 7.57 10.57 12.45
3/11/2021 2:45:00 PM 5.39 41.702 0.253 7.57 10.91 12.43
3/11/2021 3:00:00 PM 5.4 41.72 0.252 7.56 11.5 12.41
3/11/2021 3:15:00 PM 5.41 41.738 0.251 7.56 11.27 12.4
3/11/2021 3:30:00 PM 5.44 41.792 0.252 7.56 10.78 12.4
3/11/2021 3:45:00 PM 5.46 41.828 0.251 7.56 10.8 12.39
3/11/2021 4:00:00 PM 5.48 41.864 0.251 7.56 11.18 12.38
3/11/2021 4:15:00 PM 5.48 41.864 0.25 7.56 11.26 12.38
3/11/2021 4:30:00 PM 5.47 41.846 0.25 7.55 11.48 12.36
3/11/2021 4:45:00 PM 5.46 41.828 0.25 7.55 11.73 12.35
3/11/2021 5:00:00 PM 5.46 41.828 0.249 7.55 12.13 12.34
3/11/2021 5:15:00 PM 5.46 41.828 0.248 7.54 12.75 12.33
3/11/2021 5:30:00 PM 5.47 41.846 0.248 7.54 13.05 12.32
3/11/2021 5:45:00 PM 5.47 41.846 0.247 7.54 13.64 12.31
3/11/2021 6:00:00 PM 5.48 41.864 0.246 7.54 14.81 12.3
3/11/2021 6:15:00 PM 5.48 41.864 0.246 7.54 14.95 12.29
3/11/2021 6:30:00 PM 5.47 41.846 0.245 7.52 15.17 12.28
3/11/2021 6:45:00 PM 5.46 41.828 0.245 7.51 14.97 12.28
3/11/2021 7:00:00 PM 5.45 41.81 0.243 7.51 14.93 12.27
3/11/2021 7:15:00 PM 5.45 41.81 0.242 7.51 15.61 12.26
3/11/2021 7:30:00 PM 5.46 41.828 0.242 7.51 16.79 12.26
3/11/2021 7:45:00 PM 5.46 41.828 0.241 7.5 18.6 12.26
3/11/2021 8:00:00 PM 5.47 41.846 0.24 7.5 17.16 12.25
3/11/2021 8:15:00 PM 5.48 41.864 0.24 7.5 16.98 12.24
3/11/2021 8:30:00 PM 5.48 41.864 0.239 7.5 18.19 12.24
3/11/2021 8:45:00 PM 5.48 41.864 0.238 7.49 19.06 12.23
3/11/2021 9:00:00 PM 5.48 41.864 0.238 7.49 28.64 12.23
3/11/2021 9:15:00 PM 5.48 41.864 0.237 7.49 20.33 12.22
3/11/2021 9:30:00 PM 5.49 41.882 0.237 7.48 22.54 12.22
3/11/2021 9:45:00 PM 5.5 41.9 0.236 7.48 22.36 12.21
3/11/2021 10:00:00 PM 5.51 41.918 0.236 7.48 24.07 12.21
3/11/2021 10:15:00 PM 5.52 41.936 0.235 7.48 32.81 12.2
3/11/2021 10:30:00 PM 5.53 41.954 0.234 7.48 25.56 12.19
3/11/2021 10:45:00 PM 5.55 41.99 0.234 7.48 22.31 12.19
3/11/2021 11:00:00 PM 5.56 42.008 0.234 7.48 25.81 12.18
3/11/2021 11:15:00 PM 5.57 42.026 0.232 7.48 24.74 12.17
3/11/2021 11:30:00 PM 5.59 42.062 0.232 7.48 33.23 12.17
3/11/2021 11:45:00 PM 5.61 42.098 0.231 7.48 25.39 12.15
3/12/2021 12:00:00 AM 5.63 42.134 0.23 7.48 32.76 12.14
3/12/2021 12:15:00 AM 5.65 42.17 0.229 7.47 27.3 12.14
3/12/2021 12:30:00 AM 5.66 42.188 0.228 7.46 29.87 12.14
3/12/2021 12:45:00 AM 5.67 42.206 0.226 7.46 32.28 12.13
3/12/2021 1:00:00 AM 5.68 42.224 0.226 7.45 24.9 12.11
3/12/2021 1:15:00 AM 5.69 42.242 0.224 7.44 27.6 12.12
3/12/2021 1:30:00 AM 5.7 42.26 0.223 7.44 29.94 12.11
3/12/2021 1:45:00 AM 5.7 42.26 0.222 7.42 33.13 12.1
3/12/2021 2:00:00 AM 5.7 42.26 0.221 7.42 37.12 12.11
3/12/2021 2:15:00 AM 5.7 42.26 0.22 7.41 36.03 12.09
3/12/2021 2:30:00 AM 5.71 42.278 0.218 7.42 35.37 12.1
3/12/2021 2:45:00 AM 5.71 42.278 0.217 7.41 35.64 12.09
3/12/2021 3:00:00 AM 5.71 42.278 0.216 7.41 47.64 12.1
3/12/2021 3:15:00 AM 5.71 42.278 0.215 7.4 43.42 12.09
3/12/2021 3:30:00 AM 5.71 42.278 0.213 7.4 57.57 12.09
3/12/2021 3:45:00 AM 5.7 42.26 0.212 7.4 41.65 12.09
3/12/2021 4:00:00 AM 5.69 42.242 0.211 7.4 43.17 12.1
3/12/2021 4:15:00 AM 5.68 42.224 0.21 7.4 36.46 12.1
3/12/2021 4:30:00 AM 5.66 42.188 0.209 7.37 41.82 12.1
3/12/2021 4:45:00 AM 5.63 42.134 0.208 7.38 37.63 12.11
3/12/2021 5:00:00 AM 5.61 42.098 0.207 7.37 42.73 12.12
3/12/2021 5:15:00 AM 5.58 42.044 0.206 7.37 45.68 12.12
3/12/2021 5:30:00 AM 5.55 41.99 0.205 7.37 45.88 12.13
3/12/2021 5:45:00 AM 5.51 41.918 0.204 7.37 73.15 12.14
3/12/2021 6:00:00 AM 5.48 41.864 0.203 7.37 39.07 12.16
3/12/2021 6:15:00 AM 5.44 41.792 0.202 7.37 38.81 12.16
3/12/2021 6:30:00 AM 5.41 41.738 0.201 7.37 42.34 12.17
3/12/2021 6:45:00 AM 5.38 41.684 0.2 7.36 37.48 12.18
3/12/2021 7:00:00 AM 5.34 41.612 0.199 7.36 39.51 12.19
3/12/2021 7:15:00 AM 5.3 41.54 0.198 7.35 46.64 12.2
3/12/2021 7:30:00 AM 5.27 41.486 0.197 7.35 44.58 12.21
3/12/2021 7:45:00 AM 5.25 41.45 0.197 7.34 35.88 12.22
3/12/2021 8:00:00 AM 5.23 41.414 0.196 7.34 31.44 12.23
3/12/2021 8:15:00 AM 5.21 41.378 0.195 7.34 35.95 12.24
3/12/2021 8:30:00 AM 5.2 41.36 0.195 7.34 35.73 12.25
3/12/2021 8:45:00 AM 5.2 41.36 0.194 7.35 36.96 12.27
3/12/2021 9:00:00 AM 5.2 41.36 0.194 7.34 33.36 12.27
3/12/2021 9:15:00 AM 5.21 41.378 0.193 7.35 34.52 12.27
3/12/2021 9:30:00 AM 5.23 41.414 0.192 7.35 36.92 12.28
3/12/2021 9:45:00 AM 5.26 41.468 0.192 7.36 36.24 12.28
3/12/2021 10:00:00 AM 5.29 41.522 0.191 7.36 38.59 12.28
3/12/2021 10:15:00 AM 5.32 41.576 0.19 7.36 35.71 12.28
3/12/2021 10:30:00 AM 5.37 41.666 0.19 7.36 37.22 12.28
3/12/2021 10:45:00 AM 5.42 41.756 0.189 7.37 32.99 12.28
3/12/2021 11:00:00 AM 5.47 41.846 0.188 7.36 41.15 12.28
3/12/2021 11:15:00 AM 5.54 41.972 0.188 7.36 42.13 12.27
3/12/2021 11:30:00 AM 5.61 42.098 0.187 7.36 42.48 12.26
3/12/2021 11:45:00 AM 5.69 42.242 0.186 7.36 37.22 12.25
3/12/2021 12:00:00 PM 5.78 42.404 0.186 7.36 35.17 12.24
3/12/2021 12:15:00 PM 5.88 42.584 0.185 7.36 31.4 12.23
3/12/2021 12:30:00 PM 5.98 42.764 0.184 7.36 36.96 12.21
3/12/2021 12:45:00 PM 6.08 42.944 0.183 7.36 36.41 12.2
3/12/2021 1:00:00 PM 6.18 43.124 0.182 7.36 33.9 12.17
3/12/2021 1:15:00 PM 6.28 43.304 0.181 7.36 35.54 12.16
3/12/2021 1:30:00 PM 6.38 43.484 0.181 7.36 34.18 12.13
3/12/2021 1:45:00 PM 6.48 43.664 0.18 7.36 32.67 12.11
3/12/2021 2:00:00 PM 6.56 43.808 0.179 7.36 32.52 12.1
3/12/2021 2:15:00 PM 6.64 43.952 0.179 7.36 30.91 12.07
3/12/2021 2:30:00 PM 6.71 44.078 0.178 7.36 30.93 12.05
3/12/2021 2:45:00 PM 6.78 44.204 0.178 7.36 30.28 12.03
3/12/2021 3:00:00 PM 6.83 44.294 0.177 7.36 29 12.01
3/12/2021 3:15:00 PM 6.87 44.366 0.177 7.36 28.86 12
3/12/2021 3:30:00 PM 6.89 44.402 0.177 7.36 30.68 11.98
3/12/2021 3:45:00 PM 6.9 44.42 0.177 7.36 27.96 11.97
3/12/2021 4:00:00 PM 6.91 44.438 0.177 7.36 30.73 11.95
3/12/2021 4:15:00 PM 6.9 44.42 0.177 7.36 25.22 11.94
3/12/2021 4:30:00 PM 6.89 44.402 0.177 7.36 25.6 11.93
3/12/2021 4:45:00 PM 6.86 44.348 0.177 7.36 25.48 11.92
3/12/2021 5:00:00 PM 6.83 44.294 0.177 7.36 24.41 11.91
3/12/2021 5:15:00 PM 6.79 44.222 0.178 7.36 24.2 11.9
3/12/2021 5:30:00 PM 6.75 44.15 0.177 7.36 24.07 11.9
3/12/2021 5:45:00 PM 6.71 44.078 0.178 7.36 25.14 11.9
3/12/2021 6:00:00 PM 6.66 43.988 0.178 7.36 21.18 11.9
3/12/2021 6:15:00 PM 6.61 43.898 0.177 7.35 20.25 11.9
3/12/2021 6:30:00 PM 6.55 43.79 0.177 7.36 23.57 11.9
3/12/2021 6:45:00 PM 6.5 43.7 0.178 7.35 25.47 11.91
3/12/2021 7:00:00 PM 6.45 43.61 0.178 7.35 21.04 11.92
3/12/2021 7:15:00 PM 6.4 43.52 0.178 7.35 21.55 11.92
3/12/2021 7:30:00 PM 6.35 43.43 0.177 7.35 20.66 11.93
3/12/2021 7:45:00 PM 6.31 43.358 0.178 7.35 20.19 11.93
3/12/2021 8:00:00 PM 6.27 43.286 0.178 7.35 19.69 11.93
3/12/2021 8:15:00 PM 6.23 43.214 0.179 7.35 18.18 11.94
3/12/2021 8:30:00 PM 6.19 43.142 0.179 7.35 19.21 11.95
3/12/2021 8:45:00 PM 6.15 43.07 0.179 7.35 19.29 11.95
3/12/2021 9:00:00 PM 6.11 42.998 0.18 7.35 18.88 11.97
3/12/2021 9:15:00 PM 6.07 42.926 0.181 7.35 20.84 11.97
3/12/2021 9:30:00 PM 6.04 42.872 0.181 7.35 18.2 11.99
3/12/2021 9:45:00 PM 6.01 42.818 0.181 7.35 17.9 11.99
3/12/2021 10:00:00 PM 5.98 42.764 0.182 7.35 16.16 12
3/12/2021 10:15:00 PM 5.95 42.71 0.182 7.35 18.11 12
3/12/2021 10:30:00 PM 5.93 42.674 0.182 7.35 16.07 12.01
3/12/2021 10:45:00 PM 5.91 42.638 0.183 7.35 19.93 12.02
3/12/2021 11:00:00 PM 5.89 42.602 0.183 7.35 16.7 12.02
3/12/2021 11:15:00 PM 5.87 42.566 0.184 7.35 17.34 12.03
3/12/2021 11:30:00 PM 5.85 42.53 0.184 7.35 15.32 12.02
3/12/2021 11:45:00 PM 5.84 42.512 0.185 7.36 15.61 12.04
3/13/2021 12:00:00 AM 5.82 42.476 0.184 7.36 16.36 12.04
3/13/2021 12:15:00 AM 5.8 42.44 0.185 7.36 16.85 12.05
3/13/2021 12:30:00 AM 5.77 42.386 0.186 7.36 17.05 12.05
3/13/2021 12:45:00 AM 5.75 42.35 0.186 7.36 16.02 12.06
3/13/2021 1:00:00 AM 5.72 42.296 0.186 7.36 15.53 12.07
3/13/2021 1:15:00 AM 5.68 42.224 0.186 7.36 15.49 12.07
3/13/2021 1:30:00 AM 5.65 42.17 0.186 7.36 15.77 12.08
3/13/2021 1:45:00 AM 5.61 42.098 0.187 7.36 15.29 12.09
3/13/2021 2:00:00 AM 5.56 42.008 0.187 7.37 15.42 12.11
3/13/2021 2:15:00 AM 5.53 41.954 0.187 7.37 22.23 12.12
3/13/2021 2:30:00 AM 5.49 41.882 0.188 7.37 14.82 12.13
3/13/2021 2:45:00 AM 5.44 41.792 0.188 7.37 14.84 12.15
3/13/2021 3:00:00 AM 5.4 41.72 0.188 7.37 15.19 12.17
3/13/2021 3:15:00 AM 5.35 41.63 0.188 7.37 15.09 12.18
3/13/2021 3:30:00 AM 5.3 41.54 0.188 7.37 14.82 12.19
3/13/2021 3:45:00 AM 5.25 41.45 0.188 7.37 15.21 12.21
3/13/2021 4:00:00 AM 5.2 41.36 0.188 7.37 14.58 12.23
3/13/2021 4:15:00 AM 5.15 41.27 0.189 7.37 14.21 12.24
3/13/2021 4:30:00 AM 5.09 41.162 0.189 7.37 14.48 12.25
3/13/2021 4:45:00 AM 5.04 41.072 0.189 7.37 14.15 12.27
3/13/2021 5:00:00 AM 4.98 40.964 0.189 7.37 14.29 12.3
3/13/2021 5:15:00 AM 4.93 40.874 0.189 7.37 14.06 12.32
3/13/2021 5:30:00 AM 4.88 40.784 0.189 7.37 14.16 12.34
3/13/2021 5:45:00 AM 4.82 40.676 0.19 7.37 13.61 12.35
3/13/2021 6:00:00 AM 4.77 40.586 0.19 7.37 14.11 12.38
3/13/2021 6:15:00 AM 4.71 40.478 0.191 7.37 13.35 12.39
3/13/2021 6:30:00 AM 4.65 40.37 0.19 7.37 13.71 12.41
3/13/2021 6:45:00 AM 4.6 40.28 0.191 7.37 14.04 12.44
3/13/2021 7:00:00 AM 4.54 40.172 0.191 7.37 13.2 12.46
3/13/2021 7:15:00 AM 4.48 40.064 0.191 7.38 13.66 12.48
3/13/2021 7:30:00 AM 4.43 39.974 0.191 7.38 13.08 12.51
3/13/2021 7:45:00 AM 4.38 39.884 0.192 7.38 13.87 12.53
3/13/2021 8:00:00 AM 4.33 39.794 0.192 7.38 13.09 12.56
3/13/2021 8:15:00 AM 4.29 39.722 0.192 7.38 12.83 12.58
3/13/2021 8:30:00 AM 4.26 39.668 0.192 7.38 12.28 12.6
3/13/2021 8:45:00 AM 4.23 39.614 0.193 7.39 12.22 12.63
3/13/2021 9:00:00 AM 4.2 39.56 0.193 7.39 11.91 12.65
3/13/2021 9:15:00 AM 4.19 39.542 0.194 7.39 11.74 12.67
3/13/2021 9:30:00 AM 4.18 39.524 0.194 7.39 11.79 12.69
3/13/2021 9:45:00 AM 4.18 39.524 0.194 7.39 11.45 12.7
3/13/2021 10:00:00 AM 4.2 39.56 0.195 7.4 11.29 12.72
3/13/2021 10:15:00 AM 4.23 39.614 0.195 7.4 12.01 12.73
3/13/2021 10:30:00 AM 4.25 39.65 0.195 7.4 10.66 12.74
3/13/2021 10:45:00 AM 4.29 39.722 0.195 7.4 11.15 12.75
3/13/2021 11:00:00 AM 4.34 39.812 0.196 7.41 10.84 12.76
3/13/2021 11:15:00 AM 4.4 39.92 0.196 7.41 10.72 12.76
3/13/2021 11:30:00 AM 4.46 40.028 0.196 7.41 11.06 12.76
3/13/2021 11:45:00 AM 4.54 40.172 0.196 7.42 10.68 12.76
3/13/2021 12:00:00 PM 4.63 40.334 0.197 7.42 10.52 12.75
3/13/2021 12:15:00 PM 4.72 40.496 0.197 7.42 10.69 12.74
3/13/2021 12:30:00 PM 4.83 40.694 0.198 7.43 10.21 12.73
3/13/2021 12:45:00 PM 4.92 40.856 0.198 7.43 10.44 12.72
3/13/2021 1:00:00 PM 5.03 41.054 0.198 7.43 11.91 12.71
3/13/2021 1:15:00 PM 5.14 41.252 0.198 7.43 9.87 12.69
3/13/2021 1:30:00 PM 5.24 41.432 0.199 7.44 10.16 12.66
3/13/2021 1:45:00 PM 5.35 41.63 0.2 7.44 10.25 12.64
3/13/2021 2:00:00 PM 5.44 41.792 0.2 7.44 9.93 12.63
3/13/2021 2:15:00 PM 5.52 41.936 0.2 7.45 10.41 12.61
3/13/2021 2:30:00 PM 5.59 42.062 0.2 7.45 9.71 12.58
3/13/2021 2:45:00 PM 5.66 42.188 0.2 7.45 9.94 12.57
3/13/2021 3:00:00 PM 5.71 42.278 0.2 7.46 9.83 12.55
3/13/2021 3:15:00 PM 5.73 42.314 0.2 7.46 9.57 12.53
3/13/2021 3:30:00 PM 5.76 42.368 0.201 7.46 9.74 12.51
3/13/2021 3:45:00 PM 5.77 42.386 0.201 7.47 9.62 12.48
3/13/2021 4:00:00 PM 5.78 42.404 0.202 7.47 9.36 12.46
3/13/2021 4:15:00 PM 5.77 42.386 0.202 7.47 9.81 12.45
3/13/2021 4:30:00 PM 5.75 42.35 0.203 7.47 10.18 12.43
3/13/2021 4:45:00 PM 5.73 42.314 0.203 7.47 9.42 12.42
3/13/2021 5:00:00 PM 5.7 42.26 0.204 7.47 9.12 12.41
3/13/2021 5:15:00 PM 5.68 42.224 0.204 7.47 9.81 12.38
3/13/2021 5:30:00 PM 5.65 42.17 0.204 7.47 9.22 12.38
3/13/2021 5:45:00 PM 5.61 42.098 0.205 7.47 9.05 12.37
3/13/2021 6:00:00 PM 5.56 42.008 0.205 7.46 9.13 12.35
3/13/2021 6:15:00 PM 5.52 41.936 0.205 7.46 10.13 12.35
3/13/2021 6:30:00 PM 5.47 41.846 0.206 7.46 9.05 12.34
3/13/2021 6:45:00 PM 5.42 41.756 0.206 7.46 9.56 12.34
3/13/2021 7:00:00 PM 5.36 41.648 0.207 7.46 10.04 12.34
3/13/2021 7:15:00 PM 5.3 41.54 0.207 7.45 9.83 12.33
3/13/2021 7:30:00 PM 5.25 41.45 0.207 7.45 9.45 12.33
3/13/2021 7:45:00 PM 5.19 41.342 0.208 7.45 9.22 12.34
3/13/2021 8:00:00 PM 5.14 41.252 0.208 7.45 10.03 12.34
3/13/2021 8:15:00 PM 5.08 41.144 0.209 7.45 9.32 12.35
3/13/2021 8:30:00 PM 5.02 41.036 0.209 7.45 9.86 12.36
3/13/2021 8:45:00 PM 4.96 40.928 0.209 7.45 9.28 12.37
3/13/2021 9:00:00 PM 4.9 40.82 0.21 7.45 9.18 12.39
3/13/2021 9:15:00 PM 4.84 40.712 0.211 7.44 9.39 12.4
3/13/2021 9:30:00 PM 4.78 40.604 0.212 7.45 8.95 12.41
3/13/2021 9:45:00 PM 4.73 40.514 0.211 7.45 9.5 12.42
3/13/2021 10:00:00 PM 4.68 40.424 0.212 7.45 8.98 12.43
3/13/2021 10:15:00 PM 4.64 40.352 0.213 7.44 8.92 12.43
3/13/2021 10:30:00 PM 4.59 40.262 0.212 7.44 9.04 12.45
3/13/2021 10:45:00 PM 4.55 40.19 0.213 7.44 8.7 12.45
3/13/2021 11:00:00 PM 4.51 40.118 0.213 7.44 8.85 12.46
3/13/2021 11:15:00 PM 4.47 40.046 0.214 7.44 8.97 12.47
3/13/2021 11:30:00 PM 4.43 39.974 0.215 7.45 8.82 12.48
3/13/2021 11:45:00 PM 4.4 39.92 0.214 7.45 8.8 12.49
3/14/2021 12:00:00 AM 4.37 39.866 0.215 7.45 8.72 12.5
3/14/2021 12:15:00 AM 4.34 39.812 0.215 7.45 8.74 12.51
3/14/2021 12:30:00 AM 4.31 39.758 0.216 7.45 8.19 12.52
3/14/2021 12:45:00 AM 4.29 39.722 0.216 7.45 8.19 12.52
3/14/2021 1:00:00 AM 4.26 39.668 0.216 7.45 8.57 12.53
3/14/2021 1:15:00 AM 4.24 39.632 0.217 7.45 8.4 12.53
3/14/2021 1:30:00 AM 4.22 39.596 0.218 7.45 8.39 12.54
3/14/2021 1:45:00 AM 4.2 39.56 0.218 7.45 8.08 12.54
3/14/2021 3:00:00 AM 4.08 39.344 0.22 7.45 8 12.56
3/14/2021 4:15:00 AM 4.05 39.29 0.22 7.45 7.78 12.57
3/14/2021 4:30:00 AM 4.02 39.236 0.221 7.45 8.34 12.58
3/14/2021 4:45:00 AM 3.99 39.182 0.221 7.45 8.11 12.58
3/14/2021 5:00:00 AM 3.96 39.128 0.221 7.45 7.84 12.59
3/14/2021 5:15:00 AM 3.92 39.056 0.221 7.45 7.98 12.6
3/14/2021 5:30:00 AM 3.89 39.002 0.222 7.46 7.51 12.62
3/14/2021 5:45:00 AM 3.85 38.93 0.222 7.45 7.83 12.63
3/14/2021 6:00:00 AM 3.81 38.858 0.222 7.45 7.73 12.64
3/14/2021 6:15:00 AM 3.78 38.804 0.223 7.45 7.96 12.65
3/14/2021 6:30:00 AM 3.74 38.732 0.223 7.46 7.78 12.67
3/14/2021 6:45:00 AM 3.7 38.66 0.224 7.46 7.44 12.68
3/14/2021 7:00:00 AM 3.66 38.588 0.224 7.46 7.9 12.7
3/14/2021 7:15:00 AM 3.63 38.534 0.225 7.46 7.88 12.7
3/14/2021 7:30:00 AM 3.59 38.462 0.225 7.46 7.33 12.72
3/14/2021 7:45:00 AM 3.56 38.408 0.225 7.46 7.42 12.74
3/14/2021 8:00:00 AM 3.53 38.354 0.226 7.46 7.35 12.75
3/14/2021 8:15:00 AM 3.5 38.3 0.226 7.46 7.2 12.76
3/14/2021 8:30:00 AM 3.48 38.264 0.226 7.46 7.7 12.77
3/14/2021 8:45:00 AM 3.46 38.228 0.227 7.47 7.25 12.79
3/14/2021 9:00:00 AM 3.45 38.21 0.227 7.47 7.46 12.8
3/14/2021 9:15:00 AM 3.46 38.228 0.228 7.47 7.24 12.82
3/14/2021 9:30:00 AM 3.47 38.246 0.228 7.47 7.15 12.84
3/14/2021 9:45:00 AM 3.49 38.282 0.228 7.48 7.25 12.86
3/14/2021 10:00:00 AM 3.54 38.372 0.229 7.48 6.98 12.87
3/14/2021 10:15:00 AM 3.58 38.444 0.229 7.48 7.08 12.88
3/14/2021 10:30:00 AM 3.61 38.498 0.229 7.48 6.83 12.89
3/14/2021 10:45:00 AM 3.66 38.588 0.23 7.49 6.65 12.89
3/14/2021 11:00:00 AM 3.71 38.678 0.23 7.49 6.72 12.89
3/14/2021 11:15:00 AM 3.78 38.804 0.23 7.49 6.73 12.89
3/14/2021 11:30:00 AM 3.86 38.948 0.231 7.5 7.18 12.89
3/14/2021 11:45:00 AM 3.95 39.11 0.231 7.5 6.9 12.88
3/14/2021 12:00:00 PM 4.04 39.272 0.231 7.51 6.73 12.87
3/14/2021 12:15:00 PM 4.14 39.452 0.231 7.51 6.89 12.85
3/14/2021 12:30:00 PM 4.26 39.668 0.231 7.51 7.04 12.84
3/14/2021 12:45:00 PM 4.38 39.884 0.232 7.52 7.09 12.83
3/14/2021 1:00:00 PM 4.52 40.136 0.232 7.52 6.92 12.81
3/14/2021 1:15:00 PM 4.68 40.424 0.232 7.53 6.52 12.78
3/14/2021 1:30:00 PM 4.84 40.712 0.232 7.53 6.59 12.76
3/14/2021 1:45:00 PM 5 41 0.232 7.53 6.44 12.73
3/14/2021 2:00:00 PM 5.14 41.252 0.233 7.54 6.27 12.7
3/14/2021 2:15:00 PM 5.28 41.504 0.233 7.54 6.42 12.66
3/14/2021 2:30:00 PM 5.37 41.666 0.234 7.54 6.31 12.63
3/14/2021 2:45:00 PM 5.48 41.864 0.233 7.54 6.54 12.61
3/14/2021 3:00:00 PM 5.55 41.99 0.233 7.54 6.53 12.59
3/14/2021 3:15:00 PM 5.67 42.206 0.234 7.55 6.5 12.55
3/14/2021 3:30:00 PM 5.77 42.386 0.234 7.55 6.37 12.53
3/14/2021 3:45:00 PM 5.85 42.53 0.235 7.55 6.58 12.49
3/14/2021 4:00:00 PM 5.92 42.656 0.235 7.56 6.81 12.48
3/14/2021 4:15:00 PM 5.95 42.71 0.235 7.56 6.32 12.45
3/14/2021 4:30:00 PM 5.98 42.764 0.236 7.56 6.46 12.43
3/14/2021 4:45:00 PM 5.98 42.764 0.237 7.56 6.6 12.41
3/14/2021 5:00:00 PM 5.97 42.746 0.237 7.57 6.74 12.4
3/14/2021 5:15:00 PM 5.98 42.764 0.237 7.57 6.33 12.38
3/14/2021 5:30:00 PM 5.95 42.71 0.237 7.57 6.73 12.36
3/14/2021 5:45:00 PM 5.91 42.638 0.238 7.57 6.38 12.33
3/14/2021 6:00:00 PM 5.88 42.584 0.238 7.57 6.58 12.31
3/14/2021 6:15:00 PM 5.84 42.512 0.238 7.57 6.54 12.31
3/14/2021 6:30:00 PM 5.8 42.44 0.238 7.57 6.4 12.29
3/14/2021 6:45:00 PM 5.75 42.35 0.238 7.56 7.02 12.29
3/14/2021 7:00:00 PM 5.68 42.224 0.239 7.56 6.41 12.28
3/14/2021 7:15:00 PM 5.63 42.134 0.239 7.56 6.31 12.27
3/14/2021 7:30:00 PM 5.56 42.008 0.24 7.56 6.58 12.27
3/14/2021 7:45:00 PM 5.49 41.882 0.24 7.56 6.34 12.27
3/14/2021 8:00:00 PM 5.44 41.792 0.24 7.56 6.45 12.27
3/14/2021 8:15:00 PM 5.38 41.684 0.242 7.55 6.31 12.27
3/14/2021 8:30:00 PM 5.32 41.576 0.242 7.55 6.52 12.27
3/14/2021 8:45:00 PM 5.26 41.468 0.242 7.55 7.01 12.28
3/14/2021 9:00:00 PM 5.2 41.36 0.243 7.55 6.55 12.29
3/14/2021 9:15:00 PM 5.13 41.234 0.242 7.54 6.41 12.3
3/14/2021 9:30:00 PM 5.07 41.126 0.243 7.54 6.27 12.31
3/14/2021 9:45:00 PM 5.01 41.018 0.243 7.54 6.48 12.32
3/14/2021 10:00:00 PM 4.95 40.91 0.243 7.54 6.35 12.35
3/14/2021 10:15:00 PM 4.88 40.784 0.244 7.54 6.27 12.36
3/14/2021 10:30:00 PM 4.8 40.64 0.244 7.54 6.44 12.39
3/14/2021 10:45:00 PM 4.73 40.514 0.245 7.54 6.54 12.41
3/14/2021 11:00:00 PM 4.67 40.406 0.246 7.54 6.42 12.42
3/14/2021 11:15:00 PM 4.6 40.28 0.246 7.54 6.35 12.45
3/14/2021 11:30:00 PM 4.53 40.154 0.246 7.54 6.39 12.46
3/14/2021 11:45:00 PM 4.46 40.028 0.246 7.54 6.44 12.48
3/15/2021 12:00:00 AM 4.39 39.902 0.247 7.54 6.28 12.51
3/15/2021 12:15:00 AM 4.31 39.758 0.247 7.54 6.18 12.54
3/15/2021 12:30:00 AM 4.24 39.632 0.248 7.54 6.88 12.57
3/15/2021 12:45:00 AM 4.17 39.506 0.249 7.53 6.18 12.58
3/15/2021 1:00:00 AM 4.09 39.362 0.249 7.54 6.47 12.6
3/15/2021 1:15:00 AM 4.03 39.254 0.249 7.54 6.12 12.63
3/15/2021 1:30:00 AM 3.97 39.146 0.249 7.54 6.79 12.65
3/15/2021 1:45:00 AM 3.88 38.984 0.25 7.54 6.4 12.67
3/15/2021 2:00:00 AM 3.82 38.876 0.25 7.54 6.09 12.7
3/15/2021 2:15:00 AM 3.75 38.75 0.25 7.54 6.37 12.71
3/15/2021 2:30:00 AM 3.68 38.624 0.252 7.54 6.45 12.74
3/15/2021 2:45:00 AM 3.62 38.516 0.252 7.54 6.07 12.76
3/15/2021 3:00:00 AM 3.55 38.39 0.253 7.54 6.22 12.78
3/15/2021 3:15:00 AM 3.5 38.3 0.253 7.54 6.05 12.8
3/15/2021 3:30:00 AM 3.46 38.228 0.254 7.54 6.08 12.81
3/15/2021 3:45:00 AM 3.4 38.12 0.254 7.54 6.32 12.84
3/15/2021 4:00:00 AM 3.36 38.048 0.254 7.54 6.02 12.85
3/15/2021 4:15:00 AM 3.31 37.958 0.254 7.54 5.92 12.86
3/15/2021 4:30:00 AM 3.27 37.886 0.255 7.54 6.08 12.88
3/15/2021 4:45:00 AM 3.23 37.814 0.256 7.54 6.07 12.89
3/15/2021 5:00:00 AM 3.18 37.724 0.256 7.54 5.99 12.91
3/15/2021 5:15:00 AM 3.14 37.652 0.257 7.54 6.1 12.93
3/15/2021 5:30:00 AM 3.09 37.562 0.257 7.54 5.88 12.95
3/15/2021 5:45:00 AM 3.05 37.49 0.257 7.54 5.92 12.97
3/15/2021 6:00:00 AM 3.01 37.418 0.258 7.54 5.98 12.98
3/15/2021 6:15:00 AM 2.97 37.346 0.259 7.54 5.75 13.01
3/15/2021 6:30:00 AM 2.92 37.256 0.259 7.54 5.54 13.02
3/15/2021 6:45:00 AM 2.87 37.166 0.259 7.54 5.78 13.03
3/15/2021 7:00:00 AM 2.82 37.076 0.26 7.54 5.93 13.05
3/15/2021 7:15:00 AM 2.77 36.986 0.26 7.54 5.86 13.07
3/15/2021 7:30:00 AM 2.72 36.896 0.26 7.55 5.79 13.09
3/15/2021 7:45:00 AM 2.67 36.806 0.261 7.55 5.87 13.11
3/15/2021 8:00:00 AM 2.62 36.716 0.262 7.55 5.74 13.14
3/15/2021 8:15:00 AM 2.57 36.626 0.262 7.55 5.91 13.17
3/15/2021 8:30:00 AM 2.52 36.536 0.262 7.55 5.71 13.21
3/15/2021 8:45:00 AM 2.48 36.464 0.263 7.55 5.99 13.24
3/15/2021 9:00:00 AM 2.45 36.41 0.263 7.56 5.64 13.27
3/15/2021 9:15:00 AM 2.41 36.338 0.263 7.56 5.67 13.3
3/15/2021 9:30:00 AM 2.4 36.32 0.263 7.56 5.72 13.32
3/15/2021 9:45:00 AM 2.38 36.284 0.264 7.56 5.83 13.35
3/15/2021 10:00:00 AM 2.37 36.266 0.264 7.57 5.59 13.37
3/15/2021 10:15:00 AM 2.38 36.284 0.265 7.57 5.41 13.39
3/15/2021 10:30:00 AM 2.39 36.302 0.265 7.57 5.37 13.42
3/15/2021 10:45:00 AM 2.42 36.356 0.265 7.57 5.31 13.43
3/15/2021 11:00:00 AM 2.44 36.392 0.265 7.57 5.41 13.44
3/15/2021 11:15:00 AM 2.5 36.5 0.266 7.58 5.32 13.45
3/15/2021 11:30:00 AM 2.55 36.59 0.266 7.58 5.2 13.46
3/15/2021 11:45:00 AM 2.62 36.716 0.267 7.59 5.07 13.46
3/15/2021 12:00:00 PM 2.7 36.86 0.267 7.59 5.21 13.45
3/15/2021 12:15:00 PM 2.78 37.004 0.267 7.59 5.18 13.44
3/15/2021 12:30:00 PM 2.88 37.184 0.267 7.59 5.16 13.43
3/15/2021 12:45:00 PM 2.99 37.382 0.268 7.6 5.24 13.42
3/15/2021 1:00:00 PM 3.11 37.598 0.267 7.6 5.22 13.41
3/15/2021 1:15:00 PM 3.23 37.814 0.267 7.6 5.14 13.4
3/15/2021 1:30:00 PM 3.34 38.012 0.268 7.61 4.99 13.38
3/15/2021 1:45:00 PM 3.48 38.264 0.268 7.61 5.01 13.35
3/15/2021 2:00:00 PM 3.6 38.48 0.269 7.61 5.2 13.33
3/15/2021 2:15:00 PM 3.71 38.678 0.269 7.61 5.25 13.29
3/15/2021 2:30:00 PM 3.83 38.894 0.269 7.62 5.06 13.28
3/15/2021 2:45:00 PM 3.95 39.11 0.269 7.62 5.07 13.26
3/15/2021 3:00:00 PM 4.05 39.29 0.27 7.62 5.48 13.23
3/15/2021 3:15:00 PM 4.16 39.488 0.27 7.62 5.11 13.19
3/15/2021 3:30:00 PM 4.22 39.596 0.27 7.62 5.43 13.16
3/15/2021 3:45:00 PM 4.28 39.704 0.27 7.63 5.1 13.15
3/15/2021 4:00:00 PM 4.35 39.83 0.27 7.63 4.86 13.12
3/15/2021 4:15:00 PM 4.34 39.812 0.271 7.63 5.14 13.11
3/15/2021 4:30:00 PM 4.37 39.866 0.271 7.64 4.96 13.08
3/15/2021 4:45:00 PM 4.37 39.866 0.271 7.64 4.97 13.07
3/15/2021 5:00:00 PM 4.35 39.83 0.271 7.64 5.01 13.06
3/15/2021 5:15:00 PM 4.34 39.812 0.272 7.64 4.7 13.05
3/15/2021 5:30:00 PM 4.3 39.74 0.272 7.64 4.9 13.03
3/15/2021 5:45:00 PM 4.29 39.722 0.273 7.64 4.9 13.01
3/15/2021 6:00:00 PM 4.26 39.668 0.272 7.64 4.8 12.99
3/15/2021 6:15:00 PM 4.23 39.614 0.274 7.64 4.73 12.97
3/15/2021 6:30:00 PM 4.21 39.578 0.274 7.64 4.79 12.96
3/15/2021 6:45:00 PM 4.18 39.524 0.274 7.64 4.78 12.94
3/15/2021 7:00:00 PM 4.15 39.47 0.274 7.64 4.73 12.92
3/15/2021 7:15:00 PM 4.13 39.434 0.275 7.63 5.08 12.9
3/15/2021 7:30:00 PM 4.11 39.398 0.275 7.63 4.8 12.88
3/15/2021 7:45:00 PM 4.09 39.362 0.275 7.63 8.45 12.86
3/15/2021 8:00:00 PM 4.06 39.308 0.275 7.62 4.76 12.85
3/15/2021 8:15:00 PM 4.03 39.254 0.275 7.62 4.98 12.84
3/15/2021 8:30:00 PM 3.99 39.182 0.276 7.62 4.85 12.83
3/15/2021 8:45:00 PM 3.95 39.11 0.276 7.62 4.8 12.83
3/15/2021 9:00:00 PM 3.92 39.056 0.277 7.62 4.76 12.83
3/15/2021 9:15:00 PM 3.88 38.984 0.276 7.62 4.97 12.83
3/15/2021 9:30:00 PM 3.85 38.93 0.277 7.62 4.87 12.83
3/15/2021 9:45:00 PM 3.81 38.858 0.277 7.61 4.93 12.83
3/15/2021 10:00:00 PM 3.77 38.786 0.277 7.61 5.06 12.84
3/15/2021 10:15:00 PM 3.73 38.714 0.278 7.61 5.15 12.84
3/15/2021 10:30:00 PM 3.69 38.642 0.279 7.61 4.95 12.84
3/15/2021 10:45:00 PM 3.66 38.588 0.279 7.61 5.93 12.85
3/15/2021 11:00:00 PM 3.64 38.552 0.28 7.6 5.35 12.85
3/15/2021 11:15:00 PM 3.62 38.516 0.28 7.6 5.01 12.85
3/15/2021 11:30:00 PM 3.6 38.48 0.28 7.6 5.04 12.85
3/15/2021 11:45:00 PM 3.58 38.444 0.281 7.6 4.91 12.86
3/16/2021 12:00:00 AM 3.56 38.408 0.281 7.6 5.02 12.86
3/16/2021 12:15:00 AM 3.54 38.372 0.281 7.6 4.74 12.86
3/16/2021 12:30:00 AM 3.51 38.318 0.282 7.6 4.9 12.87
3/16/2021 12:45:00 AM 3.49 38.282 0.282 7.6 4.78 12.87
3/16/2021 1:00:00 AM 3.44 38.192 0.283 7.6 4.95 12.88
3/16/2021 1:15:00 AM 3.41 38.138 0.283 7.6 4.89 12.89
3/16/2021 1:30:00 AM 3.38 38.084 0.283 7.6 4.96 12.9
3/16/2021 1:45:00 AM 3.35 38.03 0.283 7.6 4.56 12.91
3/16/2021 2:00:00 AM 3.32 37.976 0.284 7.6 4.71 12.92
3/16/2021 2:15:00 AM 3.29 37.922 0.284 7.6 4.7 12.94
3/16/2021 2:30:00 AM 3.27 37.886 0.284 7.6 4.91 12.94
3/16/2021 2:45:00 AM 3.23 37.814 0.284 7.6 4.83 12.94
3/16/2021 3:00:00 AM 3.21 37.778 0.286 7.6 4.72 12.96
3/16/2021 3:15:00 AM 3.19 37.742 0.285 7.6 4.83 12.96
3/16/2021 3:30:00 AM 3.18 37.724 0.285 7.6 4.71 12.96
3/16/2021 3:45:00 AM 3.16 37.688 0.285 7.6 5.22 12.97
3/16/2021 4:00:00 AM 3.15 37.67 0.286 7.6 4.67 12.97
3/16/2021 4:15:00 AM 3.13 37.634 0.286 7.6 5.01 12.97
3/16/2021 4:30:00 AM 3.12 37.616 0.286 7.61 4.71 12.98
3/16/2021 4:45:00 AM 3.11 37.598 0.286 7.6 5.04 12.98
3/16/2021 5:00:00 AM 3.09 37.562 0.287 7.61 4.7 12.98
3/16/2021 5:15:00 AM 3.09 37.562 0.287 7.6 4.96 12.98
3/16/2021 5:30:00 AM 3.08 37.544 0.287 7.61 4.81 12.98
3/16/2021 5:45:00 AM 3.07 37.526 0.288 7.61 4.65 12.98
3/16/2021 6:00:00 AM 3.07 37.526 0.288 7.61 4.59 12.98
3/16/2021 6:15:00 AM 3.07 37.526 0.288 7.61 5.06 12.98
3/16/2021 6:30:00 AM 3.06 37.508 0.288 7.61 4.77 12.97
3/16/2021 6:45:00 AM 3.05 37.49 0.289 7.61 4.72 12.98
3/16/2021 7:00:00 AM 3.05 37.49 0.288 7.61 4.75 12.97
3/16/2021 7:15:00 AM 3.05 37.49 0.289 7.61 4.62 12.97
3/16/2021 7:30:00 AM 3.06 37.508 0.289 7.61 4.76 12.97
3/16/2021 7:45:00 AM 3.06 37.508 0.29 7.61 4.67 12.97
3/16/2021 8:00:00 AM 3.06 37.508 0.29 7.61 4.59 12.97
3/16/2021 8:15:00 AM 3.05 37.49 0.29 7.61 4.58 12.98
3/16/2021 8:30:00 AM 3.05 37.49 0.29 7.61 4.48 12.98
3/16/2021 8:45:00 AM 3.06 37.508 0.29 7.61 4.65 12.99
3/16/2021 9:00:00 AM 3.06 37.508 0.291 7.61 4.41 12.99
3/16/2021 9:15:00 AM 3.05 37.49 0.291 7.62 4.62 13
3/16/2021 9:30:00 AM 3.06 37.508 0.292 7.62 4.77 13.01
3/16/2021 9:45:00 AM 3.06 37.508 0.292 7.62 4.8 13.02
3/16/2021 10:00:00 AM 3.06 37.508 0.292 7.63 5.05 13.04
3/16/2021 10:15:00 AM 3.06 37.508 0.293 7.63 4.69 13.05
3/16/2021 10:30:00 AM 3.09 37.562 0.292 7.63 4.6 13.07
3/16/2021 10:45:00 AM 3.1 37.58 0.293 7.64 4.2 13.08
3/16/2021 11:00:00 AM 3.14 37.652 0.293 7.64 4.34 13.1
3/16/2021 11:15:00 AM 3.21 37.778 0.293 7.64 4.34 13.11
3/16/2021 11:30:00 AM 3.23 37.814 0.294 7.65 4.28 13.12
3/16/2021 11:45:00 AM 3.26 37.868 0.294 7.65 4.39 13.13
3/16/2021 12:00:00 PM 3.29 37.922 0.295 7.66 4.31 13.13
3/16/2021 12:15:00 PM 3.31 37.958 0.295 7.66 4.1 13.13
3/16/2021 12:30:00 PM 3.36 38.048 0.295 7.66 4.09 13.14
3/16/2021 12:45:00 PM 3.41 38.138 0.295 7.67 4.14 13.14
3/16/2021 1:00:00 PM 3.47 38.246 0.295 7.67 4.11 13.13
3/16/2021 1:15:00 PM 3.53 38.354 0.295 7.67 4.16 13.12
3/16/2021 1:30:00 PM 3.59 38.462 0.296 7.68 4.05 13.11
3/16/2021 1:45:00 PM 3.62 38.516 0.296 7.68 4.11 13.1
3/16/2021 2:00:00 PM 3.66 38.588 0.296 7.68 4.22 13.09
3/16/2021 2:15:00 PM 3.69 38.642 0.297 7.69 3.98 13.08
3/16/2021 2:30:00 PM 3.73 38.714 0.297 7.69 4.02 13.07
3/16/2021 2:45:00 PM 3.76 38.768 0.296 7.69 3.99 13.06
3/16/2021 3:00:00 PM 3.8 38.84 0.296 7.69 4.2 13.05
3/16/2021 3:15:00 PM 3.83 38.894 0.296 7.69 4.23 13.03
3/16/2021 3:30:00 PM 3.86 38.948 0.297 7.69 4.22 13.02
3/16/2021 3:45:00 PM 3.89 39.002 0.296 7.7 4.19 13
3/16/2021 4:00:00 PM 3.92 39.056 0.296 7.7 4.12 12.99
3/16/2021 4:15:00 PM 3.95 39.11 0.297 7.7 3.98 12.98
3/16/2021 4:30:00 PM 3.99 39.182 0.298 7.7 3.95 12.97
3/16/2021 4:45:00 PM 4.02 39.236 0.299 7.7 4.07 12.95
3/16/2021 5:00:00 PM 4.04 39.272 0.299 7.7 4.01 12.94
3/16/2021 5:15:00 PM 4.06 39.308 0.299 7.7 4.01 12.92
3/16/2021 5:30:00 PM 4.08 39.344 0.299 7.7 4.48 12.9
3/16/2021 5:45:00 PM 4.09 39.362 0.3 7.7 4.2 12.89
3/16/2021 6:00:00 PM 4.11 39.398 0.3 7.7 4.34 12.87
3/16/2021 6:15:00 PM 4.12 39.416 0.3 7.7 4.09 12.85
3/16/2021 6:30:00 PM 4.13 39.434 0.301 7.7 4.97 12.83
3/16/2021 6:45:00 PM 4.14 39.452 0.301 7.7 4.14 12.8
3/16/2021 7:00:00 PM 4.14 39.452 0.301 7.69 4.14 12.79
3/16/2021 7:15:00 PM 4.14 39.452 0.302 7.69 4.24 12.77
3/16/2021 7:30:00 PM 4.15 39.47 0.302 7.69 4.31 12.75
3/16/2021 7:45:00 PM 4.15 39.47 0.303 7.69 4.17 12.73
3/16/2021 8:00:00 PM 4.15 39.47 0.303 7.68 4.45 12.71
3/16/2021 8:15:00 PM 4.15 39.47 0.304 7.68 4.26 12.7
3/16/2021 8:30:00 PM 4.15 39.47 0.303 7.68 4.44 12.68
3/16/2021 8:45:00 PM 4.15 39.47 0.304 7.68 4.09 12.67
3/16/2021 9:00:00 PM 4.15 39.47 0.303 7.68 4.22 12.67
3/16/2021 9:15:00 PM 4.15 39.47 0.304 7.67 4.4 12.66
3/16/2021 9:30:00 PM 4.15 39.47 0.304 7.67 4.44 12.65
3/16/2021 9:45:00 PM 4.15 39.47 0.305 7.67 4.3 12.64
3/16/2021 10:00:00 PM 4.15 39.47 0.305 7.67 4.2 12.63
3/16/2021 10:15:00 PM 4.15 39.47 0.305 7.67 4.43 12.62
3/16/2021 10:30:00 PM 4.15 39.47 0.305 7.66 4.38 12.62
3/16/2021 10:45:00 PM 4.15 39.47 0.306 7.66 4.41 12.61
3/16/2021 11:00:00 PM 4.15 39.47 0.306 7.66 4.51 12.6
3/16/2021 11:15:00 PM 4.15 39.47 0.306 7.66 4.49 12.6
3/16/2021 11:30:00 PM 4.15 39.47 0.307 7.66 4.49 12.6
3/16/2021 11:45:00 PM 4.15 39.47 0.307 7.66 4.34 12.6
3/17/2021 12:00:00 AM 4.15 39.47 0.307 7.66 4.31 12.6
3/17/2021 12:15:00 AM 4.15 39.47 0.307 7.66 4.19 12.6
3/17/2021 12:30:00 AM 4.14 39.452 0.307 7.66 4.23 12.6
3/17/2021 12:45:00 AM 4.13 39.434 0.307 7.66 4.12 12.6
3/17/2021 1:00:00 AM 4.12 39.416 0.308 7.66 4.39 12.6
3/17/2021 1:15:00 AM 4.12 39.416 0.308 7.66 4.25 12.6
3/17/2021 1:30:00 AM 4.11 39.398 0.308 7.66 4.27 12.6
3/17/2021 1:45:00 AM 4.1 39.38 0.308 7.66 4.26 12.6
3/17/2021 2:00:00 AM 4.1 39.38 0.308 7.66 4.45 12.61
3/17/2021 2:15:00 AM 4.09 39.362 0.308 7.66 4.28 12.6
3/17/2021 2:30:00 AM 4.09 39.362 0.308 7.66 4.26 12.6
3/17/2021 2:45:00 AM 4.08 39.344 0.307 7.66 4.31 12.61
3/17/2021 3:00:00 AM 4.08 39.344 0.308 7.66 4.21 12.61
3/17/2021 3:15:00 AM 4.08 39.344 0.309 7.66 4.44 12.61
3/17/2021 3:30:00 AM 4.08 39.344 0.309 7.66 4.28 12.61
3/17/2021 3:45:00 AM 4.07 39.326 0.309 7.66 4.36 12.61
3/17/2021 4:00:00 AM 4.07 39.326 0.308 7.66 4.26 12.61
3/17/2021 4:15:00 AM 4.06 39.308 0.31 7.65 4.35 12.61
3/17/2021 4:30:00 AM 4.06 39.308 0.31 7.65 4.22 12.61
3/17/2021 4:45:00 AM 4.05 39.29 0.31 7.66 4.44 12.61
3/17/2021 5:00:00 AM 4.05 39.29 0.31 7.65 4.38 12.62
3/17/2021 5:15:00 AM 4.04 39.272 0.31 7.65 4.25 12.62
3/17/2021 5:30:00 AM 4.04 39.272 0.31 7.66 4.31 12.62
3/17/2021 5:45:00 AM 4.03 39.254 0.31 7.66 4.18 12.63
3/17/2021 6:00:00 AM 4.03 39.254 0.311 7.65 4.13 12.62
3/17/2021 6:15:00 AM 4.02 39.236 0.311 7.65 4.13 12.63
3/17/2021 6:30:00 AM 4.02 39.236 0.311 7.65 4.26 12.63
3/17/2021 6:45:00 AM 4.01 39.218 0.311 7.65 4.13 12.64
3/17/2021 7:00:00 AM 4.01 39.218 0.311 7.65 4.21 12.64
3/17/2021 7:15:00 AM 4.01 39.218 0.311 7.66 4.37 12.64
3/17/2021 7:30:00 AM 4.01 39.218 0.311 7.66 4.47 12.64
3/17/2021 7:45:00 AM 4.01 39.218 0.312 7.66 4.19 12.65
3/17/2021 8:00:00 AM 4.01 39.218 0.311 7.66 4.39 12.65
3/17/2021 8:15:00 AM 4.02 39.236 0.312 7.66 4.01 12.66
3/17/2021 8:30:00 AM 4.02 39.236 0.313 7.66 4.35 12.67
3/17/2021 8:45:00 AM 4.03 39.254 0.313 7.66 4.14 12.68
3/17/2021 9:00:00 AM 4.05 39.29 0.313 7.67 4.21 12.7
3/17/2021 9:15:00 AM 4.06 39.308 0.313 7.67 4.46 12.71
3/17/2021 9:30:00 AM 4.08 39.344 0.314 7.68 4.12 12.73
3/17/2021 9:45:00 AM 4.1 39.38 0.314 7.68 4.25 12.74
3/17/2021 10:00:00 AM 4.13 39.434 0.314 7.68 4.2 12.75
3/17/2021 10:15:00 AM 4.17 39.506 0.313 7.69 4.16 12.77
3/17/2021 10:30:00 AM 4.21 39.578 0.314 7.69 4.27 12.78
3/17/2021 10:45:00 AM 4.26 39.668 0.313 7.7 4.06 12.8
3/17/2021 11:00:00 AM 4.33 39.794 0.313 7.71 4.05 12.81
3/17/2021 11:15:00 AM 4.4 39.92 0.313 7.71 4.09 12.82
3/17/2021 11:30:00 AM 4.5 40.1 0.314 7.72 4.11 12.82
3/17/2021 11:45:00 AM 4.6 40.28 0.314 7.72 4.06 12.82
3/17/2021 12:00:00 PM 4.67 40.406 0.314 7.72 4 12.8
3/17/2021 12:15:00 PM 4.8 40.64 0.314 7.73 4.08 12.8
3/17/2021 12:30:00 PM 4.91 40.838 0.314 7.73 3.99 12.79
3/17/2021 12:45:00 PM 5.04 41.072 0.314 7.74 3.99 12.76
3/17/2021 1:00:00 PM 5.2 41.36 0.314 7.74 3.92 12.73
3/17/2021 1:15:00 PM 5.38 41.684 0.314 7.74 4.24 12.71
3/17/2021 1:30:00 PM 5.58 42.044 0.314 7.75 4.11 12.66
3/17/2021 1:45:00 PM 5.79 42.422 0.314 7.75 4.1 12.63
3/17/2021 2:00:00 PM 6.02 42.836 0.314 7.75 3.79 12.58
3/17/2021 2:15:00 PM 6.24 43.232 0.314 7.76 3.91 12.53
3/17/2021 2:30:00 PM 6.41 43.538 0.314 7.76 3.83 12.49
3/17/2021 2:45:00 PM 6.58 43.844 0.314 7.77 4.37 12.45
3/17/2021 3:00:00 PM 6.72 44.096 0.315 7.77 3.88 12.42
3/17/2021 3:15:00 PM 6.92 44.456 0.315 7.77 4.03 12.37
3/17/2021 3:30:00 PM 7.03 44.654 0.315 7.78 4.12 12.33
3/17/2021 3:45:00 PM 7.12 44.816 0.315 7.78 4.3 12.29
3/17/2021 4:00:00 PM 7.23 45.014 0.315 7.78 4.12 12.26
3/17/2021 4:15:00 PM 7.31 45.158 0.316 7.78 4.07 12.22
3/17/2021 4:30:00 PM 7.37 45.266 0.316 7.78 3.99 12.19
3/17/2021 4:45:00 PM 7.39 45.302 0.316 7.78 4.11 12.16
3/17/2021 5:00:00 PM 7.4 45.32 0.316 7.79 4.12 12.14
3/17/2021 5:15:00 PM 7.39 45.302 0.316 7.79 4.16 12.11
3/17/2021 5:30:00 PM 7.38 45.284 0.317 7.79 4.05 12.09
3/17/2021 5:45:00 PM 7.37 45.266 0.317 7.79 4.18 12.06
3/17/2021 6:00:00 PM 7.34 45.212 0.316 7.79 4.05 12.04
3/17/2021 6:15:00 PM 7.33 45.194 0.317 7.79 4.29 12.01
3/17/2021 6:30:00 PM 7.3 45.14 0.317 7.78 4.15 11.98
3/17/2021 6:45:00 PM 7.28 45.104 0.318 7.78 4.4 11.95
3/17/2021 7:00:00 PM 7.26 45.068 0.317 7.77 4.33 11.91
3/17/2021 7:15:00 PM 7.23 45.014 0.318 7.76 4.42 11.88
3/17/2021 7:30:00 PM 7.2 44.96 0.318 7.76 4.23 11.85
3/17/2021 7:45:00 PM 7.16 44.888 0.319 7.75 4.39 11.81
3/17/2021 8:00:00 PM 7.12 44.816 0.319 7.74 4.33 11.79
3/17/2021 8:15:00 PM 7.09 44.762 0.319 7.74 4.41 11.77
3/17/2021 8:30:00 PM 7.07 44.726 0.319 7.73 4.78 11.76
3/17/2021 8:45:00 PM 7.04 44.672 0.319 7.73 4.29 11.75
3/17/2021 9:00:00 PM 7.01 44.618 0.319 7.73 4.41 11.74
3/17/2021 9:15:00 PM 6.98 44.564 0.32 7.72 4.55 11.73
3/17/2021 9:30:00 PM 6.94 44.492 0.319 7.72 4.45 11.72
3/17/2021 9:45:00 PM 6.9 44.42 0.32 7.71 4.44 11.72
3/17/2021 10:00:00 PM 6.86 44.348 0.32 7.71 4.77 11.72
3/17/2021 10:15:00 PM 6.82 44.276 0.32 7.71 4.51 11.72
3/17/2021 10:30:00 PM 6.78 44.204 0.321 7.71 4.62 11.72
3/17/2021 10:45:00 PM 6.73 44.114 0.322 7.71 4.63 11.72
3/17/2021 11:00:00 PM 6.68 44.024 0.322 7.7 4.48 11.73
3/17/2021 11:15:00 PM 6.64 43.952 0.322 7.7 4.65 11.73
3/17/2021 11:30:00 PM 6.62 43.916 0.321 7.7 4.34 11.74
3/17/2021 11:45:00 PM 6.59 43.862 0.322 7.7 4.41 11.74
3/18/2021 12:00:00 AM 6.57 43.826 0.322 7.7 4.6 11.75
3/18/2021 12:15:00 AM 6.55 43.79 0.323 7.69 4.46 11.75
3/18/2021 12:30:00 AM 6.53 43.754 0.323 7.7 4.33 11.76
3/18/2021 12:45:00 AM 6.51 43.718 0.323 7.69 4.79 11.76
3/18/2021 1:00:00 AM 6.49 43.682 0.324 7.69 4.37 11.77
3/18/2021 1:15:00 AM 6.47 43.646 0.325 7.7 4.53 11.77
3/18/2021 1:30:00 AM 6.46 43.628 0.324 7.69 4.45 11.77
3/18/2021 1:45:00 AM 6.44 43.592 0.325 7.7 4.46 11.78
3/18/2021 2:00:00 AM 6.42 43.556 0.325 7.69 4.34 11.78
3/18/2021 2:15:00 AM 6.41 43.538 0.325 7.69 4.48 11.79
3/18/2021 2:30:00 AM 6.39 43.502 0.326 7.69 4.37 11.79
3/18/2021 2:45:00 AM 6.37 43.466 0.326 7.69 4.37 11.8
3/18/2021 3:00:00 AM 6.34 43.412 0.326 7.69 4.62 11.8
3/18/2021 3:15:00 AM 6.32 43.376 0.326 7.69 4.51 11.81
3/18/2021 3:30:00 AM 6.3 43.34 0.326 7.69 4.46 11.82
3/18/2021 3:45:00 AM 6.27 43.286 0.327 7.69 4.5 11.83
3/18/2021 4:00:00 AM 6.25 43.25 0.327 7.69 4.5 11.84
3/18/2021 4:15:00 AM 6.22 43.196 0.327 7.69 4.48 11.84
3/18/2021 4:30:00 AM 6.2 43.16 0.327 7.69 4.52 11.85
3/18/2021 4:45:00 AM 6.18 43.124 0.327 7.69 4.61 11.85
3/18/2021 5:00:00 AM 6.15 43.07 0.327 7.69 4.69 11.85
3/18/2021 5:15:00 AM 6.13 43.034 0.327 7.69 4.45 11.86
3/18/2021 5:30:00 AM 6.12 43.016 0.327 7.69 4.46 11.86
3/18/2021 5:45:00 AM 6.1 42.98 0.327 7.69 4.54 11.88
3/18/2021 6:00:00 AM 6.08 42.944 0.327 7.69 4.38 11.87
3/18/2021 6:15:00 AM 6.07 42.926 0.328 7.69 4.24 11.87
3/18/2021 6:30:00 AM 6.05 42.89 0.327 7.69 4.36 11.88
3/18/2021 6:45:00 AM 6.04 42.872 0.328 7.68 4.53 11.87
3/18/2021 7:00:00 AM 6.03 42.854 0.327 7.69 4.71 11.88
3/18/2021 7:15:00 AM 6.02 42.836 0.328 7.68 4.39 11.88
3/18/2021 7:30:00 AM 6.01 42.818 0.328 7.68 4.5 11.88
3/18/2021 7:45:00 AM 6.01 42.818 0.328 7.69 4.56 11.89
3/18/2021 8:00:00 AM 6 42.8 0.329 7.68 4.5 11.89
3/18/2021 8:15:00 AM 6 42.8 0.328 7.68 4.52 11.89
3/18/2021 8:30:00 AM 5.99 42.782 0.328 7.69 4.43 11.9
3/18/2021 8:45:00 AM 5.99 42.782 0.328 7.68 4.73 11.9
3/18/2021 9:00:00 AM 5.99 42.782 0.328 7.69 4.55 11.91
3/18/2021 9:15:00 AM 6 42.8 0.327 7.69 4.34 11.92
3/18/2021 9:30:00 AM 6 42.8 0.328 7.69 4.49 11.93
3/18/2021 9:45:00 AM 6.01 42.818 0.328 7.69 4.79 11.93
3/18/2021 10:00:00 AM 6.02 42.836 0.327 7.69 4.61 11.94
3/18/2021 10:15:00 AM 6.03 42.854 0.327 7.7 4.55 11.96
3/18/2021 10:30:00 AM 6.05 42.89 0.327 7.7 4.59 11.98
3/18/2021 10:45:00 AM 6.08 42.944 0.328 7.7 4.61 12
3/18/2021 11:00:00 AM 6.09 42.962 0.327 7.71 4.57 12
3/18/2021 11:15:00 AM 6.11 42.998 0.327 7.71 4.92 12.02
3/18/2021 11:30:00 AM 6.14 43.052 0.326 7.71 5.16 12.03
3/18/2021 11:45:00 AM 6.17 43.106 0.326 7.71 4.96 12.05
3/18/2021 12:00:00 PM 6.2 43.16 0.325 7.72 5.6 12.05
3/18/2021 12:15:00 PM 6.22 43.196 0.326 7.72 5.37 12.06
3/18/2021 12:30:00 PM 6.23 43.214 0.325 7.72 5.68 12.07
3/18/2021 12:45:00 PM 6.25 43.25 0.324 7.72 5.55 12.07
3/18/2021 1:00:00 PM 6.26 43.268 0.324 7.73 6.38 12.07
3/18/2021 1:15:00 PM 6.28 43.304 0.324 7.73 6.27 12.08
3/18/2021 1:30:00 PM 6.29 43.322 0.323 7.73 6.66 12.08
3/18/2021 1:45:00 PM 6.3 43.34 0.322 7.73 7.3 12.08
3/18/2021 2:00:00 PM 6.3 43.34 0.322 7.73 6.88 12.07
3/18/2021 2:15:00 PM 6.32 43.376 0.322 7.73 6.83 12.07
3/18/2021 2:30:00 PM 6.35 43.43 0.321 7.73 6.61 12.08
3/18/2021 2:45:00 PM 6.36 43.448 0.321 7.73 6.47 12.09
3/18/2021 3:00:00 PM 6.37 43.466 0.321 7.73 6.54 12.08
3/18/2021 3:15:00 PM 6.37 43.466 0.321 7.73 6.67 12.08
3/18/2021 3:30:00 PM 6.37 43.466 0.32 7.73 7.15 12.07
3/18/2021 3:45:00 PM 6.39 43.502 0.32 7.73 7.35 12.07
3/18/2021 4:00:00 PM 6.41 43.538 0.319 7.73 7.46 12.07
3/18/2021 4:15:00 PM 6.42 43.556 0.318 7.72 7.86 12.06
3/18/2021 4:30:00 PM 6.43 43.574 0.318 7.73 8.24 12.06
3/18/2021 4:45:00 PM 6.41 43.538 0.317 7.72 8.23 12.03
3/18/2021 5:00:00 PM 6.4 43.52 0.316 7.72 8.65 12.02
3/18/2021 5:15:00 PM 6.38 43.484 0.315 7.71 8.79 12
3/18/2021 5:30:00 PM 6.37 43.466 0.315 7.7 8.13 11.98
3/18/2021 5:45:00 PM 6.35 43.43 0.314 7.7 9.36 11.97
3/18/2021 6:00:00 PM 6.33 43.394 0.314 7.69 9.21 11.95
3/18/2021 6:15:00 PM 6.3 43.34 0.313 7.69 9.37 11.94
3/18/2021 6:30:00 PM 6.27 43.286 0.313 7.68 8.82 11.94
3/18/2021 6:45:00 PM 6.24 43.232 0.313 7.68 9.5 11.93
3/18/2021 7:00:00 PM 6.2 43.16 0.313 7.67 9.84 11.92
3/18/2021 7:15:00 PM 6.17 43.106 0.312 7.67 10.43 11.92
3/18/2021 7:30:00 PM 6.14 43.052 0.312 7.66 11.04 11.91
3/18/2021 7:45:00 PM 6.1 42.98 0.312 7.66 11.05 11.91
3/18/2021 8:00:00 PM 6.07 42.926 0.311 7.65 10.96 11.91
3/18/2021 8:15:00 PM 6.04 42.872 0.311 7.65 11.45 11.9
3/18/2021 8:30:00 PM 6.01 42.818 0.31 7.64 11.95 11.89
3/18/2021 8:45:00 PM 5.99 42.782 0.309 7.64 11.82 11.9
3/18/2021 9:00:00 PM 5.96 42.728 0.309 7.64 12.8 11.9
3/18/2021 9:15:00 PM 5.94 42.692 0.308 7.63 12.12 11.91
3/18/2021 9:30:00 PM 5.92 42.656 0.308 7.63 12.93 11.92
3/18/2021 9:45:00 PM 5.9 42.62 0.308 7.63 12.49 11.91
3/18/2021 10:00:00 PM 5.88 42.584 0.307 7.63 13.16 11.93
3/18/2021 10:15:00 PM 5.85 42.53 0.307 7.62 13.17 11.93
3/18/2021 10:30:00 PM 5.83 42.494 0.307 7.62 12.8 11.93
3/18/2021 10:45:00 PM 5.8 42.44 0.306 7.62 12.94 11.94
3/18/2021 11:00:00 PM 5.77 42.386 0.306 7.62 13.26 11.95
3/18/2021 11:15:00 PM 5.75 42.35 0.307 7.62 13.37 11.95
3/18/2021 11:30:00 PM 5.72 42.296 0.306 7.62 13.27 11.97
3/18/2021 11:45:00 PM 5.68 42.224 0.305 7.62 13.87 11.98
3/19/2021 12:00:00 AM 5.65 42.17 0.305 7.62 13.74 11.98
3/19/2021 12:15:00 AM 5.61 42.098 0.304 7.62 13.24 11.99
3/19/2021 12:30:00 AM 5.58 42.044 0.304 7.62 13.34 12
3/19/2021 12:45:00 AM 5.54 41.972 0.303 7.62 12.97 12.02
3/19/2021 1:00:00 AM 5.5 41.9 0.303 7.62 13.59 12.03
3/19/2021 1:15:00 AM 5.46 41.828 0.303 7.62 12.94 12.04
3/19/2021 1:30:00 AM 5.43 41.774 0.302 7.62 13.83 12.06
3/19/2021 1:45:00 AM 5.39 41.702 0.302 7.62 13.45 12.07
3/19/2021 2:00:00 AM 5.35 41.63 0.302 7.62 13.79 12.08
3/19/2021 2:15:00 AM 5.3 41.54 0.301 7.63 12.73 12.09
3/19/2021 2:30:00 AM 5.26 41.468 0.301 7.63 13.42 12.1
3/19/2021 2:45:00 AM 5.22 41.396 0.3 7.63 13.43 12.12
3/19/2021 3:00:00 AM 5.17 41.306 0.3 7.62 13.83 12.14
3/19/2021 3:15:00 AM 5.13 41.234 0.299 7.63 14.51 12.15
3/19/2021 3:30:00 AM 5.08 41.144 0.299 7.63 13.36 12.16
3/19/2021 3:45:00 AM 5.03 41.054 0.298 7.62 13.47 12.18
3/19/2021 4:00:00 AM 4.98 40.964 0.297 7.62 14 12.19
3/19/2021 4:15:00 AM 4.92 40.856 0.296 7.62 13.18 12.21
3/19/2021 4:30:00 AM 4.86 40.748 0.296 7.62 13.11 12.22
3/19/2021 4:45:00 AM 4.82 40.676 0.295 7.62 12.91 12.25
3/19/2021 5:00:00 AM 4.76 40.568 0.294 7.62 13.27 12.26
3/19/2021 5:15:00 AM 4.71 40.478 0.294 7.62 12.84 12.28
3/19/2021 5:30:00 AM 4.65 40.37 0.293 7.61 12.6 12.3
3/19/2021 5:45:00 AM 4.6 40.28 0.292 7.61 12.81 12.32
3/19/2021 6:00:00 AM 4.54 40.172 0.291 7.61 12.59 12.34
3/19/2021 6:15:00 AM 4.49 40.082 0.289 7.61 12.32 12.36
3/19/2021 6:30:00 AM 4.44 39.992 0.288 7.61 12.39 12.38
3/19/2021 6:45:00 AM 4.38 39.884 0.286 7.6 12.14 12.4
3/19/2021 7:00:00 AM 4.33 39.794 0.285 7.6 12.75 12.42
3/19/2021 7:15:00 AM 4.28 39.704 0.284 7.6 11.79 12.44
3/19/2021 7:30:00 AM 4.22 39.596 0.283 7.6 11.82 12.47
3/19/2021 7:45:00 AM 4.17 39.506 0.282 7.6 12.04 12.49
3/19/2021 8:00:00 AM 4.12 39.416 0.281 7.59 11.54 12.52
3/19/2021 8:15:00 AM 4.06 39.308 0.28 7.59 11.59 12.55
3/19/2021 8:30:00 AM 4 39.2 0.278 7.59 11.64 12.58
3/19/2021 8:45:00 AM 3.95 39.11 0.277 7.59 11.62 12.61
3/19/2021 9:00:00 AM 3.91 39.038 0.276 7.59 11.58 12.64
3/19/2021 9:15:00 AM 3.88 38.984 0.275 7.59 11.14 12.67
3/19/2021 9:30:00 AM 3.85 38.93 0.274 7.59 11.03 12.7
3/19/2021 9:45:00 AM 3.82 38.876 0.273 7.59 10.74 12.73
3/19/2021 10:00:00 AM 3.81 38.858 0.272 7.59 10.55 12.76
3/19/2021 10:15:00 AM 3.81 38.858 0.271 7.6 10.8 12.79
3/19/2021 10:30:00 AM 3.81 38.858 0.27 7.59 10.33 12.82
3/19/2021 10:45:00 AM 3.83 38.894 0.269 7.6 10.35 12.84
3/19/2021 11:00:00 AM 3.85 38.93 0.269 7.6 10.41 12.86
3/19/2021 11:15:00 AM 3.89 39.002 0.268 7.6 10.62 12.88
3/19/2021 11:30:00 AM 3.93 39.074 0.267 7.6 10.03 12.9
3/19/2021 11:45:00 AM 3.99 39.182 0.267 7.6 10.25 12.91
3/19/2021 12:00:00 PM 4.06 39.308 0.267 7.61 9.77 12.92
3/19/2021 12:15:00 PM 4.14 39.452 0.267 7.61 9.96 12.93
3/19/2021 12:30:00 PM 4.23 39.614 0.266 7.61 9.8 12.94
3/19/2021 12:45:00 PM 4.33 39.794 0.265 7.62 9.72 12.94
3/19/2021 1:00:00 PM 4.43 39.974 0.265 7.62 9.59 12.94
3/19/2021 1:15:00 PM 4.55 40.19 0.265 7.62 9.35 12.93
3/19/2021 1:30:00 PM 4.68 40.424 0.265 7.63 9.21 12.92
3/19/2021 1:45:00 PM 4.81 40.658 0.265 7.63 8.78 12.91
3/19/2021 2:00:00 PM 4.95 40.91 0.264 7.63 8.91 12.9
3/19/2021 2:15:00 PM 5.08 41.144 0.265 7.64 8.87 12.88
3/19/2021 2:30:00 PM 5.22 41.396 0.264 7.64 8.63 12.86
3/19/2021 2:45:00 PM 5.34 41.612 0.265 7.64 8.61 12.85
3/19/2021 3:00:00 PM 5.45 41.81 0.264 7.65 8.67 12.83
3/19/2021 3:15:00 PM 5.56 42.008 0.264 7.65 8.59 12.81
3/19/2021 3:30:00 PM 5.64 42.152 0.264 7.65 8.51 12.79
3/19/2021 3:45:00 PM 5.72 42.296 0.264 7.65 8.59 12.76
3/19/2021 4:00:00 PM 5.77 42.386 0.264 7.66 8.34 12.74
3/19/2021 4:15:00 PM 5.81 42.458 0.264 7.66 8.27 12.72
3/19/2021 4:30:00 PM 5.82 42.476 0.264 7.66 8.67 12.72
3/19/2021 4:45:00 PM 5.82 42.476 0.264 7.67 8.39 12.7
3/19/2021 5:00:00 PM 5.82 42.476 0.264 7.67 8.14 12.67
3/19/2021 5:15:00 PM 5.81 42.458 0.264 7.67 8.13 12.65
3/19/2021 5:30:00 PM 5.78 42.404 0.264 7.67 8 12.63
3/19/2021 5:45:00 PM 5.75 42.35 0.264 7.67 7.91 12.62
3/19/2021 6:00:00 PM 5.73 42.314 0.264 7.66 7.75 12.59
3/19/2021 6:15:00 PM 5.7 42.26 0.263 7.66 7.53 12.57
3/19/2021 6:30:00 PM 5.66 42.188 0.264 7.66 7.75 12.54
3/19/2021 6:45:00 PM 5.62 42.116 0.264 7.66 7.55 12.52
3/19/2021 7:00:00 PM 5.57 42.026 0.264 7.65 7.4 12.5
3/19/2021 7:15:00 PM 5.53 41.954 0.265 7.64 7.47 12.48
3/19/2021 7:30:00 PM 5.48 41.864 0.265 7.64 7.35 12.46
3/19/2021 7:45:00 PM 5.42 41.756 0.265 7.63 7.18 12.45
3/19/2021 8:00:00 PM 5.36 41.648 0.265 7.63 7.32 12.44
3/19/2021 8:15:00 PM 5.3 41.54 0.265 7.62 7.05 12.43
3/19/2021 8:30:00 PM 5.24 41.432 0.266 7.62 7.13 12.43
3/19/2021 8:45:00 PM 5.17 41.306 0.265 7.61 7.09 12.43
3/19/2021 9:00:00 PM 5.12 41.216 0.265 7.61 6.96 12.43
3/19/2021 9:15:00 PM 5.06 41.108 0.266 7.6 6.77 12.43
3/19/2021 9:30:00 PM 4.99 40.982 0.266 7.6 6.67 12.44
3/19/2021 9:45:00 PM 4.93 40.874 0.266 7.6 6.73 12.45
3/19/2021 10:00:00 PM 4.86 40.748 0.266 7.6 7.46 12.45
3/19/2021 10:15:00 PM 4.8 40.64 0.267 7.59 6.69 12.47
3/19/2021 10:30:00 PM 4.73 40.514 0.267 7.59 6.43 12.49
3/19/2021 10:45:00 PM 4.66 40.388 0.268 7.59 6.37 12.5
3/19/2021 11:00:00 PM 4.59 40.262 0.268 7.59 6.28 12.52
3/19/2021 11:15:00 PM 4.53 40.154 0.268 7.58 6.26 12.54
3/19/2021 11:30:00 PM 4.46 40.028 0.268 7.58 6.44 12.55
3/19/2021 11:45:00 PM 4.4 39.92 0.269 7.58 6.06 12.57
3/20/2021 12:00:00 AM 4.33 39.794 0.269 7.58 6.13 12.59
3/20/2021 12:15:00 AM 4.26 39.668 0.269 7.58 6.13 12.61
3/20/2021 12:30:00 AM 4.19 39.542 0.269 7.58 5.96 12.64
3/20/2021 12:45:00 AM 4.13 39.434 0.27 7.58 6.04 12.66
3/20/2021 1:00:00 AM 4.06 39.308 0.27 7.57 6.01 12.68
3/20/2021 1:15:00 AM 3.99 39.182 0.27 7.58 5.92 12.7
3/20/2021 1:30:00 AM 3.93 39.074 0.27 7.57 5.98 12.72
3/20/2021 1:45:00 AM 3.86 38.948 0.27 7.57 5.81 12.75
3/20/2021 2:00:00 AM 3.79 38.822 0.271 7.57 5.75 12.77
3/20/2021 2:15:00 AM 3.72 38.696 0.271 7.57 5.6 12.8
3/20/2021 2:30:00 AM 3.65 38.57 0.271 7.57 5.7 12.83
3/20/2021 2:45:00 AM 3.59 38.462 0.271 7.57 5.69 12.85
3/20/2021 3:00:00 AM 3.52 38.336 0.272 7.57 5.66 12.88
3/20/2021 3:15:00 AM 3.46 38.228 0.272 7.57 5.67 12.9
3/20/2021 3:30:00 AM 3.4 38.12 0.272 7.57 5.52 12.91
3/20/2021 3:45:00 AM 3.34 38.012 0.272 7.57 5.5 12.93
3/20/2021 4:00:00 AM 3.28 37.904 0.272 7.57 5.54 12.95
3/20/2021 4:15:00 AM 3.23 37.814 0.273 7.57 5.39 12.97
3/20/2021 4:30:00 AM 3.18 37.724 0.273 7.57 5.54 12.98
3/20/2021 4:45:00 AM 3.13 37.634 0.273 7.57 5.3 13
3/20/2021 5:00:00 AM 3.08 37.544 0.273 7.57 5.26 13.02
3/20/2021 5:15:00 AM 3.03 37.454 0.273 7.57 5.28 13.04
3/20/2021 5:30:00 AM 2.99 37.382 0.274 7.57 5.29 13.06
3/20/2021 5:45:00 AM 2.94 37.292 0.275 7.56 5.2 13.08
3/20/2021 6:00:00 AM 2.89 37.202 0.275 7.57 5.35 13.1
3/20/2021 6:15:00 AM 2.85 37.13 0.275 7.57 5.1 13.12
3/20/2021 6:30:00 AM 2.8 37.04 0.275 7.57 5.09 13.13
3/20/2021 6:45:00 AM 2.76 36.968 0.274 7.57 5.11 13.15
3/20/2021 7:00:00 AM 2.71 36.878 0.275 7.57 5.33 13.16
3/20/2021 7:15:00 AM 2.67 36.806 0.276 7.57 5.13 13.18
3/20/2021 7:30:00 AM 2.62 36.716 0.276 7.57 5.06 13.2
3/20/2021 7:45:00 AM 2.58 36.644 0.276 7.57 4.8 13.22
3/20/2021 8:00:00 AM 2.54 36.572 0.276 7.57 4.94 13.26
3/20/2021 8:15:00 AM 2.51 36.518 0.277 7.58 5.06 13.29
3/20/2021 8:30:00 AM 2.49 36.482 0.277 7.58 4.86 13.32
3/20/2021 8:45:00 AM 2.47 36.446 0.277 7.58 5.03 13.35
3/20/2021 9:00:00 AM 2.47 36.446 0.277 7.59 4.92 13.39
3/20/2021 9:15:00 AM 2.47 36.446 0.277 7.59 4.74 13.42
3/20/2021 9:30:00 AM 2.47 36.446 0.278 7.59 4.82 13.45
3/20/2021 9:45:00 AM 2.48 36.464 0.278 7.6 4.59 13.47
3/20/2021 10:00:00 AM 2.51 36.518 0.278 7.6 5.13 13.5
3/20/2021 10:15:00 AM 2.54 36.572 0.278 7.6 5.01 13.51
3/20/2021 10:30:00 AM 2.59 36.662 0.279 7.61 4.67 13.53
3/20/2021 10:45:00 AM 2.65 36.77 0.279 7.61 4.66 13.54
3/20/2021 11:00:00 AM 2.73 36.914 0.279 7.62 4.49 13.54
3/20/2021 11:15:00 AM 2.82 37.076 0.279 7.62 4.34 13.55
3/20/2021 11:30:00 AM 2.92 37.256 0.28 7.63 4.28 13.55
3/20/2021 11:45:00 AM 3.05 37.49 0.28 7.63 4.39 13.55
3/20/2021 12:00:00 PM 3.17 37.706 0.28 7.64 4.54 13.54
3/20/2021 12:15:00 PM 3.31 37.958 0.28 7.64 4.48 13.52
3/20/2021 12:30:00 PM 3.46 38.228 0.28 7.65 4.39 13.49
3/20/2021 12:45:00 PM 3.62 38.516 0.28 7.66 4.29 13.47
3/20/2021 1:00:00 PM 3.79 38.822 0.28 7.66 4.29 13.44
3/20/2021 1:15:00 PM 3.97 39.146 0.28 7.66 4.32 13.41
3/20/2021 1:30:00 PM 4.16 39.488 0.281 7.67 4.32 13.37
3/20/2021 1:45:00 PM 4.36 39.848 0.281 7.67 4.3 13.33
3/20/2021 2:00:00 PM 4.56 40.208 0.28 7.67 4.16 13.29
3/20/2021 2:15:00 PM 4.76 40.568 0.281 7.68 4.26 13.24
3/20/2021 2:30:00 PM 4.96 40.928 0.281 7.68 4.21 13.19
3/20/2021 2:45:00 PM 5.15 41.27 0.281 7.68 4.23 13.16
3/20/2021 3:00:00 PM 5.31 41.558 0.281 7.69 4.17 13.1
3/20/2021 3:15:00 PM 5.49 41.882 0.282 7.69 4.07 13.06
3/20/2021 3:30:00 PM 5.62 42.116 0.281 7.7 4.18 13.02
3/20/2021 3:45:00 PM 5.74 42.332 0.282 7.7 4.14 12.98
3/20/2021 4:00:00 PM 5.83 42.494 0.281 7.71 4.3 12.93
3/20/2021 4:15:00 PM 5.91 42.638 0.282 7.71 4.3 12.91
3/20/2021 4:30:00 PM 5.96 42.728 0.283 7.71 4.21 12.87
3/20/2021 4:45:00 PM 5.99 42.782 0.283 7.72 4.19 12.84
3/20/2021 5:00:00 PM 6 42.8 0.283 7.72 4.29 12.8
3/20/2021 5:15:00 PM 6.01 42.818 0.284 7.72 4.28 12.78
3/20/2021 5:30:00 PM 5.99 42.782 0.283 7.72 4.24 12.74
3/20/2021 5:45:00 PM 5.98 42.764 0.284 7.72 4.16 12.7
3/20/2021 6:00:00 PM 5.96 42.728 0.284 7.72 4.2 12.68
3/20/2021 6:15:00 PM 5.95 42.71 0.284 7.71 4.58 12.63
3/20/2021 6:30:00 PM 5.93 42.674 0.285 7.71 4.3 12.6
3/20/2021 6:45:00 PM 5.9 42.62 0.285 7.7 4.44 12.56
3/20/2021 7:00:00 PM 5.88 42.584 0.285 7.7 4.25 12.54
3/20/2021 7:15:00 PM 5.85 42.53 0.285 7.7 4.34 12.51
3/20/2021 7:30:00 PM 5.8 42.44 0.285 7.69 4.38 12.47
3/20/2021 7:45:00 PM 5.77 42.386 0.285 7.69 4.48 12.44
3/20/2021 8:00:00 PM 5.73 42.314 0.286 7.68 4.46 12.42
3/20/2021 8:15:00 PM 5.67 42.206 0.286 7.67 4.68 12.4
3/20/2021 8:30:00 PM 5.62 42.116 0.286 7.67 4.89 12.38
3/20/2021 8:45:00 PM 5.57 42.026 0.286 7.66 4.66 12.38
3/20/2021 9:00:00 PM 5.51 41.918 0.287 7.66 4.54 12.38
3/20/2021 9:15:00 PM 5.45 41.81 0.287 7.66 4.55 12.37
3/20/2021 9:30:00 PM 5.39 41.702 0.287 7.65 4.5 12.37
3/20/2021 9:45:00 PM 5.33 41.594 0.288 7.65 4.5 12.38
3/20/2021 10:00:00 PM 5.27 41.486 0.288 7.65 4.51 12.39
3/20/2021 10:15:00 PM 5.2 41.36 0.287 7.64 4.51 12.4
3/20/2021 10:30:00 PM 5.14 41.252 0.288 7.64 4.54 12.41
3/20/2021 10:45:00 PM 5.07 41.126 0.288 7.64 4.43 12.42
3/20/2021 11:00:00 PM 5 41 0.288 7.64 4.48 12.43
3/20/2021 11:15:00 PM 4.93 40.874 0.288 7.64 4.44 12.45
3/20/2021 11:30:00 PM 4.86 40.748 0.289 7.63 4.41 12.47
3/20/2021 11:45:00 PM 4.79 40.622 0.289 7.63 4.45 12.48
3/21/2021 12:00:00 AM 4.72 40.496 0.29 7.63 4.31 12.49
3/21/2021 12:15:00 AM 4.66 40.388 0.29 7.63 4.45 12.51
3/21/2021 12:30:00 AM 4.59 40.262 0.29 7.63 4.29 12.54
3/21/2021 12:45:00 AM 4.53 40.154 0.291 7.63 4.32 12.55
3/21/2021 1:00:00 AM 4.47 40.046 0.29 7.63 4.27 12.57
3/21/2021 1:15:00 AM 4.4 39.92 0.291 7.62 4.3 12.59
3/21/2021 1:30:00 AM 4.33 39.794 0.291 7.62 4.41 12.61
3/21/2021 1:45:00 AM 4.27 39.686 0.292 7.62 4.39 12.63
3/21/2021 2:00:00 AM 4.2 39.56 0.292 7.62 4.34 12.65
3/21/2021 2:15:00 AM 4.13 39.434 0.292 7.62 4.34 12.68
3/21/2021 2:30:00 AM 4.06 39.308 0.293 7.62 4.24 12.7
3/21/2021 2:45:00 AM 3.98 39.164 0.293 7.62 4.18 12.72
3/21/2021 3:00:00 AM 3.91 39.038 0.293 7.62 4.22 12.75
3/21/2021 3:15:00 AM 3.84 38.912 0.293 7.62 4.19 12.77
3/21/2021 3:30:00 AM 3.77 38.786 0.293 7.62 4.23 12.8
3/21/2021 3:45:00 AM 3.7 38.66 0.293 7.62 4.26 12.82
3/21/2021 4:00:00 AM 3.63 38.534 0.294 7.62 4.32 12.85
3/21/2021 4:15:00 AM 3.57 38.426 0.294 7.62 4.39 12.87
3/21/2021 4:30:00 AM 3.5 38.3 0.294 7.62 4.33 12.89
3/21/2021 4:45:00 AM 3.44 38.192 0.294 7.62 4.16 12.91
3/21/2021 5:00:00 AM 3.37 38.066 0.294 7.62 4.16 12.94
3/21/2021 5:15:00 AM 3.32 37.976 0.294 7.62 4.2 12.95
3/21/2021 5:30:00 AM 3.27 37.886 0.294 7.62 4.14 12.97
3/21/2021 5:45:00 AM 3.21 37.778 0.295 7.61 4.3 12.98
3/21/2021 6:00:00 AM 3.16 37.688 0.294 7.62 4.21 13.01
3/21/2021 6:15:00 AM 3.11 37.598 0.294 7.62 4.21 13.02
3/21/2021 6:30:00 AM 3.06 37.508 0.295 7.61 4.17 13.04
3/21/2021 6:45:00 AM 3.01 37.418 0.295 7.62 4.1 13.06
3/21/2021 7:00:00 AM 2.96 37.328 0.295 7.61 4.03 13.08
3/21/2021 7:15:00 AM 2.91 37.238 0.295 7.61 4.15 13.11
3/21/2021 7:30:00 AM 2.87 37.166 0.296 7.62 4.09 13.13
3/21/2021 7:45:00 AM 2.83 37.094 0.296 7.62 4.15 13.15
3/21/2021 8:00:00 AM 2.8 37.04 0.296 7.62 4.01 13.18
3/21/2021 8:15:00 AM 2.76 36.968 0.296 7.62 4.14 13.21
3/21/2021 8:30:00 AM 2.74 36.932 0.296 7.63 4.13 13.24
3/21/2021 8:45:00 AM 2.73 36.914 0.296 7.63 4 13.27
3/21/2021 9:00:00 AM 2.74 36.932 0.296 7.64 4.3 13.3
3/21/2021 9:15:00 AM 2.75 36.95 0.297 7.64 4.29 13.32
3/21/2021 9:30:00 AM 2.77 36.986 0.297 7.64 4.17 13.35
3/21/2021 9:45:00 AM 2.8 37.04 0.297 7.65 4.22 13.37
3/21/2021 10:00:00 AM 2.85 37.13 0.297 7.65 4.07 13.39
3/21/2021 10:15:00 AM 2.9 37.22 0.297 7.65 3.93 13.41
3/21/2021 10:30:00 AM 2.97 37.346 0.297 7.66 4.09 13.42
3/21/2021 10:45:00 AM 3.04 37.472 0.297 7.66 4 13.43
3/21/2021 11:00:00 AM 3.13 37.634 0.297 7.67 3.97 13.43
3/21/2021 11:15:00 AM 3.24 37.832 0.297 7.67 3.83 13.42
3/21/2021 11:30:00 AM 3.37 38.066 0.297 7.68 3.87 13.42
3/21/2021 11:45:00 AM 3.51 38.318 0.298 7.68 3.83 13.4
3/21/2021 12:00:00 PM 3.66 38.588 0.297 7.69 3.8 13.39
3/21/2021 12:15:00 PM 3.82 38.876 0.297 7.69 3.75 13.37
3/21/2021 12:30:00 PM 3.99 39.182 0.297 7.7 3.83 13.34
3/21/2021 12:45:00 PM 4.16 39.488 0.298 7.7 3.7 13.31
3/21/2021 1:00:00 PM 4.36 39.848 0.297 7.71 3.83 13.29
3/21/2021 1:15:00 PM 4.57 40.226 0.297 7.71 3.78 13.25
3/21/2021 1:30:00 PM 4.76 40.568 0.298 7.72 3.65 13.2
3/21/2021 1:45:00 PM 4.99 40.982 0.297 7.72 3.69 13.16
3/21/2021 2:00:00 PM 5.22 41.396 0.297 7.73 3.75 13.11
3/21/2021 2:15:00 PM 5.45 41.81 0.297 7.73 3.79 13.06
3/21/2021 2:30:00 PM 5.65 42.17 0.297 7.73 3.7 13.01
3/21/2021 2:45:00 PM 5.87 42.566 0.297 7.74 3.79 12.96
3/21/2021 3:00:00 PM 6.05 42.89 0.298 7.74 3.77 12.91
3/21/2021 3:15:00 PM 6.22 43.196 0.298 7.75 3.77 12.86
3/21/2021 3:30:00 PM 6.37 43.466 0.297 7.76 3.92 12.82
3/21/2021 3:45:00 PM 6.51 43.718 0.297 7.76 3.99 12.77
3/21/2021 4:00:00 PM 6.62 43.916 0.297 7.76 3.82 12.72
3/21/2021 4:15:00 PM 6.71 44.078 0.298 7.77 3.7 12.68
3/21/2021 4:30:00 PM 6.76 44.168 0.298 7.77 3.91 12.64
3/21/2021 4:45:00 PM 6.8 44.24 0.298 7.77 4.02 12.61
3/21/2021 5:00:00 PM 6.82 44.276 0.299 7.77 3.83 12.58
3/21/2021 5:15:00 PM 6.81 44.258 0.298 7.78 3.75 12.54
3/21/2021 5:30:00 PM 6.8 44.24 0.299 7.78 3.81 12.51
3/21/2021 5:45:00 PM 6.78 44.204 0.299 7.78 4.01 12.48
3/21/2021 6:00:00 PM 6.76 44.168 0.3 7.77 4.01 12.44
3/21/2021 6:15:00 PM 6.74 44.132 0.3 7.77 4.15 12.4
3/21/2021 6:30:00 PM 6.72 44.096 0.3 7.77 4 12.37
3/21/2021 6:45:00 PM 6.69 44.042 0.3 7.77 3.97 12.33
3/21/2021 7:00:00 PM 6.67 44.006 0.301 7.76 4.04 12.29
3/21/2021 7:15:00 PM 6.64 43.952 0.301 7.75 3.95 12.25
3/21/2021 7:30:00 PM 6.6 43.88 0.301 7.75 4.08 12.22
3/21/2021 7:45:00 PM 6.56 43.808 0.301 7.73 4.32 12.18
3/21/2021 8:00:00 PM 6.52 43.736 0.302 7.72 4.89 12.15
3/21/2021 8:15:00 PM 6.48 43.664 0.302 7.72 4.74 12.13
3/21/2021 8:30:00 PM 6.43 43.574 0.303 7.71 4.44 12.11
3/21/2021 8:45:00 PM 6.39 43.502 0.303 7.71 4.35 12.1
3/21/2021 9:00:00 PM 6.34 43.412 0.303 7.7 4.32 12.09
3/21/2021 9:15:00 PM 6.28 43.304 0.304 7.7 4.3 12.08
3/21/2021 9:30:00 PM 6.22 43.196 0.304 7.7 4.43 12.08
3/21/2021 9:45:00 PM 6.16 43.088 0.304 7.69 4.5 12.08
3/21/2021 10:00:00 PM 6.1 42.98 0.304 7.69 4.46 12.08
3/21/2021 10:15:00 PM 6.04 42.872 0.305 7.68 4.36 12.09
3/21/2021 10:30:00 PM 5.97 42.746 0.305 7.68 4.23 12.09
3/21/2021 10:45:00 PM 5.9 42.62 0.306 7.68 4.54 12.11
3/21/2021 11:00:00 PM 5.83 42.494 0.306 7.67 4.25 12.12
3/21/2021 11:15:00 PM 5.75 42.35 0.306 7.67 4.27 12.13
3/21/2021 11:30:00 PM 5.68 42.224 0.306 7.67 4.04 12.15
3/21/2021 11:45:00 PM 5.61 42.098 0.307 7.67 4.23 12.17
3/22/2021 12:00:00 AM 5.53 41.954 0.307 7.67 4.21 12.19
3/22/2021 12:15:00 AM 5.46 41.828 0.308 7.67 4.23 12.2
3/22/2021 12:30:00 AM 5.39 41.702 0.308 7.67 4.17 12.22
3/22/2021 12:45:00 AM 5.32 41.576 0.308 7.67 4.07 12.24
3/22/2021 1:00:00 AM 5.25 41.45 0.309 7.66 4.15 12.25
3/22/2021 1:15:00 AM 5.19 41.342 0.309 7.66 4.2 12.27
3/22/2021 1:30:00 AM 5.12 41.216 0.309 7.66 4.18 12.29
3/22/2021 1:45:00 AM 5.05 41.09 0.31 7.66 4.32 12.31
3/22/2021 2:00:00 AM 4.99 40.982 0.309 7.66 4.17 12.33
3/22/2021 2:15:00 AM 4.92 40.856 0.31 7.66 3.94 12.35
3/22/2021 2:30:00 AM 4.85 40.73 0.31 7.66 4.19 12.37
3/22/2021 2:45:00 AM 4.77 40.586 0.311 7.65 4.67 12.39
3/22/2021 3:00:00 AM 4.7 40.46 0.31 7.66 3.97 12.41
3/22/2021 3:15:00 AM 4.63 40.334 0.31 7.65 4.17 12.44
3/22/2021 3:30:00 AM 4.55 40.19 0.309 7.65 4.15 12.47
3/22/2021 3:45:00 AM 4.48 40.064 0.308 7.66 3.94 12.5
3/22/2021 4:00:00 AM 4.4 39.92 0.308 7.65 4.18 12.52
3/22/2021 4:15:00 AM 4.32 39.776 0.308 7.66 4.19 12.54
3/22/2021 4:30:00 AM 4.25 39.65 0.308 7.65 4.15 12.56
3/22/2021 4:45:00 AM 4.18 39.524 0.308 7.65 4.05 12.59
3/22/2021 5:00:00 AM 4.1 39.38 0.309 7.65 4.02 12.62
3/22/2021 5:15:00 AM 4.03 39.254 0.309 7.65 3.94 12.64
3/22/2021 5:30:00 AM 3.96 39.128 0.309 7.65 4.2 12.67
3/22/2021 5:45:00 AM 3.89 39.002 0.31 7.65 4.2 12.69
3/22/2021 6:00:00 AM 3.83 38.894 0.31 7.65 4.4 12.71
3/22/2021 6:15:00 AM 3.77 38.786 0.31 7.65 4.24 12.74
3/22/2021 6:30:00 AM 3.7 38.66 0.31 7.65 4.13 12.75
3/22/2021 6:45:00 AM 3.65 38.57 0.311 7.65 4.02 12.77
3/22/2021 7:00:00 AM 3.59 38.462 0.311 7.65 3.9 12.79
3/22/2021 7:15:00 AM 3.53 38.354 0.312 7.65 4.12 12.82
3/22/2021 7:30:00 AM 3.48 38.264 0.312 7.65 3.99 12.84
3/22/2021 7:45:00 AM 3.44 38.192 0.312 7.65 3.97 12.88
3/22/2021 8:00:00 AM 3.4 38.12 0.312 7.65 4.01 12.91
3/22/2021 8:15:00 AM 3.36 38.048 0.312 7.66 3.88 12.95
3/22/2021 8:30:00 AM 3.34 38.012 0.312 7.66 3.88 12.98
3/22/2021 8:45:00 AM 3.33 37.994 0.312 7.67 3.93 13.01
3/22/2021 9:00:00 AM 3.34 38.012 0.312 7.67 4.02 13.05
3/22/2021 9:15:00 AM 3.36 38.048 0.313 7.67 3.88 13.08
3/22/2021 9:30:00 AM 3.38 38.084 0.312 7.68 4.04 13.11
3/22/2021 9:45:00 AM 3.42 38.156 0.312 7.68 3.82 13.13
3/22/2021 10:00:00 AM 3.47 38.246 0.313 7.69 3.93 13.15
3/22/2021 10:15:00 AM 3.52 38.336 0.313 7.69 3.82 13.16
3/22/2021 10:30:00 AM 3.6 38.48 0.313 7.69 3.93 13.16
3/22/2021 10:45:00 AM 3.68 38.624 0.313 7.7 3.82 13.16
3/22/2021 11:00:00 AM 3.74 38.732 0.313 7.71 3.95 13.18
3/22/2021 11:15:00 AM 3.87 38.966 0.313 7.71 3.76 13.17
3/22/2021 11:30:00 AM 4 39.2 0.314 7.72 3.94 13.17
3/22/2021 11:45:00 AM 4.14 39.452 0.315 7.72 3.8 13.16
3/22/2021 12:00:00 PM 4.29 39.722 0.314 7.73 3.73 13.15
3/22/2021 12:15:00 PM 4.46 40.028 0.313 7.74 3.74 13.11
3/22/2021 12:30:00 PM 4.64 40.352 0.313 7.74 3.79 13.1
3/22/2021 12:45:00 PM 4.83 40.694 0.313 7.75 3.64 13.06
3/22/2021 1:00:00 PM 5.03 41.054 0.313 7.75 3.68 13.03
3/22/2021 1:15:00 PM 5.23 41.414 0.313 7.76 3.59 13
3/22/2021 1:30:00 PM 5.47 41.846 0.313 7.77 3.67 12.95
3/22/2021 1:45:00 PM 5.69 42.242 0.313 7.77 3.66 12.91
3/22/2021 2:00:00 PM 5.94 42.692 0.313 7.77 3.75 12.86
3/22/2021 2:15:00 PM 6.17 43.106 0.313 7.78 3.7 12.81
3/22/2021 2:30:00 PM 6.39 43.502 0.313 7.78 3.77 12.76
3/22/2021 2:45:00 PM 6.63 43.934 0.313 7.78 3.72 12.71
3/22/2021 3:00:00 PM 6.82 44.276 0.313 7.79 3.64 12.67
3/22/2021 3:15:00 PM 6.98 44.564 0.314 7.8 3.77 12.6
3/22/2021 3:30:00 PM 7.15 44.87 0.313 7.8 3.74 12.56
3/22/2021 3:45:00 PM 7.29 45.122 0.314 7.81 3.75 12.51
3/22/2021 4:00:00 PM 7.4 45.32 0.314 7.81 4.04 12.47
3/22/2021 4:15:00 PM 7.49 45.482 0.313 7.82 4.06 12.43
3/22/2021 4:30:00 PM 7.55 45.59 0.314 7.83 4.18 12.4
3/22/2021 4:45:00 PM 7.58 45.644 0.314 7.83 4.18 12.37
3/22/2021 5:00:00 PM 7.6 45.68 0.314 7.83 4.33 12.33
3/22/2021 5:15:00 PM 7.59 45.662 0.314 7.83 4.48 12.3
3/22/2021 5:30:00 PM 7.58 45.644 0.314 7.83 4.56 12.26
3/22/2021 5:45:00 PM 7.54 45.572 0.314 7.83 4.26 12.23
3/22/2021 6:00:00 PM 7.51 45.518 0.315 7.83 4.14 12.18
3/22/2021 6:15:00 PM 7.48 45.464 0.315 7.82 4.31 12.15
3/22/2021 6:30:00 PM 7.45 45.41 0.315 7.82 4.33 12.11
3/22/2021 6:45:00 PM 7.42 45.356 0.315 7.81 4.47 12.07
3/22/2021 7:00:00 PM 7.39 45.302 0.315 7.8 4.19 12.03
3/22/2021 7:15:00 PM 7.35 45.23 0.316 7.8 4.22 11.99
3/22/2021 7:30:00 PM 7.3 45.14 0.316 7.79 4.09 11.95
3/22/2021 7:45:00 PM 7.25 45.05 0.316 7.78 4.19 11.91
3/22/2021 8:00:00 PM 7.21 44.978 0.316 7.77 4.36 11.88
3/22/2021 8:15:00 PM 7.17 44.906 0.317 7.76 4.18 11.86
3/22/2021 8:30:00 PM 7.12 44.816 0.317 7.75 4.25 11.84
3/22/2021 8:45:00 PM 7.07 44.726 0.317 7.75 4.23 11.82
3/22/2021 9:00:00 PM 7.01 44.618 0.318 7.74 4.37 11.8
3/22/2021 9:15:00 PM 6.96 44.528 0.318 7.74 4.29 11.8
3/22/2021 9:30:00 PM 6.91 44.438 0.318 7.73 4.41 11.79
3/22/2021 9:45:00 PM 6.84 44.312 0.318 7.73 4.13 11.8
3/22/2021 10:00:00 PM 6.78 44.204 0.318 7.72 4.2 11.8
3/22/2021 10:15:00 PM 6.72 44.096 0.319 7.72 4.16 11.8
3/22/2021 10:30:00 PM 6.65 43.97 0.319 7.71 4.22 11.81
3/22/2021 10:45:00 PM 6.58 43.844 0.319 7.71 4.27 11.81
3/22/2021 11:00:00 PM 6.5 43.7 0.319 7.71 4.61 11.82
3/22/2021 11:15:00 PM 6.43 43.574 0.319 7.7 4.43 11.84
3/22/2021 11:30:00 PM 6.35 43.43 0.32 7.7 4.19 11.86
3/22/2021 11:45:00 PM 6.28 43.304 0.32 7.7 4.3 11.88
3/23/2021 12:00:00 AM 6.2 43.16 0.32 7.7 4.3 11.9
3/23/2021 12:15:00 AM 6.12 43.016 0.321 7.7 4.27 11.91
3/23/2021 12:30:00 AM 6.04 42.872 0.321 7.69 4.1 11.94
3/23/2021 12:45:00 AM 5.97 42.746 0.321 7.69 4.15 11.95
3/23/2021 1:00:00 AM 5.91 42.638 0.321 7.69 3.95 11.98
3/23/2021 1:15:00 AM 5.83 42.494 0.322 7.69 4.13 12
3/23/2021 1:30:00 AM 5.77 42.386 0.322 7.69 4.18 12.02
3/23/2021 1:45:00 AM 5.7 42.26 0.322 7.69 4.04 12.03
3/23/2021 2:00:00 AM 5.63 42.134 0.323 7.69 4.16 12.05
3/23/2021 2:15:00 AM 5.57 42.026 0.323 7.69 4.19 12.07
3/23/2021 2:30:00 AM 5.5 41.9 0.323 7.69 4.26 12.09
3/23/2021 2:45:00 AM 5.44 41.792 0.324 7.68 4.25 12.1
3/23/2021 3:00:00 AM 5.37 41.666 0.324 7.68 4.02 12.13
3/23/2021 3:15:00 AM 5.3 41.54 0.325 7.68 4.26 12.15
3/23/2021 3:30:00 AM 5.22 41.396 0.324 7.68 4.22 12.18
3/23/2021 3:45:00 AM 5.15 41.27 0.324 7.68 4.15 12.2
3/23/2021 4:00:00 AM 5.07 41.126 0.325 7.68 4.06 12.22
3/23/2021 4:15:00 AM 4.99 40.982 0.325 7.68 4.32 12.25
3/23/2021 4:30:00 AM 4.91 40.838 0.325 7.68 4.67 12.28
3/23/2021 4:45:00 AM 4.83 40.694 0.325 7.68 4.06 12.3
3/23/2021 5:00:00 AM 4.75 40.55 0.325 7.68 4.22 12.34
3/23/2021 5:15:00 AM 4.68 40.424 0.326 7.68 4.29 12.36
3/23/2021 5:30:00 AM 4.6 40.28 0.326 7.68 4.25 12.39
3/23/2021 5:45:00 AM 4.52 40.136 0.326 7.68 4.27 12.42
3/23/2021 6:00:00 AM 4.44 39.992 0.326 7.68 4.3 12.44
3/23/2021 6:15:00 AM 4.37 39.866 0.326 7.68 4.48 12.47
3/23/2021 6:30:00 AM 4.3 39.74 0.326 7.68 4.21 12.49
3/23/2021 6:45:00 AM 4.24 39.632 0.326 7.68 4.29 12.52
3/23/2021 7:00:00 AM 4.17 39.506 0.327 7.68 4.3 12.54
3/23/2021 7:15:00 AM 4.12 39.416 0.327 7.67 4.12 12.56
3/23/2021 7:30:00 AM 4.06 39.308 0.327 7.67 4.4 12.59
3/23/2021 7:45:00 AM 4.01 39.218 0.326 7.68 4.05 12.63
3/23/2021 8:00:00 AM 3.96 39.128 0.327 7.68 4.2 12.67
3/23/2021 8:15:00 AM 3.93 39.074 0.327 7.69 4.15 12.7
3/23/2021 8:30:00 AM 3.9 39.02 0.327 7.69 4.24 12.75
3/23/2021 8:45:00 AM 3.9 39.02 0.327 7.7 4.1 12.8
3/23/2021 9:00:00 AM 3.91 39.038 0.327 7.7 4.12 12.84
3/23/2021 9:15:00 AM 3.93 39.074 0.327 7.71 4.13 12.88
3/23/2021 9:30:00 AM 3.93 39.074 0.327 7.71 4.48 12.9
3/23/2021 9:45:00 AM 3.97 39.146 0.327 7.72 4.24 12.93
3/23/2021 10:00:00 AM 4.03 39.254 0.327 7.72 4.25 12.95
3/23/2021 10:15:00 AM 4.09 39.362 0.327 7.73 4.08 12.96
3/23/2021 10:30:00 AM 4.17 39.506 0.327 7.73 4.5 12.97
3/23/2021 10:45:00 AM 4.26 39.668 0.327 7.74 4.35 12.98
3/23/2021 11:00:00 AM 4.34 39.812 0.327 7.75 3.99 13
3/23/2021 11:15:00 AM 4.48 40.064 0.327 7.76 4.32 13.01
3/23/2021 11:30:00 AM 4.63 40.334 0.327 7.76 4.11 13
3/23/2021 11:45:00 AM 4.8 40.64 0.327 7.78 3.9 12.99
3/23/2021 12:00:00 PM 4.97 40.946 0.327 7.78 3.88 12.98
3/23/2021 12:15:00 PM 5.13 41.234 0.327 7.79 3.89 12.96
3/23/2021 12:30:00 PM 5.31 41.558 0.327 7.8 3.84 12.94
3/23/2021 12:45:00 PM 5.49 41.882 0.327 7.8 3.87 12.92
3/23/2021 1:00:00 PM 5.69 42.242 0.327 7.81 3.93 12.89
3/23/2021 1:15:00 PM 5.83 42.494 0.327 7.82 3.96 12.86
3/23/2021 1:30:00 PM 5.97 42.746 0.327 7.83 3.75 12.84
3/23/2021 1:45:00 PM 6.15 43.07 0.328 7.83 3.88 12.8
3/23/2021 2:00:00 PM 6.25 43.25 0.328 7.84 3.81 12.76
3/23/2021 2:15:00 PM 6.36 43.448 0.328 7.84 3.94 12.74
3/23/2021 2:30:00 PM 6.53 43.754 0.327 7.85 3.94 12.71
3/23/2021 2:45:00 PM 6.64 43.952 0.327 7.86 3.86 12.68
3/23/2021 3:00:00 PM 6.78 44.204 0.328 7.86 4.01 12.65
3/23/2021 3:15:00 PM 7.02 44.636 0.328 7.86 3.98 12.6
3/23/2021 3:30:00 PM 7.02 44.636 0.328 7.87 4.05 12.56
3/23/2021 3:45:00 PM 7.17 44.906 0.328 7.88 4.07 12.53
3/23/2021 4:00:00 PM 7.29 45.122 0.328 7.88 4.21 12.5
3/23/2021 4:15:00 PM 7.33 45.194 0.328 7.89 4.44 12.46
3/23/2021 4:30:00 PM 7.35 45.23 0.329 7.89 4.55 12.43
3/23/2021 4:45:00 PM 7.48 45.464 0.328 7.9 4.62 12.41
3/23/2021 5:00:00 PM 7.55 45.59 0.329 7.9 4.73 12.36
3/23/2021 5:15:00 PM 7.57 45.626 0.329 7.9 4.76 12.33
3/23/2021 5:30:00 PM 7.6 45.68 0.329 7.9 4.5 12.3
3/23/2021 5:45:00 PM 7.62 45.716 0.329 7.9 4.61 12.24
3/23/2021 6:00:00 PM 7.68 45.824 0.329 7.9 4.53 12.22
3/23/2021 6:15:00 PM 7.67 45.806 0.33 7.89 4.79 12.17
3/23/2021 6:30:00 PM 7.68 45.824 0.329 7.89 5.43 12.12
3/23/2021 6:45:00 PM 7.69 45.842 0.33 7.88 4.52 12.05
3/23/2021 7:00:00 PM 7.69 45.842 0.33 7.87 4.36 11.98
3/23/2021 7:15:00 PM 7.69 45.842 0.33 7.86 4.55 11.93
3/23/2021 7:30:00 PM 7.69 45.842 0.331 7.84 4.64 11.88
3/23/2021 7:45:00 PM 7.68 45.824 0.331 7.83 5.02 11.83
3/23/2021 8:00:00 PM 7.67 45.806 0.331 7.82 5.58 11.79
3/23/2021 8:15:00 PM 7.66 45.788 0.331 7.81 4.85 11.76
3/23/2021 8:30:00 PM 7.63 45.734 0.331 7.81 4.66 11.73
3/23/2021 8:45:00 PM 7.6 45.68 0.332 7.79 4.79 11.71
3/23/2021 9:00:00 PM 7.57 45.626 0.332 7.79 4.51 11.68
3/23/2021 9:15:00 PM 7.53 45.554 0.332 7.78 67.6 11.66
3/23/2021 9:30:00 PM 7.5 45.5 0.333 7.77 10.23 11.65
3/23/2021 9:45:00 PM 7.47 45.446 0.333 7.77 5 11.64
3/23/2021 10:00:00 PM 7.44 45.392 0.333 7.76 4.14 11.63
3/23/2021 10:15:00 PM 7.4 45.32 0.334 7.75 4.26 11.61
3/23/2021 10:30:00 PM 7.37 45.266 0.334 7.75 4.2 11.61
3/23/2021 10:45:00 PM 7.34 45.212 0.335 7.75 4.35 11.6
3/23/2021 11:00:00 PM 7.3 45.14 0.335 7.74 4.35 11.6
3/23/2021 11:15:00 PM 7.27 45.086 0.335 7.74 5.21 11.6
3/23/2021 11:30:00 PM 7.23 45.014 0.335 7.73 5.26 11.6
3/23/2021 11:45:00 PM 7.19 44.942 0.336 7.73 4.81 11.6
3/24/2021 12:00:00 AM 7.16 44.888 0.335 7.73 4.31 11.61
3/24/2021 12:15:00 AM 7.13 44.834 0.336 7.73 4.15 11.61
3/24/2021 12:30:00 AM 7.1 44.78 0.337 7.73 4 11.62
3/24/2021 12:45:00 AM 7.06 44.708 0.337 7.72 4.08 11.63
3/24/2021 1:00:00 AM 7.04 44.672 0.337 7.72 4.29 11.63
3/24/2021 1:15:00 AM 7.02 44.636 0.337 7.72 4.25 11.64
3/24/2021 1:30:00 AM 7 44.6 0.338 7.72 4.25 11.64
3/24/2021 1:45:00 AM 6.98 44.564 0.338 7.72 4.08 11.65
3/24/2021 2:00:00 AM 6.96 44.528 0.338 7.72 4.06 11.65
3/24/2021 2:15:00 AM 6.96 44.528 0.338 7.72 4.12 11.65
3/24/2021 2:30:00 AM 6.95 44.51 0.338 7.71 4.16 11.65
3/24/2021 2:45:00 AM 6.95 44.51 0.339 7.72 4.1 11.65
3/24/2021 3:00:00 AM 6.94 44.492 0.339 7.71 3.98 11.66
3/24/2021 3:15:00 AM 6.94 44.492 0.339 7.71 4.02 11.66
3/24/2021 3:30:00 AM 6.94 44.492 0.339 7.71 4.22 11.66
3/24/2021 3:45:00 AM 6.93 44.474 0.339 7.71 4.08 11.67
3/24/2021 4:00:00 AM 6.93 44.474 0.339 7.71 4.12 11.66
3/24/2021 4:15:00 AM 6.93 44.474 0.339 7.71 4.16 11.67
3/24/2021 4:30:00 AM 6.92 44.456 0.339 7.71 4.1 11.67
3/24/2021 4:45:00 AM 6.92 44.456 0.339 7.71 4.09 11.67
3/24/2021 5:00:00 AM 6.91 44.438 0.339 7.71 3.97 11.68
3/24/2021 5:15:00 AM 6.91 44.438 0.339 7.71 4 11.67
3/24/2021 5:30:00 AM 6.9 44.42 0.339 7.71 4.2 11.68
3/24/2021 5:45:00 AM 6.89 44.402 0.339 7.71 4.02 11.68
3/24/2021 6:00:00 AM 6.88 44.384 0.339 7.71 4.31 11.68
3/24/2021 6:15:00 AM 6.88 44.384 0.339 7.71 4.05 11.68
3/24/2021 6:30:00 AM 6.88 44.384 0.339 7.71 4.15 11.68
3/24/2021 6:45:00 AM 6.88 44.384 0.339 7.7 4.09 11.69
3/24/2021 7:00:00 AM 6.87 44.366 0.339 7.7 5.39 11.68
3/24/2021 7:15:00 AM 6.87 44.366 0.338 7.7 4.21 11.68
3/24/2021 7:30:00 AM 6.87 44.366 0.337 7.7 4.42 11.69
3/24/2021 7:45:00 AM 6.87 44.366 0.337 7.69 4.37 11.69
3/24/2021 8:00:00 AM 6.86 44.348 0.337 7.69 4.34 11.7
3/24/2021 8:15:00 AM 6.86 44.348 0.335 7.69 6.71 11.72
3/24/2021 8:30:00 AM 6.86 44.348 0.337 7.7 4.59 11.73
3/24/2021 8:45:00 AM 6.87 44.366 0.337 7.7 4.45 11.75
3/24/2021 9:00:00 AM 6.88 44.384 0.337 7.7 4.96 11.79
3/24/2021 9:15:00 AM 6.9 44.42 0.337 7.71 4.51 11.83
3/24/2021 9:30:00 AM 6.93 44.474 0.337 7.72 5.01 11.86
3/24/2021 9:45:00 AM 6.95 44.51 0.337 7.73 5.33 11.9
3/24/2021 10:00:00 AM 6.97 44.546 0.337 7.73 4.98 11.91
3/24/2021 10:15:00 AM 6.99 44.582 0.337 7.74 4.77 11.92
3/24/2021 10:30:00 AM 7.01 44.618 0.336 7.74 4.61 11.94
3/24/2021 10:45:00 AM 7.05 44.69 0.336 7.75 4.62 11.95
3/24/2021 11:00:00 AM 7.11 44.798 0.336 7.76 4.49 11.99
3/24/2021 11:15:00 AM 7.17 44.906 0.336 7.77 4.21 12.01
3/24/2021 11:30:00 AM 7.21 44.978 0.336 7.78 4.29 12.03
3/24/2021 11:45:00 AM 7.27 45.086 0.336 7.79 4.17 12.04
3/24/2021 12:00:00 PM 7.34 45.212 0.337 7.8 4.21 12.06
3/24/2021 12:15:00 PM 7.46 45.428 0.337 7.81 4.35 12.08
3/24/2021 12:30:00 PM 7.53 45.554 0.337 7.82 4.5 12.09
3/24/2021 12:45:00 PM 7.6 45.68 0.338 7.83 4.27 12.1
3/24/2021 1:00:00 PM 7.67 45.806 0.338 7.84 4.18 12.09
3/24/2021 1:15:00 PM 7.71 45.878 0.338 7.85 4.13 12.08
3/24/2021 1:30:00 PM 7.78 46.004 0.339 7.85 4.2 12.08
3/24/2021 1:45:00 PM 7.85 46.13 0.338 7.86 4.12 12.07
3/24/2021 2:00:00 PM 7.93 46.274 0.339 7.87 4.13 12.07
3/24/2021 2:15:00 PM 8.03 46.454 0.339 7.88 4.18 12.07
3/24/2021 2:30:00 PM 8.14 46.652 0.339 7.88 4.17 12.05
3/24/2021 2:45:00 PM 8.27 46.886 0.339 7.89 4.01 12.04
3/24/2021 3:00:00 PM 8.49 47.282 0.339 7.9 4.16 12.04
3/24/2021 3:15:00 PM 8.54 47.372 0.339 7.91 4.09 12.02
3/24/2021 3:30:00 PM 8.66 47.588 0.338 7.92 4.36 12
3/24/2021 3:45:00 PM 8.81 47.858 0.339 7.92 4.1 11.97
3/24/2021 4:00:00 PM 8.89 48.002 0.338 7.93 4.1 11.94
3/24/2021 4:15:00 PM 9 48.2 0.338 7.94 4.17 11.91
3/24/2021 4:30:00 PM 9.1 48.38 0.337 7.94 4.53 11.9
3/24/2021 4:45:00 PM 9.16 48.488 0.337 7.95 4.31 11.87
3/24/2021 5:00:00 PM 9.25 48.65 0.338 7.95 4.37 11.83
3/24/2021 5:15:00 PM 9.32 48.776 0.337 7.95 4.28 11.8
3/24/2021 5:30:00 PM 9.37 48.866 0.337 7.95 4.15 11.75
3/24/2021 5:45:00 PM 9.44 48.992 0.337 7.95 4.26 11.71
3/24/2021 6:00:00 PM 9.47 49.046 0.337 7.95 4.04 11.66
3/24/2021 6:15:00 PM 9.46 49.028 0.337 7.94 4.42 11.6
3/24/2021 6:30:00 PM 9.47 49.046 0.337 7.93 4.22 11.53
3/24/2021 6:45:00 PM 9.48 49.064 0.337 7.92 4.08 11.47
3/24/2021 7:00:00 PM 9.47 49.046 0.337 7.9 4.23 11.42
3/24/2021 7:15:00 PM 9.46 49.028 0.338 7.89 4.27 11.37
3/24/2021 7:30:00 PM 9.46 49.028 0.337 7.88 4.18 11.31
3/24/2021 7:45:00 PM 9.45 49.01 0.338 7.87 4.31 11.26
3/24/2021 8:00:00 PM 9.44 48.992 0.337 7.86 6.11 11.22
3/24/2021 8:15:00 PM 9.43 48.974 0.338 7.85 5.21 11.18
3/24/2021 8:30:00 PM 9.43 48.974 0.338 7.84 4.35 11.15
3/24/2021 8:45:00 PM 9.42 48.956 0.339 7.83 4.35 11.13
3/24/2021 9:00:00 PM 9.39 48.902 0.339 7.82 4.3 11.11
3/24/2021 9:15:00 PM 9.37 48.866 0.34 7.81 4.1 11.09
3/24/2021 9:30:00 PM 9.34 48.812 0.34 7.81 4.41 11.07
3/24/2021 9:45:00 PM 9.33 48.794 0.34 7.8 4.37 11.06
3/24/2021 10:00:00 PM 9.32 48.776 0.341 7.79 4.28 11.04
3/24/2021 10:15:00 PM 9.31 48.758 0.341 7.78 4.33 11.02
3/24/2021 10:30:00 PM 9.31 48.758 0.341 7.78 4.31 11.01
3/24/2021 10:45:00 PM 9.3 48.74 0.341 7.77 4.37 11.01
3/24/2021 11:00:00 PM 9.3 48.74 0.342 7.77 4.24 10.99
3/24/2021 11:15:00 PM 9.29 48.722 0.342 7.76 4.26 10.98
3/24/2021 11:30:00 PM 9.27 48.686 0.343 7.76 4.33 10.98
3/24/2021 11:45:00 PM 9.26 48.668 0.343 7.75 4.04 10.98
3/25/2021 12:00:00 AM 9.24 48.632 0.343 7.75 4.17 10.98
3/25/2021 12:15:00 AM 9.21 48.578 0.344 7.74 4.07 10.97
3/25/2021 12:30:00 AM 9.19 48.542 0.345 7.74 4.04 10.98
3/25/2021 12:45:00 AM 9.16 48.488 0.344 7.73 4.14 10.98
3/25/2021 1:00:00 AM 9.12 48.416 0.345 7.73 4.19 10.99
3/25/2021 1:15:00 AM 9.08 48.344 0.346 7.73 4.3 10.99
3/25/2021 1:30:00 AM 9.04 48.272 0.347 7.72 4.15 11
3/25/2021 1:45:00 AM 9 48.2 0.347 7.72 4.13 11.01
3/25/2021 2:00:00 AM 8.96 48.128 0.348 7.72 4.27 11.01
3/25/2021 2:15:00 AM 8.94 48.092 0.347 7.71 4.19 11.01
3/25/2021 2:30:00 AM 8.91 48.038 0.347 7.71 4.24 11.01
3/25/2021 2:45:00 AM 8.88 47.984 0.348 7.71 4.19 11.02
3/25/2021 3:00:00 AM 8.84 47.912 0.348 7.71 3.98 11.02
3/25/2021 3:15:00 AM 8.81 47.858 0.347 7.71 4.14 11.03
3/25/2021 3:30:00 AM 8.77 47.786 0.348 7.71 4.29 11.04
3/25/2021 3:45:00 AM 8.74 47.732 0.348 7.71 4.31 11.04
3/25/2021 4:00:00 AM 8.71 47.678 0.348 7.71 4.1 11.05
3/25/2021 4:15:00 AM 8.67 47.606 0.348 7.71 4.21 11.06
3/25/2021 4:30:00 AM 8.66 47.588 0.348 7.71 4.24 11.06
3/25/2021 4:45:00 AM 8.64 47.552 0.348 7.71 4.17 11.07
3/25/2021 5:00:00 AM 8.62 47.516 0.348 7.7 4.04 11.08
3/25/2021 5:15:00 AM 8.6 47.48 0.348 7.71 4.59 11.09
3/25/2021 5:30:00 AM 8.57 47.426 0.348 7.71 3.9 11.1
3/25/2021 5:45:00 AM 8.54 47.372 0.348 7.71 4.29 11.11
3/25/2021 6:00:00 AM 8.5 47.3 0.348 7.71 4.2 11.13
3/25/2021 6:15:00 AM 8.46 47.228 0.348 7.71 4.25 11.14
3/25/2021 6:30:00 AM 8.42 47.156 0.348 7.71 4.11 11.14
3/25/2021 6:45:00 AM 8.38 47.084 0.349 7.71 3.93 11.16
3/25/2021 7:00:00 AM 8.34 47.012 0.348 7.71 5.13 11.17
3/25/2021 7:15:00 AM 8.3 46.94 0.348 7.71 4.22 11.19
3/25/2021 7:30:00 AM 8.27 46.886 0.347 7.71 4.29 11.21
3/25/2021 7:45:00 AM 8.25 46.85 0.348 7.72 4.25 11.25
3/25/2021 8:00:00 AM 8.23 46.814 0.348 7.72 4.33 11.29
3/25/2021 8:15:00 AM 8.21 46.778 0.348 7.73 4.16 11.34
3/25/2021 8:30:00 AM 8.2 46.76 0.347 7.74 4.08 11.39
3/25/2021 8:45:00 AM 8.19 46.742 0.347 7.75 4.18 11.45
3/25/2021 9:00:00 AM 8.2 46.76 0.347 7.76 4.05 11.51
3/25/2021 9:15:00 AM 8.23 46.814 0.347 7.77 4.06 11.57
3/25/2021 9:30:00 AM 8.27 46.886 0.347 7.78 4.19 11.61
3/25/2021 9:45:00 AM 8.3 46.94 0.347 7.79 4.39 11.66
3/25/2021 10:00:00 AM 8.37 47.066 0.347 7.8 4.11 11.7
3/25/2021 10:15:00 AM 8.44 47.192 0.347 7.82 4.19 11.73
3/25/2021 10:30:00 AM 8.53 47.354 0.346 7.82 3.99 11.74
3/25/2021 10:45:00 AM 8.6 47.48 0.346 7.83 4.1 11.75
3/25/2021 11:00:00 AM 8.66 47.588 0.347 7.84 4.25 11.76
3/25/2021 11:15:00 AM 8.76 47.768 0.346 7.85 3.99 11.77
3/25/2021 11:30:00 AM 8.87 47.966 0.346 7.86 4.08 11.78
3/25/2021 11:45:00 AM 9.01 48.218 0.346 7.87 4.01 11.8
3/25/2021 12:00:00 PM 9.16 48.488 0.346 7.88 3.94 11.8
3/25/2021 12:15:00 PM 9.3 48.74 0.345 7.89 4 11.8
3/25/2021 12:30:00 PM 9.44 48.992 0.345 7.9 3.78 11.8
3/25/2021 12:45:00 PM 9.58 49.244 0.345 7.92 3.95 11.8
3/25/2021 1:00:00 PM 9.77 49.586 0.345 7.92 4.03 11.79
3/25/2021 1:15:00 PM 9.92 49.856 0.345 7.94 3.91 11.78
3/25/2021 1:30:00 PM 10.07 50.126 0.345 7.95 3.93 11.76
3/25/2021 1:45:00 PM 10.24 50.432 0.344 7.96 3.87 11.73
3/25/2021 2:00:00 PM 10.41 50.738 0.344 7.97 3.91 11.72
3/25/2021 2:15:00 PM 10.54 50.972 0.344 7.97 3.96 11.69
3/25/2021 2:30:00 PM 10.64 51.152 0.344 7.98 3.97 11.66
3/25/2021 2:45:00 PM 10.78 51.404 0.343 7.99 4.07 11.63
3/25/2021 3:00:00 PM 10.87 51.566 0.344 8 4.02 11.6
3/25/2021 3:15:00 PM 10.97 51.746 0.343 8 4.1 11.57
3/25/2021 3:30:00 PM 11.04 51.872 0.343 8.01 3.9 11.54
3/25/2021 3:45:00 PM 11.12 52.016 0.343 8.02 3.9 11.51
3/25/2021 4:00:00 PM 11.19 52.142 0.343 8.02 4.08 11.49
3/25/2021 4:15:00 PM 11.22 52.196 0.343 8.02 3.97 11.43
3/25/2021 4:30:00 PM 11.24 52.232 0.343 8.03 4.3 11.41
3/25/2021 4:45:00 PM 11.28 52.304 0.343 8.03 3.9 11.37
3/25/2021 5:00:00 PM 11.34 52.412 0.343 8.02 4.1 11.36
3/25/2021 5:15:00 PM 11.35 52.43 0.343 8.03 3.91 11.32
3/25/2021 5:30:00 PM 11.37 52.466 0.343 8.02 4.12 11.27
3/25/2021 5:45:00 PM 11.39 52.502 0.343 8.02 4.33 11.23
3/25/2021 6:00:00 PM 11.39 52.502 0.343 8.01 3.98 11.16
3/25/2021 6:15:00 PM 11.38 52.484 0.343 8 4.19 11.1
3/25/2021 6:30:00 PM 11.38 52.484 0.344 7.98 4.06 11.04
3/25/2021 6:45:00 PM 11.37 52.466 0.344 7.96 4.1 10.97
3/25/2021 7:00:00 PM 11.35 52.43 0.344 7.95 3.99 10.9
3/25/2021 7:15:00 PM 11.34 52.412 0.344 7.93 4.04 10.83
3/25/2021 7:30:00 PM 11.32 52.376 0.345 7.91 4.19 10.77
3/25/2021 7:45:00 PM 11.31 52.358 0.345 7.9 4.14 10.72
3/25/2021 8:00:00 PM 11.29 52.322 0.346 7.88 3.96 10.68
3/25/2021 8:15:00 PM 11.27 52.286 0.345 7.87 4.12 10.64
3/25/2021 8:30:00 PM 11.26 52.268 0.346 7.86 4.28 10.61
3/25/2021 8:45:00 PM 11.25 52.25 0.346 7.85 4.32 10.58
3/25/2021 9:00:00 PM 11.24 52.232 0.347 7.84 4.11 10.55
3/25/2021 9:15:00 PM 11.22 52.196 0.347 7.83 4.17 10.54
3/25/2021 9:30:00 PM 11.21 52.178 0.347 7.82 4.22 10.51
3/25/2021 9:45:00 PM 11.2 52.16 0.347 7.81 3.91 10.5
3/25/2021 10:00:00 PM 11.17 52.106 0.348 7.81 4.09 10.48
3/25/2021 10:15:00 PM 11.15 52.07 0.348 7.8 4.16 10.46
3/25/2021 10:30:00 PM 11.13 52.034 0.348 7.79 4.32 10.46
3/25/2021 10:45:00 PM 11.12 52.016 0.348 7.79 4.28 10.45
3/25/2021 11:00:00 PM 11.1 51.98 0.348 7.78 3.91 10.44
3/25/2021 11:15:00 PM 11.08 51.944 0.348 7.78 4.05 10.43
3/25/2021 11:30:00 PM 11.07 51.926 0.348 7.77 4.14 10.44
3/25/2021 11:45:00 PM 11.03 51.854 0.348 7.77 4.33 10.43
3/26/2021 12:00:00 AM 11.01 51.818 0.348 7.77 4.36 10.43
3/26/2021 12:15:00 AM 11 51.8 0.348 7.77 4.09 10.43
3/26/2021 12:30:00 AM 11 51.8 0.349 7.76 4.16 10.42
3/26/2021 12:45:00 AM 10.98 51.764 0.349 7.76 4.06 10.42
3/26/2021 1:00:00 AM 10.97 51.746 0.349 7.76 4.23 10.42
3/26/2021 1:15:00 AM 10.96 51.728 0.349 7.76 4.2 10.41
3/26/2021 1:30:00 AM 10.95 51.71 0.349 7.75 4.31 10.41
3/26/2021 1:45:00 AM 10.94 51.692 0.349 7.75 4.35 10.41
3/26/2021 2:00:00 AM 10.92 51.656 0.35 7.75 4.04 10.42
3/26/2021 2:15:00 AM 10.91 51.638 0.35 7.75 4 10.41
3/26/2021 2:30:00 AM 10.89 51.602 0.35 7.74 4.17 10.41
3/26/2021 2:45:00 AM 10.87 51.566 0.351 7.74 4.17 10.42
3/26/2021 3:00:00 AM 10.85 51.53 0.351 7.74 4.26 10.42
3/26/2021 3:15:00 AM 10.84 51.512 0.351 7.74 4.15 10.42
3/26/2021 3:30:00 AM 10.83 51.494 0.351 7.74 4.38 10.42
3/26/2021 3:45:00 AM 10.79 51.422 0.351 7.74 4.12 10.42
3/26/2021 4:00:00 AM 10.75 51.35 0.351 7.74 4.53 10.42
3/26/2021 4:15:00 AM 10.73 51.314 0.351 7.73 4.38 10.42
3/26/2021 4:30:00 AM 10.71 51.278 0.351 7.73 4.3 10.42
3/26/2021 4:45:00 AM 10.69 51.242 0.352 7.74 4.32 10.43
3/26/2021 5:00:00 AM 10.67 51.206 0.351 7.73 4.12 10.42
3/26/2021 5:15:00 AM 10.66 51.188 0.351 7.73 4.23 10.43
3/26/2021 5:30:00 AM 10.65 51.17 0.351 7.73 4.21 10.43
3/26/2021 5:45:00 AM 10.63 51.134 0.352 7.73 4.17 10.43
3/26/2021 6:00:00 AM 10.61 51.098 0.352 7.73 4.03 10.44
3/26/2021 6:15:00 AM 10.61 51.098 0.353 7.73 4.38 10.44
3/26/2021 6:30:00 AM 10.6 51.08 0.352 7.73 4.26 10.44
3/26/2021 6:45:00 AM 10.6 51.08 0.352 7.74 4.35 10.45
3/26/2021 7:00:00 AM 10.6 51.08 0.352 7.73 4.11 10.44
3/26/2021 7:15:00 AM 10.58 51.044 0.353 7.73 4.28 10.45
3/26/2021 7:30:00 AM 10.56 51.008 0.353 7.74 4.38 10.46
3/26/2021 7:45:00 AM 10.53 50.954 0.353 7.74 4.36 10.49
3/26/2021 8:00:00 AM 10.52 50.936 0.353 7.75 4.28 10.53
3/26/2021 8:15:00 AM 10.52 50.936 0.353 7.76 4.25 10.56
3/26/2021 8:30:00 AM 10.54 50.972 0.354 7.77 4.34 10.61
3/26/2021 8:45:00 AM 10.59 51.062 0.354 7.78 4.34 10.67
3/26/2021 9:00:00 AM 10.61 51.098 0.353 7.79 4.35 10.71
3/26/2021 9:15:00 AM 10.62 51.116 0.354 7.81 4.25 10.75
3/26/2021 9:30:00 AM 10.67 51.206 0.354 7.82 4.3 10.78
3/26/2021 9:45:00 AM 10.73 51.314 0.354 7.82 4.5 10.81
3/26/2021 10:00:00 AM 10.83 51.494 0.353 7.84 4.27 10.86
3/26/2021 10:15:00 AM 10.9 51.62 0.353 7.85 4.63 10.91
3/26/2021 10:30:00 AM 10.94 51.692 0.354 7.86 4.58 10.95
3/26/2021 10:45:00 AM 10.96 51.728 0.354 7.88 4.45 10.98
3/26/2021 11:00:00 AM 11.03 51.854 0.353 7.89 4.32 11
3/26/2021 11:15:00 AM 11.14 52.052 0.354 7.9 4.41 11.02
3/26/2021 11:30:00 AM 11.26 52.268 0.354 7.91 4.18 11.07
3/26/2021 11:45:00 AM 11.34 52.412 0.355 7.93 4.4 11.08
3/26/2021 12:00:00 PM 11.43 52.574 0.355 7.94 4.19 11.09
3/26/2021 12:15:00 PM 11.48 52.664 0.355 7.95 4.24 11.12
3/26/2021 12:30:00 PM 11.52 52.736 0.356 7.96 4.24 11.12
3/26/2021 12:45:00 PM 11.54 52.772 0.355 7.97 4.3 11.13
3/26/2021 1:00:00 PM 11.62 52.916 0.355 7.98 4.34 11.15
3/26/2021 1:15:00 PM 11.67 53.006 0.355 7.99 4.22 11.15
3/26/2021 1:30:00 PM 11.7 53.06 0.355 7.99 4.22 11.15
3/26/2021 1:45:00 PM 11.73 53.114 0.354 8 4.66 11.15
3/26/2021 2:00:00 PM 11.76 53.168 0.354 8.01 4.23 11.15
3/26/2021 2:15:00 PM 11.77 53.186 0.355 8.02 4.23 11.15
3/26/2021 2:30:00 PM 11.72 53.096 0.355 8.02 4.29 11.12
3/26/2021 2:45:00 PM 11.84 53.312 0.355 8.02 4.06 11.14
3/26/2021 3:00:00 PM 11.78 53.204 0.355 8.03 4.33 11.13
3/26/2021 3:15:00 PM 11.78 53.204 0.354 8.03 4.12 11.14
3/26/2021 3:30:00 PM 11.79 53.222 0.354 8.04 4.19 11.14
3/26/2021 3:45:00 PM 11.78 53.204 0.354 8.05 4.16 11.15
3/26/2021 4:00:00 PM 11.77 53.186 0.355 8.05 4.16 11.15
3/26/2021 4:15:00 PM 11.75 53.15 0.354 8.05 4.12 11.13
3/26/2021 4:30:00 PM 11.75 53.15 0.355 8.05 4.14 11.12
3/26/2021 4:45:00 PM 11.77 53.186 0.355 8.05 4.19 11.12
3/26/2021 5:00:00 PM 11.77 53.186 0.355 8.05 4.09 11.12
3/26/2021 5:15:00 PM 11.81 53.258 0.356 8.06 4.06 11.12
3/26/2021 5:30:00 PM 11.78 53.204 0.356 8.06 4.12 11.12
3/26/2021 5:45:00 PM 11.74 53.132 0.355 8.06 4.27 11.08
3/26/2021 6:00:00 PM 11.71 53.078 0.355 8.04 3.84 11.05
3/26/2021 6:15:00 PM 11.67 53.006 0.355 8.04 4.13 11.01
3/26/2021 6:30:00 PM 11.6 52.88 0.356 8.02 4.31 10.96
3/26/2021 6:45:00 PM 11.53 52.754 0.356 8.01 4.18 10.92
3/26/2021 7:00:00 PM 11.47 52.646 0.356 7.99 3.99 10.87
3/26/2021 7:15:00 PM 11.42 52.556 0.357 7.97 4.2 10.81
3/26/2021 7:30:00 PM 11.38 52.484 0.357 7.95 3.93 10.76
3/26/2021 7:45:00 PM 11.32 52.376 0.357 7.94 4.11 10.72
3/26/2021 8:00:00 PM 11.28 52.304 0.357 7.92 4.22 10.68
3/26/2021 8:15:00 PM 11.21 52.178 0.358 7.91 4.16 10.66
3/26/2021 8:30:00 PM 11.16 52.088 0.358 7.89 3.93 10.63
3/26/2021 8:45:00 PM 11.13 52.034 0.358 7.88 4.04 10.61
3/26/2021 9:00:00 PM 11.1 51.98 0.358 7.87 4.04 10.6
3/26/2021 9:15:00 PM 11.07 51.926 0.359 7.86 4.22 10.59
3/26/2021 9:30:00 PM 11.04 51.872 0.359 7.85 4.27 10.57
3/26/2021 9:45:00 PM 11 51.8 0.36 7.85 5.21 10.57
3/26/2021 10:00:00 PM 10.97 51.746 0.36 7.84 4.33 10.56
3/26/2021 10:15:00 PM 10.93 51.674 0.36 7.83 4.14 10.55
3/26/2021 10:30:00 PM 10.89 51.602 0.36 7.82 4.32 10.54
3/26/2021 10:45:00 PM 10.84 51.512 0.361 7.81 4.08 10.55
3/26/2021 11:00:00 PM 10.79 51.422 0.361 7.81 4.21 10.55
3/26/2021 11:15:00 PM 10.75 51.35 0.361 7.8 4.55 10.54
3/26/2021 11:30:00 PM 10.67 51.206 0.361 7.79 4.11 10.56
3/26/2021 11:45:00 PM 10.6 51.08 0.362 7.79 4.07 10.56
3/27/2021 12:00:00 AM 10.53 50.954 0.362 7.78 4.16 10.57
3/27/2021 12:15:00 AM 10.46 50.828 0.362 7.78 4.26 10.58
3/27/2021 12:30:00 AM 10.4 50.72 0.363 7.78 4.19 10.59
3/27/2021 12:45:00 AM 10.35 50.63 0.363 7.77 3.93 10.6
3/27/2021 1:00:00 AM 10.28 50.504 0.363 7.77 4.15 10.61
3/27/2021 1:15:00 AM 10.21 50.378 0.363 7.77 4.07 10.62
3/27/2021 1:30:00 AM 10.18 50.324 0.363 7.77 4.13 10.63
3/27/2021 1:45:00 AM 10.14 50.252 0.364 7.77 4.11 10.65
3/27/2021 2:00:00 AM 10.09 50.162 0.364 7.77 4.16 10.66
3/27/2021 2:15:00 AM 10.04 50.072 0.364 7.76 5.34 10.67
3/27/2021 2:30:00 AM 9.97 49.946 0.364 7.76 4.56 10.68
3/27/2021 2:45:00 AM 9.91 49.838 0.364 7.76 4.24 10.7
3/27/2021 3:00:00 AM 9.87 49.766 0.364 7.76 4.53 10.72
3/27/2021 3:15:00 AM 9.82 49.676 0.364 7.76 4.24 10.73
3/27/2021 3:30:00 AM 9.77 49.586 0.364 7.76 4.55 10.75
3/27/2021 3:45:00 AM 9.72 49.496 0.365 7.75 4.32 10.77
3/27/2021 4:00:00 AM 9.68 49.424 0.365 7.75 4.32 10.78
3/27/2021 4:15:00 AM 9.64 49.352 0.365 7.75 4.08 10.78
3/27/2021 4:30:00 AM 9.6 49.28 0.366 7.75 4.26 10.8
3/27/2021 4:45:00 AM 9.55 49.19 0.365 7.75 4.08 10.81
3/27/2021 5:00:00 AM 9.51 49.118 0.366 7.75 4.31 10.83
3/27/2021 5:15:00 AM 9.47 49.046 0.366 7.75 4.05 10.83
3/27/2021 5:30:00 AM 9.42 48.956 0.366 7.75 4.1 10.85
3/27/2021 5:45:00 AM 9.38 48.884 0.366 7.75 4.06 10.86
3/27/2021 6:00:00 AM 9.33 48.794 0.366 7.74 3.96 10.87
3/27/2021 6:15:00 AM 9.28 48.704 0.366 7.74 4.22 10.88
3/27/2021 6:30:00 AM 9.24 48.632 0.366 7.74 4.23 10.9
3/27/2021 6:45:00 AM 9.2 48.56 0.367 7.74 4.09 10.91
3/27/2021 7:00:00 AM 9.15 48.47 0.367 7.74 4.34 10.92
3/27/2021 7:15:00 AM 9.1 48.38 0.367 7.74 4.25 10.94
3/27/2021 7:30:00 AM 9.07 48.326 0.367 7.74 4.24 10.96
3/27/2021 7:45:00 AM 9.03 48.254 0.368 7.75 4.13 11.02
3/27/2021 8:00:00 AM 8.99 48.182 0.368 7.75 4.11 11.07
3/27/2021 8:15:00 AM 8.97 48.146 0.368 7.77 4.18 11.14
3/27/2021 8:30:00 AM 8.93 48.074 0.368 7.78 4.25 11.2
3/27/2021 8:45:00 AM 8.93 48.074 0.368 7.78 4.12 11.26
3/27/2021 9:00:00 AM 8.93 48.074 0.368 7.8 4.24 11.33
3/27/2021 9:15:00 AM 8.95 48.11 0.368 7.81 4.02 11.4
3/27/2021 9:30:00 AM 8.97 48.146 0.368 7.82 4.15 11.46
3/27/2021 9:45:00 AM 9.02 48.236 0.368 7.83 4 11.52
3/27/2021 10:00:00 AM 9.09 48.362 0.368 7.85 3.87 11.58
3/27/2021 10:15:00 AM 9.16 48.488 0.368 7.86 4.31 11.61
3/27/2021 10:30:00 AM 9.23 48.614 0.367 7.87 4.08 11.61
3/27/2021 10:45:00 AM 9.28 48.704 0.368 7.88 4.07 11.63
3/27/2021 11:00:00 AM 9.38 48.884 0.368 7.89 4.34 11.64
3/27/2021 11:15:00 AM 9.44 48.992 0.368 7.9 3.87 11.65
3/27/2021 11:30:00 AM 9.5 49.1 0.368 7.91 4.03 11.66
3/27/2021 11:45:00 AM 9.6 49.28 0.368 7.92 3.9 11.65
3/27/2021 12:00:00 PM 9.76 49.568 0.368 7.92 3.95 11.65
3/27/2021 12:15:00 PM 9.9 49.82 0.368 7.93 4.02 11.65
3/27/2021 12:30:00 PM 10.04 50.072 0.368 7.95 3.98 11.66
3/27/2021 12:45:00 PM 10.18 50.324 0.368 7.96 3.9 11.68
3/27/2021 1:00:00 PM 10.36 50.648 0.368 7.97 3.96 11.69
3/27/2021 1:15:00 PM 10.57 51.026 0.368 7.99 4.1 11.7
3/27/2021 1:30:00 PM 10.72 51.296 0.369 8 4.11 11.68
3/27/2021 1:45:00 PM 10.89 51.602 0.368 8.02 3.96 11.66
3/27/2021 2:00:00 PM 11.08 51.944 0.368 8.03 3.95 11.65
3/27/2021 2:15:00 PM 11.25 52.25 0.369 8.04 3.89 11.63
3/27/2021 2:30:00 PM 11.33 52.394 0.369 8.05 3.88 11.61
3/27/2021 2:45:00 PM 11.4 52.52 0.369 8.06 3.82 11.58
3/27/2021 3:00:00 PM 11.53 52.754 0.369 8.07 3.85 11.56
3/27/2021 3:15:00 PM 11.59 52.862 0.369 8.08 3.88 11.53
3/27/2021 3:30:00 PM 11.63 52.934 0.369 8.09 3.78 11.51
3/27/2021 3:45:00 PM 11.66 52.988 0.369 8.09 3.8 11.47
3/27/2021 4:00:00 PM 11.69 53.042 0.369 8.1 3.93 11.45
3/27/2021 4:15:00 PM 11.7 53.06 0.369 8.1 3.81 11.42
3/27/2021 4:30:00 PM 11.73 53.114 0.37 8.11 3.99 11.4
3/27/2021 4:45:00 PM 11.75 53.15 0.37 8.11 4.06 11.37
3/27/2021 5:00:00 PM 11.79 53.222 0.37 8.11 3.84 11.35
3/27/2021 5:15:00 PM 11.77 53.186 0.37 8.11 3.93 11.32
3/27/2021 5:30:00 PM 11.77 53.186 0.37 8.11 3.88 11.29
3/27/2021 5:45:00 PM 11.77 53.186 0.37 8.1 3.94 11.26
3/27/2021 6:00:00 PM 11.73 53.114 0.37 8.1 3.87 11.21
3/27/2021 6:15:00 PM 11.7 53.06 0.37 8.08 4.06 11.16
3/27/2021 6:30:00 PM 11.65 52.97 0.37 8.07 3.92 11.1
3/27/2021 6:45:00 PM 11.6 52.88 0.37 8.05 3.94 11.03
3/27/2021 7:00:00 PM 11.54 52.772 0.371 8.03 3.97 10.96
3/27/2021 7:15:00 PM 11.49 52.682 0.371 8.01 4.12 10.89
3/27/2021 7:30:00 PM 11.43 52.574 0.371 7.98 3.86 10.81
3/27/2021 7:45:00 PM 11.37 52.466 0.371 7.96 3.85 10.76
3/27/2021 8:00:00 PM 11.32 52.376 0.371 7.94 3.94 10.7
3/27/2021 8:15:00 PM 11.28 52.304 0.372 7.92 3.96 10.66
3/27/2021 8:30:00 PM 11.24 52.232 0.372 7.91 4.09 10.63
3/27/2021 8:45:00 PM 11.21 52.178 0.372 7.9 3.99 10.6
3/27/2021 9:00:00 PM 11.17 52.106 0.372 7.88 4.29 10.58
3/27/2021 9:15:00 PM 11.15 52.07 0.373 7.87 3.9 10.55
3/27/2021 9:30:00 PM 11.11 51.998 0.373 7.86 4.14 10.54
3/27/2021 9:45:00 PM 11.05 51.89 0.373 7.85 4.06 10.53
3/27/2021 10:00:00 PM 11 51.8 0.373 7.84 3.81 10.52
3/27/2021 10:15:00 PM 10.94 51.692 0.373 7.83 4.07 10.51
3/27/2021 10:30:00 PM 10.88 51.584 0.373 7.83 4.02 10.5
3/27/2021 10:45:00 PM 10.81 51.458 0.373 7.82 4.2 10.5
3/27/2021 11:00:00 PM 10.75 51.35 0.373 7.81 4.23 10.51
3/27/2021 11:15:00 PM 10.68 51.224 0.374 7.81 4.17 10.51
3/27/2021 11:30:00 PM 10.62 51.116 0.374 7.8 3.89 10.51
3/27/2021 11:45:00 PM 10.55 50.99 0.374 7.8 4.16 10.51
3/28/2021 12:00:00 AM 10.48 50.864 0.374 7.79 4.25 10.52
3/28/2021 12:15:00 AM 10.41 50.738 0.374 7.79 3.85 10.53
3/28/2021 12:30:00 AM 10.34 50.612 0.375 7.78 3.98 10.54
3/28/2021 12:45:00 AM 10.27 50.486 0.375 7.78 4.21 10.55
3/28/2021 1:00:00 AM 10.2 50.36 0.375 7.78 4.17 10.56
3/28/2021 1:15:00 AM 10.13 50.234 0.375 7.78 4.14 10.58
3/28/2021 1:30:00 AM 10.06 50.108 0.375 7.77 4.17 10.59
3/28/2021 1:45:00 AM 10 50 0.376 7.77 4.06 10.61
3/28/2021 2:00:00 AM 9.93 49.874 0.376 7.77 4.13 10.62
3/28/2021 2:15:00 AM 9.86 49.748 0.376 7.77 4.03 10.63
3/28/2021 2:30:00 AM 9.8 49.64 0.376 7.77 4.02 10.64
3/28/2021 2:45:00 AM 9.75 49.55 0.376 7.77 4.11 10.65
3/28/2021 3:00:00 AM 9.7 49.46 0.377 7.76 4.02 10.66
3/28/2021 3:15:00 AM 9.64 49.352 0.377 7.76 4.24 10.68
3/28/2021 3:30:00 AM 9.58 49.244 0.377 7.76 4.09 10.69
3/28/2021 3:45:00 AM 9.53 49.154 0.377 7.76 4.16 10.7
3/28/2021 4:00:00 AM 9.47 49.046 0.378 7.76 4.16 10.71
3/28/2021 4:15:00 AM 9.42 48.956 0.378 7.75 4.07 10.72
3/28/2021 4:30:00 AM 9.37 48.866 0.378 7.75 4.15 10.74
3/28/2021 4:45:00 AM 9.33 48.794 0.379 7.75 4.14 10.75
3/28/2021 5:00:00 AM 9.28 48.704 0.379 7.76 4.26 10.76
3/28/2021 5:15:00 AM 9.23 48.614 0.379 7.75 4.13 10.77
3/28/2021 5:30:00 AM 9.19 48.542 0.379 7.75 4.16 10.79
3/28/2021 5:45:00 AM 9.15 48.47 0.379 7.75 4.19 10.8
3/28/2021 6:00:00 AM 9.12 48.416 0.379 7.75 4.28 10.81
3/28/2021 6:15:00 AM 9.09 48.362 0.379 7.75 4.35 10.82
3/28/2021 6:30:00 AM 9.05 48.29 0.379 7.75 4.15 10.83
3/28/2021 6:45:00 AM 9.02 48.236 0.379 7.75 4.04 10.84
3/28/2021 7:00:00 AM 8.99 48.182 0.379 7.75 4.11 10.86
3/28/2021 7:15:00 AM 8.96 48.128 0.378 7.75 4.02 10.86
3/28/2021 7:30:00 AM 8.94 48.092 0.377 7.75 4.15 10.87
3/28/2021 7:45:00 AM 8.92 48.056 0.376 7.75 5.33 10.89
3/28/2021 8:00:00 AM 8.91 48.038 0.377 7.74 4.24 10.9
3/28/2021 8:15:00 AM 8.91 48.038 0.375 7.75 4.43 10.92
3/28/2021 8:30:00 AM 8.91 48.038 0.374 7.75 4.31 10.93
3/28/2021 8:45:00 AM 8.92 48.056 0.374 7.75 4.25 10.95
3/28/2021 9:00:00 AM 8.93 48.074 0.374 7.75 4.39 10.97
3/28/2021 9:15:00 AM 8.93 48.074 0.373 7.76 4.26 10.98
3/28/2021 9:30:00 AM 8.94 48.092 0.373 7.76 4.39 10.98
3/28/2021 9:45:00 AM 8.97 48.146 0.373 7.77 4.6 11.02
3/28/2021 10:00:00 AM 8.99 48.182 0.373 7.78 4.41 11.05
3/28/2021 10:15:00 AM 9.01 48.218 0.373 7.78 4.38 11.06
3/28/2021 10:30:00 AM 9.04 48.272 0.373 7.79 4.8 11.09
3/28/2021 10:45:00 AM 9.07 48.326 0.372 7.8 5.45 11.14
3/28/2021 11:00:00 AM 9.11 48.398 0.372 7.81 4.72 11.18
3/28/2021 11:15:00 AM 9.17 48.506 0.371 7.82 4.85 11.23
3/28/2021 11:30:00 AM 9.24 48.632 0.371 7.84 4.75 11.29
3/28/2021 11:45:00 AM 9.3 48.74 0.372 7.85 4.6 11.32
3/28/2021 12:00:00 PM 9.36 48.848 0.371 7.87 4.65 11.34
3/28/2021 12:15:00 PM 9.38 48.884 0.371 7.87 5.16 11.32
3/28/2021 12:30:00 PM 9.43 48.974 0.371 7.87 4.93 11.32
3/28/2021 12:45:00 PM 9.48 49.064 0.371 7.88 4.64 11.34
3/28/2021 1:00:00 PM 9.55 49.19 0.371 7.89 4.82 11.36
3/28/2021 1:15:00 PM 9.58 49.244 0.372 7.9 4.9 11.35
3/28/2021 1:30:00 PM 9.6 49.28 0.373 7.9 4.96 11.31
3/28/2021 1:45:00 PM 9.64 49.352 0.373 7.9 4.71 11.29
3/28/2021 2:00:00 PM 9.67 49.406 0.373 7.89 4.8 11.23
3/28/2021 2:15:00 PM 9.7 49.46 0.373 7.9 4.93 11.23
3/28/2021 2:30:00 PM 9.73 49.514 0.373 7.9 4.87 11.23
3/28/2021 2:45:00 PM 9.75 49.55 0.373 7.91 4.76 11.23
3/28/2021 3:00:00 PM 9.8 49.64 0.371 7.92 4.81 11.25
3/28/2021 3:15:00 PM 9.88 49.784 0.371 7.93 5.45 11.29
3/28/2021 3:30:00 PM 9.98 49.964 0.371 7.94 4.97 11.3
3/28/2021 3:45:00 PM 9.96 49.928 0.371 7.94 5.33 11.28
3/28/2021 4:00:00 PM 9.94 49.892 0.37 7.93 5.15 11.2
3/28/2021 4:15:00 PM 9.93 49.874 0.37 7.93 4.99 11.19
3/28/2021 4:30:00 PM 9.95 49.91 0.369 7.93 5.24 11.2
3/28/2021 4:45:00 PM 9.94 49.892 0.369 7.93 5.39 11.21
3/28/2021 5:00:00 PM 9.95 49.91 0.368 7.94 5.49 11.22
3/28/2021 5:15:00 PM 9.94 49.892 0.367 7.93 5.46 11.16
3/28/2021 5:30:00 PM 9.96 49.928 0.367 7.93 5.52 11.15
3/28/2021 5:45:00 PM 9.96 49.928 0.366 7.92 5.7 11.14
3/28/2021 6:00:00 PM 9.92 49.856 0.366 7.92 5.65 11.09
3/28/2021 6:15:00 PM 9.92 49.856 0.365 7.91 5.64 11.09
3/28/2021 6:30:00 PM 9.88 49.784 0.364 7.91 5.83 11.08
3/28/2021 6:45:00 PM 9.83 49.694 0.365 7.9 5.75 11.05
3/28/2021 7:00:00 PM 9.78 49.604 0.365 7.89 6.61 11.02
3/28/2021 7:15:00 PM 9.73 49.514 0.365 7.88 6.32 10.98
3/28/2021 7:30:00 PM 9.66 49.388 0.365 7.87 6.26 10.96
3/28/2021 7:45:00 PM 9.6 49.28 0.365 7.86 7 10.93
3/28/2021 8:00:00 PM 9.54 49.172 0.364 7.85 6.36 10.92
3/28/2021 8:15:00 PM 9.49 49.082 0.364 7.84 6.21 10.9
3/28/2021 8:30:00 PM 9.43 48.974 0.364 7.83 6.5 10.89
3/28/2021 8:45:00 PM 9.37 48.866 0.364 7.83 6.63 10.89
3/28/2021 9:00:00 PM 9.29 48.722 0.364 7.82 6.61 10.89
3/28/2021 9:15:00 PM 9.22 48.596 0.363 7.82 12.29 10.89
3/28/2021 9:30:00 PM 9.14 48.452 0.364 7.81 6.92 10.9
3/28/2021 9:45:00 PM 9.08 48.344 0.363 7.81 6.88 10.9
3/28/2021 10:00:00 PM 9.03 48.254 0.363 7.81 6.87 10.91
3/28/2021 10:15:00 PM 8.98 48.164 0.363 7.8 7.45 10.91
3/28/2021 10:30:00 PM 8.92 48.056 0.363 7.8 7.63 10.92
3/28/2021 10:45:00 PM 8.87 47.966 0.363 7.8 7.12 10.93
3/28/2021 11:00:00 PM 8.82 47.876 0.363 7.79 6.7 10.93
3/28/2021 11:15:00 PM 8.76 47.768 0.363 7.79 6.96 10.95
3/28/2021 11:30:00 PM 8.71 47.678 0.362 7.79 6.57 10.96
3/28/2021 11:45:00 PM 8.66 47.588 0.363 7.79 7.07 10.97
3/29/2021 12:00:00 AM 8.61 47.498 0.363 7.79 6.82 10.99
3/29/2021 12:15:00 AM 8.56 47.408 0.363 7.79 6.57 11
3/29/2021 12:30:00 AM 8.49 47.282 0.363 7.78 6.46 11.02
3/29/2021 12:45:00 AM 8.45 47.21 0.364 7.78 6.56 11.03
3/29/2021 1:00:00 AM 8.38 47.084 0.364 7.78 8.9 11.05
3/29/2021 1:15:00 AM 8.34 47.012 0.365 7.78 6.2 11.06
3/29/2021 1:30:00 AM 8.29 46.922 0.365 7.78 6.12 11.08
3/29/2021 1:45:00 AM 8.23 46.814 0.365 7.78 6.42 11.09
3/29/2021 2:00:00 AM 8.14 46.652 0.364 7.78 6.12 11.12
3/29/2021 2:15:00 AM 8.08 46.544 0.364 7.78 6.77 11.13
3/29/2021 2:30:00 AM 8.03 46.454 0.364 7.78 6.43 11.15
3/29/2021 2:45:00 AM 7.98 46.364 0.364 7.78 6.27 11.17
3/29/2021 3:00:00 AM 7.94 46.292 0.363 7.78 6.62 11.19
3/29/2021 3:15:00 AM 7.89 46.202 0.363 7.77 6.18 11.2
3/29/2021 3:30:00 AM 7.84 46.112 0.363 7.77 6.81 11.22
3/29/2021 3:45:00 AM 7.75 45.95 0.362 7.77 6.45 11.24
3/29/2021 4:00:00 AM 7.68 45.824 0.362 7.77 6.15 11.26
3/29/2021 4:15:00 AM 7.62 45.716 0.361 7.77 6.33 11.29
3/29/2021 4:30:00 AM 7.57 45.626 0.361 7.77 6.44 11.3
3/29/2021 4:45:00 AM 7.52 45.536 0.36 7.77 6.57 11.33
3/29/2021 5:00:00 AM 7.46 45.428 0.36 7.77 6.47 11.34
3/29/2021 5:15:00 AM 7.41 45.338 0.36 7.77 6.29 11.36
3/29/2021 5:30:00 AM 7.35 45.23 0.36 7.77 6.47 11.39
3/29/2021 5:45:00 AM 7.28 45.104 0.359 7.77 6.48 11.41
3/29/2021 6:00:00 AM 7.22 44.996 0.358 7.77 6.42 11.43
3/29/2021 6:15:00 AM 7.16 44.888 0.358 7.76 6.46 11.45
3/29/2021 6:30:00 AM 7.1 44.78 0.358 7.76 6.44 11.47
3/29/2021 6:45:00 AM 7.05 44.69 0.358 7.76 6.96 11.49
3/29/2021 7:00:00 AM 7 44.6 0.358 7.76 6.64 11.5
3/29/2021 7:15:00 AM 6.95 44.51 0.357 7.75 6.48 11.53
3/29/2021 7:30:00 AM 6.91 44.438 0.357 7.76 6.09 11.55
3/29/2021 7:45:00 AM 6.87 44.366 0.357 7.76 5.92 11.57
3/29/2021 8:00:00 AM 6.83 44.294 0.356 7.76 6.04 11.6
3/29/2021 8:15:00 AM 6.8 44.24 0.356 7.76 6.12 11.64
3/29/2021 8:30:00 AM 6.76 44.168 0.355 7.76 5.99 11.67
3/29/2021 8:45:00 AM 6.72 44.096 0.355 7.77 5.71 11.7
3/29/2021 9:00:00 AM 6.69 44.042 0.354 7.77 5.73 11.75
3/29/2021 9:15:00 AM 6.66 43.988 0.354 7.78 6.14 11.79
3/29/2021 9:30:00 AM 6.64 43.952 0.353 7.78 5.54 11.85
3/29/2021 9:45:00 AM 6.62 43.916 0.353 7.79 5.75 11.88
3/29/2021 10:00:00 AM 6.6 43.88 0.352 7.8 5.53 11.93
3/29/2021 10:15:00 AM 6.6 43.88 0.352 7.8 5.35 11.98
3/29/2021 10:30:00 AM 6.59 43.862 0.351 7.81 5.57 12.03
3/29/2021 10:45:00 AM 6.61 43.898 0.35 7.82 5.45 12.09
3/29/2021 11:00:00 AM 6.59 43.862 0.35 7.83 5.3 12.14
3/29/2021 11:15:00 AM 6.63 43.934 0.349 7.84 5.46 12.19
3/29/2021 11:30:00 AM 6.66 43.988 0.348 7.86 5.39 12.24
3/29/2021 11:45:00 AM 6.67 44.006 0.347 7.86 5.4 12.28
3/29/2021 12:00:00 PM 6.78 44.204 0.346 7.87 5.36 12.31
3/29/2021 12:15:00 PM 6.88 44.384 0.345 7.88 5.13 12.33
3/29/2021 12:30:00 PM 6.96 44.528 0.344 7.88 5.33 12.34
3/29/2021 12:45:00 PM 7.04 44.672 0.343 7.89 5.3 12.36
3/29/2021 1:00:00 PM 7.22 44.996 0.342 7.9 5.31 12.36
3/29/2021 1:15:00 PM 7.38 45.284 0.341 7.9 5.03 12.35
3/29/2021 1:30:00 PM 7.58 45.644 0.34 7.91 5.25 12.32
3/29/2021 1:45:00 PM 7.79 46.022 0.34 7.91 5.14 12.3
3/29/2021 2:00:00 PM 7.98 46.364 0.339 7.92 5 12.28
3/29/2021 2:15:00 PM 8.17 46.706 0.338 7.92 5.03 12.26
3/29/2021 2:30:00 PM 8.4 47.12 0.338 7.93 5.07 12.23
3/29/2021 2:45:00 PM 8.6 47.48 0.337 7.93 4.94 12.2
3/29/2021 3:00:00 PM 8.78 47.804 0.336 7.94 5.31 12.17
3/29/2021 3:15:00 PM 8.9 48.02 0.336 7.95 4.86 12.13
3/29/2021 3:30:00 PM 9 48.2 0.335 7.95 5.25 12.11
3/29/2021 3:45:00 PM 9.1 48.38 0.335 7.95 4.97 12.09
3/29/2021 4:00:00 PM 9.16 48.488 0.334 7.96 5.08 12.08
3/29/2021 4:15:00 PM 9.19 48.542 0.334 7.96 4.95 12.04
3/29/2021 4:30:00 PM 9.21 48.578 0.334 7.96 5.01 12.01
3/29/2021 4:45:00 PM 9.21 48.578 0.334 7.97 5.02 11.99
3/29/2021 5:00:00 PM 9.19 48.542 0.334 7.97 4.92 11.96
3/29/2021 5:15:00 PM 9.14 48.452 0.334 7.97 5.05 11.93
3/29/2021 5:30:00 PM 9.1 48.38 0.333 7.96 4.82 11.9
3/29/2021 5:45:00 PM 9.03 48.254 0.334 7.96 4.83 11.86
3/29/2021 6:00:00 PM 8.97 48.146 0.333 7.95 4.81 11.82
3/29/2021 6:15:00 PM 8.91 48.038 0.334 7.94 4.76 11.78
3/29/2021 6:30:00 PM 8.85 47.93 0.334 7.93 4.76 11.74
3/29/2021 6:45:00 PM 8.79 47.822 0.333 7.92 4.76 11.7
3/29/2021 7:00:00 PM 8.73 47.714 0.333 7.9 4.94 11.66
3/29/2021 7:15:00 PM 8.67 47.606 0.333 7.89 4.87 11.62
3/29/2021 7:30:00 PM 8.59 47.462 0.332 7.87 5.17 11.57
3/29/2021 7:45:00 PM 8.51 47.318 0.332 7.85 5.08 11.53
3/29/2021 8:00:00 PM 8.44 47.192 0.332 7.84 4.97 11.49
3/29/2021 8:15:00 PM 8.38 47.084 0.332 7.83 4.81 11.47
3/29/2021 8:30:00 PM 8.31 46.958 0.332 7.82 4.96 11.45
3/29/2021 8:45:00 PM 8.25 46.85 0.332 7.81 5.06 11.44
3/29/2021 9:00:00 PM 8.18 46.724 0.331 7.8 5.16 11.42
3/29/2021 9:15:00 PM 8.11 46.598 0.331 7.79 4.85 11.41
3/29/2021 9:30:00 PM 8.05 46.49 0.331 7.78 4.99 11.41
3/29/2021 9:45:00 PM 7.97 46.346 0.331 7.78 4.83 11.4
3/29/2021 10:00:00 PM 7.9 46.22 0.331 7.77 5.08 11.4
3/29/2021 10:15:00 PM 7.83 46.094 0.331 7.76 4.87 11.41
3/29/2021 10:30:00 PM 7.76 45.968 0.331 7.76 5.04 11.42
3/29/2021 10:45:00 PM 7.68 45.824 0.331 7.75 4.87 11.43
3/29/2021 11:00:00 PM 7.61 45.698 0.331 7.75 5.01 11.45
3/29/2021 11:15:00 PM 7.53 45.554 0.331 7.75 5.19 11.46
3/29/2021 11:30:00 PM 7.44 45.392 0.331 7.74 4.91 11.48
3/29/2021 11:45:00 PM 7.35 45.23 0.331 7.74 4.81 11.5
3/30/2021 12:00:00 AM 7.26 45.068 0.331 7.73 4.82 11.52
3/30/2021 12:15:00 AM 7.17 44.906 0.331 7.73 4.9 11.54
3/30/2021 12:30:00 AM 7.08 44.744 0.331 7.73 4.52 11.56
3/30/2021 12:45:00 AM 7 44.6 0.331 7.73 4.74 11.58
3/30/2021 1:00:00 AM 6.92 44.456 0.331 7.72 4.66 11.61
3/30/2021 1:15:00 AM 6.84 44.312 0.331 7.72 4.73 11.62
3/30/2021 1:30:00 AM 6.77 44.186 0.331 7.72 4.73 11.64
3/30/2021 1:45:00 AM 6.69 44.042 0.331 7.72 4.54 11.66
3/30/2021 2:00:00 AM 6.62 43.916 0.331 7.72 4.69 11.69
3/30/2021 2:15:00 AM 6.55 43.79 0.331 7.71 4.9 11.7
3/30/2021 2:30:00 AM 6.48 43.664 0.331 7.71 4.7 11.72
3/30/2021 2:45:00 AM 6.41 43.538 0.331 7.71 4.77 11.74
3/30/2021 3:00:00 AM 6.34 43.412 0.331 7.71 4.59 11.76
3/30/2021 3:15:00 AM 6.27 43.286 0.331 7.71 4.54 11.78
3/30/2021 3:30:00 AM 6.21 43.178 0.33 7.7 5.57 11.8
3/30/2021 3:45:00 AM 6.14 43.052 0.33 7.71 4.59 11.82
3/30/2021 4:00:00 AM 6.06 42.908 0.329 7.7 4.58 11.86
3/30/2021 4:15:00 AM 5.99 42.782 0.329 7.7 5.47 11.88
3/30/2021 4:30:00 AM 5.91 42.638 0.329 7.7 4.71 11.91
3/30/2021 4:45:00 AM 5.83 42.494 0.329 7.7 4.53 11.93
3/30/2021 5:00:00 AM 5.75 42.35 0.329 7.69 4.41 11.95
3/30/2021 5:15:00 AM 5.67 42.206 0.329 7.69 4.85 11.98
3/30/2021 5:30:00 AM 5.59 42.062 0.329 7.69 4.7 12.01
3/30/2021 5:45:00 AM 5.5 41.9 0.329 7.69 4.58 12.04
3/30/2021 6:00:00 AM 5.42 41.756 0.329 7.69 4.36 12.06
3/30/2021 6:15:00 AM 5.35 41.63 0.329 7.69 4.62 12.09
3/30/2021 6:30:00 AM 5.27 41.486 0.33 7.69 4.66 12.12
3/30/2021 6:45:00 AM 5.2 41.36 0.33 7.69 4.73 12.14
3/30/2021 7:00:00 AM 5.12 41.216 0.329 7.69 4.54 12.18
3/30/2021 7:15:00 AM 5.06 41.108 0.33 7.69 4.55 12.2
3/30/2021 7:30:00 AM 4.99 40.982 0.33 7.69 4.66 12.24
3/30/2021 7:45:00 AM 4.93 40.874 0.33 7.69 4.42 12.29
3/30/2021 8:00:00 AM 4.88 40.784 0.33 7.7 4.58 12.33
3/30/2021 8:15:00 AM 4.84 40.712 0.33 7.7 4.52 12.38
3/30/2021 8:30:00 AM 4.81 40.658 0.33 7.71 4.55 12.43
3/30/2021 8:45:00 AM 4.84 40.712 0.33 7.72 4.46 12.49
3/30/2021 9:00:00 AM 4.84 40.712 0.33 7.73 4.65 12.53
3/30/2021 9:15:00 AM 4.84 40.712 0.33 7.73 4.43 12.57
3/30/2021 9:30:00 AM 4.87 40.766 0.33 7.74 4.22 12.61
3/30/2021 9:45:00 AM 4.92 40.856 0.33 7.74 4.3 12.64
3/30/2021 10:00:00 AM 4.98 40.964 0.33 7.75 4.56 12.66
3/30/2021 10:15:00 AM 5.07 41.126 0.329 7.76 4.38 12.68
3/30/2021 10:30:00 AM 5.14 41.252 0.329 7.76 4.5 12.69
3/30/2021 10:45:00 AM 5.2 41.36 0.33 7.77 5.1 12.71
3/30/2021 11:00:00 AM 5.33 41.594 0.33 7.78 4.43 12.72
3/30/2021 11:15:00 AM 5.47 41.846 0.329 7.79 4.34 12.72
3/30/2021 11:30:00 AM 5.63 42.134 0.33 7.79 4.17 12.71
3/30/2021 11:45:00 AM 5.79 42.422 0.33 7.81 4.36 12.71
3/30/2021 12:00:00 PM 5.98 42.764 0.33 7.82 4.14 12.69
3/30/2021 12:15:00 PM 6.17 43.106 0.329 7.82 4.12 12.67
3/30/2021 12:30:00 PM 6.39 43.502 0.329 7.83 4.04 12.64
3/30/2021 12:45:00 PM 6.6 43.88 0.33 7.84 4.13 12.62
3/30/2021 1:00:00 PM 6.83 44.294 0.331 7.84 4.5 12.58
3/30/2021 1:15:00 PM 7.08 44.744 0.331 7.85 4.64 12.54
3/30/2021 1:30:00 PM 7.35 45.23 0.331 7.86 4.11 12.5
3/30/2021 1:45:00 PM 7.62 45.716 0.33 7.87 4.07 12.46
3/30/2021 2:00:00 PM 7.92 46.256 0.329 7.88 4.08 12.43
3/30/2021 2:15:00 PM 8.17 46.706 0.33 7.89 4.04 12.38
3/30/2021 2:30:00 PM 8.45 47.21 0.33 7.89 4.18 12.32
3/30/2021 2:45:00 PM 8.7 47.66 0.329 7.9 3.9 12.29
3/30/2021 3:00:00 PM 8.9 48.02 0.33 7.91 4.03 12.24
3/30/2021 3:15:00 PM 9.09 48.362 0.329 7.92 4.04 12.22
3/30/2021 3:30:00 PM 9.25 48.65 0.329 7.94 3.92 12.16
3/30/2021 3:45:00 PM 9.36 48.848 0.329 7.94 4.02 12.11
3/30/2021 4:00:00 PM 9.49 49.082 0.329 7.95 3.97 12.08
3/30/2021 4:15:00 PM 9.63 49.334 0.329 7.96 3.95 12.04
3/30/2021 4:30:00 PM 9.65 49.37 0.329 7.96 3.96 11.99
3/30/2021 4:45:00 PM 9.69 49.442 0.329 7.97 3.88 11.95
3/30/2021 5:00:00 PM 9.7 49.46 0.329 7.97 4 11.92
3/30/2021 5:15:00 PM 9.74 49.532 0.329 7.97 3.91 11.88
3/30/2021 5:30:00 PM 9.7 49.46 0.329 7.97 3.93 11.84
3/30/2021 5:45:00 PM 9.69 49.442 0.329 7.97 4.3 11.8
3/30/2021 6:00:00 PM 9.65 49.37 0.33 7.97 3.97 11.75
3/30/2021 6:15:00 PM 9.63 49.334 0.329 7.96 3.91 11.71
3/30/2021 6:30:00 PM 9.6 49.28 0.33 7.95 3.93 11.64
3/30/2021 6:45:00 PM 9.57 49.226 0.33 7.94 3.83 11.58
3/30/2021 7:00:00 PM 9.54 49.172 0.33 7.93 3.95 11.53
3/30/2021 7:15:00 PM 9.5 49.1 0.33 7.91 4.18 11.46
3/30/2021 7:30:00 PM 9.46 49.028 0.33 7.9 4.12 11.4
3/30/2021 7:45:00 PM 9.42 48.956 0.331 7.88 4.14 11.33
3/30/2021 8:00:00 PM 9.38 48.884 0.331 7.87 11.28 11.28
3/30/2021 8:15:00 PM 9.34 48.812 0.331 7.85 3.96 11.23
3/30/2021 8:30:00 PM 9.31 48.758 0.331 7.84 4.02 11.2
3/30/2021 8:45:00 PM 9.28 48.704 0.331 7.83 4.05 11.17
3/30/2021 9:00:00 PM 9.25 48.65 0.331 7.82 4.18 11.14
3/30/2021 9:15:00 PM 9.22 48.596 0.331 7.81 4.14 11.12
3/30/2021 9:30:00 PM 9.19 48.542 0.331 7.81 4.22 11.1
3/30/2021 9:45:00 PM 9.17 48.506 0.331 7.8 4.07 11.09
3/30/2021 10:00:00 PM 9.15 48.47 0.332 7.79 4.03 11.07
3/30/2021 10:15:00 PM 9.13 48.434 0.332 7.79 4.11 11.06
3/30/2021 10:30:00 PM 9.11 48.398 0.332 7.78 4.11 11.05
3/30/2021 10:45:00 PM 9.08 48.344 0.332 7.77 4.41 11.04
3/30/2021 11:00:00 PM 9.05 48.29 0.333 7.77 4.03 11.04
3/30/2021 11:15:00 PM 9.02 48.236 0.333 7.76 3.99 11.03
3/30/2021 11:30:00 PM 8.99 48.182 0.333 7.76 4.02 11.03
3/30/2021 11:45:00 PM 8.95 48.11 0.333 7.76 4 11.03
3/31/2021 12:00:00 AM 8.91 48.038 0.333 7.76 4.17 11.04
3/31/2021 12:15:00 AM 8.88 47.984 0.333 7.75 4.23 11.04
3/31/2021 12:30:00 AM 8.84 47.912 0.333 7.75 4.08 11.05
3/31/2021 12:45:00 AM 8.81 47.858 0.333 7.75 3.99 11.06
3/31/2021 1:00:00 AM 8.77 47.786 0.333 7.74 4.49 11.07
3/31/2021 1:15:00 AM 8.73 47.714 0.333 7.74 3.99 11.07
3/31/2021 1:30:00 AM 8.69 47.642 0.334 7.74 4.15 11.08
3/31/2021 1:45:00 AM 8.66 47.588 0.334 7.74 4.48 11.09
3/31/2021 2:00:00 AM 8.64 47.552 0.334 7.73 4 11.09
3/31/2021 2:15:00 AM 8.61 47.498 0.334 7.73 4.03 11.09
3/31/2021 2:30:00 AM 8.57 47.426 0.334 7.73 4.18 11.09
3/31/2021 2:45:00 AM 8.55 47.39 0.334 7.73 4.23 11.1
3/31/2021 3:00:00 AM 8.53 47.354 0.334 7.72 4.05 11.1
3/31/2021 3:15:00 AM 8.5 47.3 0.335 7.72 4.02 11.1
3/31/2021 3:30:00 AM 8.47 47.246 0.335 7.72 4.19 11.11
3/31/2021 3:45:00 AM 8.45 47.21 0.335 7.72 4.01 11.12
3/31/2021 4:00:00 AM 8.42 47.156 0.335 7.72 4.16 11.12
3/31/2021 4:15:00 AM 8.4 47.12 0.335 7.72 4.23 11.13
3/31/2021 4:30:00 AM 8.37 47.066 0.335 7.72 4.2 11.13
3/31/2021 4:45:00 AM 8.35 47.03 0.335 7.71 4.27 11.13
3/31/2021 5:00:00 AM 8.32 46.976 0.336 7.71 4.14 11.15
3/31/2021 5:15:00 AM 8.29 46.922 0.336 7.71 4.12 11.16

These are provisional data and have not been subject to a quality assurance process, but rather are the raw data reported by the instrument.
H: value is above sensor operating range
L: value is below sensor operating range
Offline: station is not reporting data
NC: parameter is not collected at site

Data Availability & Limitations

Uncertainty and potential for error can be associated with environmental monitoring data. Provisional data have not been subject to a quality assurance process, but rather are the raw data reported by the instrument. Data users are cautioned to consider carefully the provisional nature of the information before using it for decisions that concern personal or public safety or the conduct of business that involves substantial monetary or operational consequences.

Approved data are currently available by request by emailing: srbc@srbc.net. Approved data have been subject to a quality assurance process to correct for equipment or fouling drift. Data recorded during equipment malfunctions have been removed.

View Historical Stations that have been discontinued.